LS978 / G-JZHM 7700 Squawk Report (17th of October, 2021)

Aircraft B738 Reg No. G-JZHM Age 5 years old
Model 737 Jet engines 2 First flight 26-10-16
Registered 09-11-16 Rollout N/A Delivered 09-11-16
Construction No. 63570 Line No. 6150 Series 800
ADSHEX 4070E1 Airline name Jet2 Owner N/A
Airfield based Leeds-Bradford~Yorks~G First tracked N/A

Flight history for G-JZHM

Route Flight No Date Playback
Madeira (FNC) - Bristol (BRS) LS1826 2021-11-29 15:53:00
Bristol (BRS) - Madeira (FNC) LS1825 2021-11-29 11:22:00
Arrecife Airport (ACE) - Bristol (BRS) LS1802 2021-11-28 17:21:00
Bristol (BRS) - Arrecife Airport (ACE) LS1801 2021-11-28 12:55:00
Fuerteventura (FUE) - Bristol (BRS) LS1828 2021-11-27 18:11:00
Bristol (BRS) - Fuerteventura (FUE) LS1827 2021-11-27 12:48:00
Antalya (AYT) - Bristol (BRS) LS1810 2021-11-26 20:20:00
Bristol (BRS) - Antalya (AYT) LS1809 2021-11-26 16:11:00
Arrecife Airport (ACE) - Bristol (BRS) LS1802 2021-11-25 16:44:00
Bristol (BRS) - Arrecife Airport (ACE) LS1801 2021-11-25 12:53:00
Tenerife Sur (TFS) - Bristol (BRS) LS1892 2021-11-24 17:55:00
???? N/A 2021-11-24 14:03:00
Bristol (BRS) - Tenerife Sur (TFS) LS1891 2021-11-24 12:46:00
Tenerife Sur (TFS) - Bristol (BRS) LS1892 2021-11-23 18:26:00
Bristol (BRS) - Tenerife Sur (TFS) LS1891 2021-11-23 14:35:00
Gran Canaria (LPA) - Bristol (BRS) LS1854 2021-11-22 18:09:00
Bristol (BRS) - Gran Canaria (LPA) LS1853 2021-11-22 13:04:00
Tenerife Sur (TFS) - Bristol (BRS) LS1892 2021-11-21 17:53:00
Bristol (BRS) - Tenerife Sur (TFS) LS1891 2021-11-21 14:00:00
Tenerife Sur (TFS) - Bristol (BRS) LS1892 2021-11-20 19:18:00
Time Lat Lon Altitude Heading Speed Vertical Rate
2021-10-17 14:09:33 GMT 53.364426 -2.277341 0 45 0 0
2021-10-17 14:09:31 GMT 53.364429 -2.277348 0 45 0 0
2021-10-17 14:09:11 GMT 53.364426 -2.277341 0 45 0 0
2021-10-17 14:09:01 GMT 53.364380 -2.277401 0 45 4 0
2021-10-17 14:08:51 GMT 53.364285 -2.277543 0 45 5 0
2021-10-17 14:08:41 GMT 53.364052 -2.277917 0 47 10 0
2021-10-17 14:08:30 GMT 53.363892 -2.278623 0 106 10 0
2021-10-17 14:08:15 GMT 53.363731 -2.279663 0 45 13 0
2021-10-17 14:08:09 GMT 53.363495 -2.280027 0 42 15 0
2021-10-17 14:07:42 GMT 53.362015 -2.280733 0 317 11 0
2021-10-17 14:07:38 GMT 53.361912 -2.280566 18,800 315 15 0
2021-10-17 14:07:17 GMT 53.360607 -2.278451 0 337 18 0
2021-10-17 14:06:49 GMT 53.358501 -2.278552 0 5 16 0
2021-10-17 14:06:34 GMT 53.357414 -2.278741 0 5 16 0
2021-10-17 14:06:28 GMT 53.357021 -2.278815 0 5 17 0
2021-10-17 14:06:11 GMT 53.355961 -2.279585 0 50 17 0
2021-10-17 14:06:09 GMT 53.355835 -2.279825 0 53 19 0
2021-10-17 14:05:58 GMT 53.355240 -2.280919 0 36 18 0
2021-10-17 14:05:41 GMT 53.353867 -2.281645 0 5 18 0
2021-10-17 14:05:38 GMT 53.353683 -2.281683 0 5 18 0
2021-10-17 14:05:34 GMT 53.353329 -2.281743 0 5 18 0
2021-10-17 14:05:28 GMT 53.352844 -2.281824 0 5 19 0
2021-10-17 14:05:19 GMT 53.352089 -2.281965 0 5 14 0
2021-10-17 14:05:09 GMT 53.351471 -2.282006 0 343 13 0
2021-10-17 14:04:59 GMT 53.351006 -2.281566 0 306 12 0
2021-10-17 14:04:48 GMT 53.350925 -2.280762 0 230 16 0
2021-10-17 14:04:35 GMT 53.351868 -2.278815 0 230 42 0
2021-10-17 14:04:27 GMT 53.352940 -2.276634 350 231 140 -768
2021-10-17 14:04:20 GMT 53.354137 -2.274130 175 230 86 0
2021-10-17 14:04:16 GMT 53.355194 -2.271973 175 231 96 -256
2021-10-17 14:04:11 GMT 53.356640 -2.268919 175 232 127 -192
2021-10-17 14:04:08 GMT 53.357620 -2.266872 225 232 133 -128
2021-10-17 14:04:04 GMT 53.359680 -2.262634 225 232 141 -192
2021-10-17 14:03:58 GMT 53.361622 -2.258579 275 232 141 -704
2021-10-17 14:03:54 GMT 53.363388 -2.254944 350 231 140 -832
2021-10-17 14:03:51 GMT 53.364670 -2.252276 375 231 140 -768
2021-10-17 14:03:48 GMT 53.365902 -2.249774 475 231 139 -832
2021-10-17 14:03:44 GMT 53.367348 -2.246866 475 231 139 -832
2021-10-17 14:03:41 GMT 53.368790 -2.243958 500 232 138 -704
2021-10-17 14:03:38 GMT 53.369953 -2.241534 550 232 138 -768
2021-10-17 14:03:34 GMT 53.371490 -2.238386 600 231 137 -768
2021-10-17 14:03:31 GMT 53.372864 -2.235482 650 232 133 -576
2021-10-17 14:03:28 GMT 53.374050 -2.233052 675 232 133 -576
2021-10-17 14:03:24 GMT 53.375290 -2.230460 700 232 132 -704
2021-10-17 14:03:21 GMT 53.376797 -2.227316 750 232 132 -832
2021-10-17 14:03:18 GMT 53.377960 -2.224893 800 232 131 -768
2021-10-17 14:03:14 GMT 53.379227 -2.222220 875 232 130 -640
2021-10-17 14:03:11 GMT 53.380611 -2.219319 875 232 130 -640
2021-10-17 14:03:07 GMT 53.381744 -2.216963 900 232 129 -576
2021-10-17 14:03:04 GMT 53.383530 -2.213274 950 232 127 -576
2021-10-17 14:03:01 GMT 53.385635 -2.208801 1,000 232 127 -640
2021-10-17 14:02:57 GMT 53.385635 -2.208801 1,025 232 127 -640
2021-10-17 14:02:54 GMT 53.386734 -2.206604 1,075 231 126 -768
2021-10-17 14:02:51 GMT 53.388016 -2.203971 1,125 231 126 -832
2021-10-17 14:02:48 GMT 53.389366 -2.201224 1,150 232 126 -832
2021-10-17 14:02:43 GMT 53.390808 -2.198129 1,225 232 126 -704
2021-10-17 14:02:40 GMT 53.392063 -2.195569 1,250 232 127 -704
2021-10-17 14:02:37 GMT 53.392914 -2.193734 1,275 232 127 -704
2021-10-17 14:02:34 GMT 53.395294 -2.188869 1,375 232 127 -640
2021-10-17 14:02:31 GMT 53.395294 -2.188869 1,350 232 127 -640
2021-10-17 14:02:27 GMT 53.396858 -2.185633 1,375 232 129 -640
2021-10-17 14:02:23 GMT 53.398163 -2.182806 1,450 231 131 -768
2021-10-17 14:02:20 GMT 53.399372 -2.180382 1,500 231 132 -768
2021-10-17 14:02:17 GMT 53.400558 -2.177883 1,500 232 133 -704
2021-10-17 14:02:13 GMT 53.403305 -2.172232 1,550 232 137 -704
2021-10-17 14:02:10 GMT 53.403305 -2.172232 1,575 232 135 -704
2021-10-17 14:02:06 GMT 53.404633 -2.169486 1,650 231 140 -704
2021-10-17 14:02:03 GMT 53.406216 -2.166245 1,675 231 140 -704
2021-10-17 14:02:00 GMT 53.407242 -2.164150 1,700 231 142 -768
2021-10-17 14:01:57 GMT 53.408916 -2.160671 1,900 231 144 -768
2021-10-17 14:01:53 GMT 53.411430 -2.155421 1,800 231 145 -704
2021-10-17 14:01:50 GMT 53.411430 -2.155421 1,850 232 147 -768
2021-10-17 14:01:47 GMT 53.412689 -2.152771 1,850 232 147 -768
2021-10-17 14:01:44 GMT 53.414612 -2.148847 1,925 232 150 -960
2021-10-17 14:01:40 GMT 53.415939 -2.146101 1,975 232 152 -960
2021-10-17 14:01:37 GMT 53.416924 -2.143950 2,025 232 154 -896
2021-10-17 14:01:34 GMT 53.418461 -2.140799 2,075 231 157 -832
2021-10-17 14:01:31 GMT 53.419811 -2.138053 2,125 231 158 -832
2021-10-17 14:01:28 GMT 53.421021 -2.135468 2,200 232 159 -896
2021-10-17 14:01:25 GMT 53.423908 -2.129570 2,200 232 162 -896
2021-10-17 14:01:22 GMT 53.423908 -2.129570 2,250 231 163 -832
2021-10-17 14:01:19 GMT 53.425323 -2.126639 2,275 231 166 -768
2021-10-17 14:01:18 GMT 53.425770 -2.125693 2,275 231 166 -768
2021-10-17 14:01:16 GMT 53.426788 -2.123579 2,325 232 168 -832
2021-10-17 14:01:13 GMT 53.428299 -2.120440 2,350 232 170 -896
2021-10-17 14:01:11 GMT 53.429260 -2.118423 2,375 232 170 -896
2021-10-17 14:01:09 GMT 53.429958 -2.116968 2,400 232 170 -960
2021-10-17 14:01:07 GMT 53.431046 -2.114711 2,475 232 170 -960
2021-10-17 14:01:04 GMT 53.434288 -2.108002 2,550 232 170 -960
2021-10-17 14:01:01 GMT 53.434288 -2.108002 2,550 232 170 -960
2021-10-17 14:00:59 GMT 53.435349 -2.105765 2,575 232 170 -960
2021-10-17 14:00:56 GMT 53.436756 -2.102912 2,625 232 170 -896
2021-10-17 14:00:55 GMT 53.437222 -2.101862 2,625 232 170 -896
2021-10-17 14:00:52 GMT 53.438663 -2.098873 2,675 232 170 -896
2021-10-17 14:00:50 GMT 53.439690 -2.096692 2,700 231 169 -896
2021-10-17 14:00:48 GMT 53.440388 -2.095319 2,725 232 169 -896
2021-10-17 14:00:47 GMT 53.441116 -2.093759 2,750 232 169 -832
2021-10-17 14:00:44 GMT 53.442627 -2.090541 2,775 232 168 -832
2021-10-17 14:00:42 GMT 53.443272 -2.089260 2,800 232 168 -832
2021-10-17 14:00:41 GMT 53.444111 -2.087483 2,825 233 168 -768
2021-10-17 14:00:39 GMT 53.444901 -2.085706 2,850 233 168 -832
2021-10-17 14:00:37 GMT 53.446068 -2.083282 2,875 233 168 -832
2021-10-17 14:00:36 GMT 53.446346 -2.082636 2,900 233 167 -768
2021-10-17 14:00:34 GMT 53.447323 -2.080455 2,925 234 168 -576
2021-10-17 14:00:32 GMT 53.448254 -2.078355 2,950 234 168 -576
2021-10-17 14:00:30 GMT 53.449230 -2.076174 2,975 234 167 -448
2021-10-17 14:00:28 GMT 53.450211 -2.073993 2,975 235 167 -448
2021-10-17 14:00:26 GMT 53.450813 -2.072538 3,000 235 167 -448
2021-10-17 14:00:23 GMT 53.451931 -2.069873 3,000 237 166 -128
2021-10-17 14:00:21 GMT 53.453140 -2.067045 3,000 238 165 -64
2021-10-17 14:00:18 GMT 53.454163 -2.064331 3,000 240 165 0
2021-10-17 14:00:16 GMT 53.454803 -2.062683 3,000 241 165 0
2021-10-17 14:00:15 GMT 53.455330 -2.060987 3,000 243 164 0
2021-10-17 14:00:14 GMT 53.455673 -2.060015 3,000 246 163 0
2021-10-17 14:00:11 GMT 53.456772 -2.056170 3,000 251 163 0
2021-10-17 14:00:09 GMT 53.457367 -2.053973 3,000 253 163 0
2021-10-17 14:00:07 GMT 53.458218 -2.048950 3,000 259 164 0
2021-10-17 14:00:05 GMT 53.458218 -2.048950 3,000 259 164 0
2021-10-17 14:00:03 GMT 53.458557 -2.046282 3,000 260 164 0
2021-10-17 14:00:01 GMT 53.458832 -2.043928 3,000 260 165 0
2021-10-17 14:00:00 GMT 53.458969 -2.042672 3,000 260 165 0
2021-10-17 13:59:58 GMT 53.459660 -2.036591 3,000 260 165 0
2021-10-17 13:59:55 GMT 53.459660 -2.036591 3,000 260 166 0
2021-10-17 13:59:54 GMT 53.459801 -2.035217 3,000 260 166 0
2021-10-17 13:59:52 GMT 53.460217 -2.031582 3,000 259 167 0
2021-10-17 13:59:49 GMT 53.460960 -2.025120 3,000 259 167 128
2021-10-17 13:59:46 GMT 53.461708 -2.018980 3,000 260 166 64
2021-10-17 13:59:42 GMT 53.462036 -2.015834 3,000 261 166 0
2021-10-17 13:59:39 GMT 53.462036 -2.015834 3,050 288 166 -1216
2021-10-17 13:59:36 GMT 53.462402 -2.012068 3,050 288 166 -1216
2021-10-17 13:59:32 GMT 53.462639 -2.006136 3,050 282 165 -832
2021-10-17 13:59:29 GMT 53.462494 -2.003592 3,100 288 166 -1216
2021-10-17 13:59:26 GMT 53.461891 -1.999027 3,300 299 169 -1344
2021-10-17 13:59:23 GMT 53.460754 -1.994960 3,300 313 172 -1536
2021-10-17 13:59:20 GMT 53.459564 -1.991743 3,300 313 172 -1536
2021-10-17 13:59:17 GMT 53.457798 -1.988445 3,375 318 173 -1408
2021-10-17 13:59:16 GMT 53.457191 -1.987394 3,400 320 173 -1344
2021-10-17 13:59:13 GMT 53.455704 -1.985133 3,525 321 174 -1280
2021-10-17 13:59:10 GMT 53.453838 -1.982548 3,525 321 173 -1216
2021-10-17 13:59:09 GMT 53.452469 -1.980678 3,575 321 173 -1216
2021-10-17 13:59:07 GMT 53.451931 -1.979882 3,600 321 173 -1216
2021-10-17 13:59:01 GMT 53.448254 -1.974712 3,700 320 173 -1088
2021-10-17 13:58:59 GMT 53.446949 -1.972934 3,800 320 173 -1024
2021-10-17 13:58:56 GMT 53.445236 -1.970476 3,800 321 174 -1024
2021-10-17 13:58:55 GMT 53.444733 -1.969770 3,800 321 174 -960
2021-10-17 13:58:52 GMT 53.442760 -1.967037 3,850 321 176 -960
2021-10-17 13:58:50 GMT 53.441528 -1.965297 3,900 321 176 -1024
2021-10-17 13:58:49 GMT 53.440804 -1.964291 3,900 321 176 -1024
2021-10-17 13:58:48 GMT 53.439270 -1.962191 3,950 321 176 -1024
2021-10-17 13:58:45 GMT 53.438324 -1.960824 3,975 321 176 -1024
2021-10-17 13:58:43 GMT 53.436859 -1.958862 4,025 321 176 -1024
2021-10-17 13:58:40 GMT 53.435303 -1.956665 4,050 321 178 -1024
2021-10-17 13:58:38 GMT 53.433792 -1.954546 4,100 321 178 -896
2021-10-17 13:58:36 GMT 53.432693 -1.953055 4,125 321 178 -896
2021-10-17 13:58:35 GMT 53.432098 -1.952192 4,150 321 178 -960
2021-10-17 13:58:33 GMT 53.430725 -1.950309 4,175 321 178 -960
2021-10-17 13:58:31 GMT 53.429855 -1.949053 4,225 321 179 -960
2021-10-17 13:58:30 GMT 53.429306 -1.948296 4,225 321 179 -896
2021-10-17 13:58:28 GMT 53.428024 -1.946463 4,225 321 181 -704
2021-10-17 13:58:27 GMT 53.427303 -1.945469 4,250 321 181 -576
2021-10-17 13:58:26 GMT 53.426147 -1.943874 4,275 320 183 -448
2021-10-17 13:58:24 GMT 53.424839 -1.942076 4,275 320 184 -320
2021-10-17 13:58:22 GMT 53.424187 -1.941187 4,275 320 185 -384
2021-10-17 13:58:19 GMT 53.422462 -1.938683 4,300 320 187 -512
2021-10-17 13:58:18 GMT 53.421532 -1.937390 4,300 320 188 -576
2021-10-17 13:58:17 GMT 53.420929 -1.936497 4,325 321 188 -832
2021-10-17 13:58:16 GMT 53.420197 -1.935477 4,325 321 189 -896
2021-10-17 13:58:14 GMT 53.419006 -1.933829 4,375 322 191 -768
2021-10-17 13:58:13 GMT 53.418045 -1.932495 4,375 323 192 -768
2021-10-17 13:58:11 GMT 53.416782 -1.930847 4,400 325 194 -832
2021-10-17 13:58:10 GMT 53.415390 -1.929199 4,450 327 196 -960
2021-10-17 13:58:08 GMT 53.414738 -1.928343 4,450 328 196 -1024
2021-10-17 13:58:06 GMT 53.413013 -1.926485 4,500 330 199 -960
2021-10-17 13:58:04 GMT 53.408157 -1.921666 4,550 330 201 -896
2021-10-17 13:58:00 GMT 53.408157 -1.921666 4,600 330 201 -1088
2021-10-17 13:57:57 GMT 53.405659 -1.919215 4,700 330 201 -1408
2021-10-17 13:57:54 GMT 53.403656 -1.917276 4,700 330 201 -1408
2021-10-17 13:57:53 GMT 53.403004 -1.916630 4,725 330 201 -1408
2021-10-17 13:57:52 GMT 53.402023 -1.915702 4,750 330 201 -1344
2021-10-17 13:57:50 GMT 53.399872 -1.913583 4,800 330 201 -896
2021-10-17 13:57:47 GMT 53.397697 -1.911460 4,850 330 203 -640
2021-10-17 13:57:45 GMT 53.396118 -1.909816 4,850 330 203 -640
2021-10-17 13:57:42 GMT 53.393829 -1.907619 4,900 330 204 -448
2021-10-17 13:57:41 GMT 53.391495 -1.905265 4,900 330 208 -384
2021-10-17 13:57:39 GMT 53.391495 -1.905265 4,900 330 208 -384
2021-10-17 13:57:37 GMT 53.389755 -1.903538 4,900 330 208 -576
2021-10-17 13:57:35 GMT 53.387966 -1.901766 4,925 330 210 -832
2021-10-17 13:57:33 GMT 53.385967 -1.899827 4,975 330 210 -896
2021-10-17 13:57:30 GMT 53.383362 -1.897242 5,025 330 211 -896
2021-10-17 13:57:27 GMT 53.381332 -1.895299 5,050 330 214 -576
2021-10-17 13:57:25 GMT 53.377914 -1.891991 5,100 330 217 -512
2021-10-17 13:57:23 GMT 53.377914 -1.891991 5,100 330 217 -512
2021-10-17 13:57:20 GMT 53.375355 -1.889487 5,125 330 218 -512
2021-10-17 13:57:19 GMT 53.373642 -1.887844 5,125 331 220 -512
2021-10-17 13:57:17 GMT 53.372772 -1.886980 5,150 331 220 -512
2021-10-17 13:57:16 GMT 53.370895 -1.885175 5,200 330 223 -512
2021-10-17 13:57:12 GMT 53.367645 -1.882036 5,200 330 224 -448
2021-10-17 13:57:10 GMT 53.366043 -1.880439 5,200 330 225 -448
2021-10-17 13:57:09 GMT 53.365585 -1.879996 5,200 330 226 -448
2021-10-17 13:57:07 GMT 53.363937 -1.878427 5,225 330 227 -448
2021-10-17 13:57:05 GMT 53.361572 -1.876158 5,275 330 231 -512
2021-10-17 13:57:02 GMT 53.359104 -1.873734 5,275 331 232 -512
2021-10-17 13:57:00 GMT 53.356155 -1.870893 5,300 331 234 -576
2021-10-17 13:56:57 GMT 53.354462 -1.869245 5,300 331 236 -576
2021-10-17 13:56:56 GMT 53.353615 -1.868484 5,325 331 237 -640
2021-10-17 13:56:54 GMT 53.351303 -1.866263 5,350 331 238 -640
2021-10-17 13:56:53 GMT 53.350388 -1.865400 5,350 331 239 -640
2021-10-17 13:56:51 GMT 53.348446 -1.863556 5,375 331 241 -640
2021-10-17 13:56:50 GMT 53.346443 -1.861617 5,400 331 242 -640
2021-10-17 13:56:48 GMT 53.345535 -1.860770 5,425 331 244 -640
2021-10-17 13:56:46 GMT 53.343884 -1.859194 5,425 331 245 -704
2021-10-17 13:56:45 GMT 53.341835 -1.857255 5,450 330 245 -832
2021-10-17 13:56:43 GMT 53.340858 -1.856366 5,475 330 245 -832
2021-10-17 13:56:41 GMT 53.338810 -1.854347 5,500 330 247 -1088
2021-10-17 13:56:40 GMT 53.336716 -1.852327 5,525 330 247 -1216
2021-10-17 13:56:38 GMT 53.335735 -1.851358 5,575 330 247 -1344
2021-10-17 13:56:37 GMT 53.334339 -1.850065 5,600 330 247 -1344
2021-10-17 13:56:34 GMT 53.329697 -1.845468 5,700 330 247 -1856
2021-10-17 13:56:30 GMT 53.327778 -1.843684 5,825 330 245 -2688
2021-10-17 13:56:27 GMT 53.325073 -1.840995 5,875 330 243 -2752
2021-10-17 13:56:26 GMT 53.322655 -1.838594 6,050 330 239 -2944
2021-10-17 13:56:24 GMT 53.321686 -1.837620 6,100 330 239 -2944
2021-10-17 13:56:23 GMT 53.319443 -1.835345 6,225 329 236 -3008
2021-10-17 13:56:20 GMT 53.316418 -1.832374 6,350 330 234 -2944
2021-10-17 13:56:18 GMT 53.316418 -1.832374 6,375 330 232 -2816
2021-10-17 13:56:15 GMT 53.312897 -1.828831 6,575 330 229 -2368
2021-10-17 13:56:12 GMT 53.311523 -1.827497 6,575 330 228 -2368
2021-10-17 13:56:10 GMT 53.309437 -1.825427 6,700 330 227 -2240
2021-10-17 13:56:09 GMT 53.306717 -1.822789 6,800 330 225 -2112
2021-10-17 13:56:08 GMT 53.306717 -1.822789 6,800 330 225 -2048
2021-10-17 13:56:06 GMT 53.305710 -1.821792 6,825 330 223 -1792
2021-10-17 13:56:05 GMT 53.302139 -1.818316 6,925 330 223 -1024
2021-10-17 13:56:03 GMT 53.302139 -1.818316 6,925 330 223 -1024
2021-10-17 13:56:01 GMT 53.301243 -1.817429 6,950 330 224 -960
2021-10-17 13:55:59 GMT 53.299576 -1.815805 6,975 330 224 -704
2021-10-17 13:55:58 GMT 53.298660 -1.814941 6,975 330 226 -64
2021-10-17 13:55:56 GMT 53.296867 -1.813148 6,975 330 226 -64
2021-10-17 13:55:54 GMT 53.293140 -1.809513 6,975 330 228 64
2021-10-17 13:55:52 GMT 53.293140 -1.809513 6,975 330 228 0
2021-10-17 13:55:50 GMT 53.291325 -1.807736 6,975 330 231 0
2021-10-17 13:55:47 GMT 53.288486 -1.804989 6,975 330 233 -64
2021-10-17 13:55:46 GMT 53.284653 -1.801287 6,975 331 234 -64
2021-10-17 13:55:44 GMT 53.284653 -1.801287 6,975 330 235 -64
2021-10-17 13:55:41 GMT 53.282410 -1.799090 6,975 330 237 0
2021-10-17 13:55:39 GMT 53.281456 -1.798203 6,975 330 237 0
2021-10-17 13:55:38 GMT 53.279922 -1.796749 6,975 330 239 -64
2021-10-17 13:55:37 GMT 53.279068 -1.795872 6,975 330 240 -64
2021-10-17 13:55:36 GMT 53.278015 -1.794852 6,975 330 242 -64
2021-10-17 13:55:34 GMT 53.275909 -1.792812 6,975 330 242 -64
2021-10-17 13:55:32 GMT 53.273777 -1.790771 7,000 330 244 0
2021-10-17 13:55:30 GMT 53.271168 -1.788186 7,000 330 246 0
2021-10-17 13:55:28 GMT 53.270191 -1.787217 7,000 330 246 0
2021-10-17 13:55:27 GMT 53.268219 -1.785357 7,000 331 248 0
2021-10-17 13:55:25 GMT 53.267303 -1.784471 7,000 331 248 0
2021-10-17 13:55:23 GMT 53.265427 -1.782689 6,975 330 249 64
2021-10-17 13:55:21 GMT 53.263733 -1.781041 6,975 330 250 64
2021-10-17 13:55:20 GMT 53.261032 -1.778451 6,975 330 253 0
2021-10-17 13:55:17 GMT 53.258228 -1.775665 6,975 330 255 -64
2021-10-17 13:55:15 GMT 53.257095 -1.774606 6,975 330 256 -64
2021-10-17 13:55:13 GMT 53.255154 -1.772757 6,975 330 258 -256
2021-10-17 13:55:12 GMT 53.253937 -1.771545 7,000 330 258 -256
2021-10-17 13:55:09 GMT 53.250641 -1.768314 7,025 330 260 -640
2021-10-17 13:55:07 GMT 53.249195 -1.766860 7,025 330 260 -640
2021-10-17 13:55:06 GMT 53.247528 -1.765268 7,050 330 260 -832
2021-10-17 13:55:05 GMT 53.246590 -1.764356 7,075 330 260 -960
2021-10-17 13:55:03 GMT 53.244415 -1.762207 7,100 330 260 -1344
2021-10-17 13:55:02 GMT 53.243378 -1.761205 7,125 330 260 -1408
2021-10-17 13:55:01 GMT 53.242352 -1.760155 7,150 330 260 -1408
2021-10-17 13:54:59 GMT 53.240257 -1.758136 7,200 330 261 -1344
2021-10-17 13:54:58 GMT 53.239326 -1.757247 7,225 330 261 -1344
2021-10-17 13:54:56 GMT 53.235764 -1.753810 7,275 331 261 -1344
2021-10-17 13:54:55 GMT 53.235764 -1.753810 7,300 331 261 -1344
2021-10-17 13:54:54 GMT 53.233788 -1.751915 7,350 331 261 -1280
2021-10-17 13:54:52 GMT 53.232624 -1.750784 7,375 331 261 -1280
2021-10-17 13:54:50 GMT 53.231133 -1.749411 7,400 331 262 -1344
2021-10-17 13:54:48 GMT 53.229034 -1.747375 7,475 331 262 -1344
2021-10-17 13:54:45 GMT 53.226433 -1.744887 7,500 331 262 -1408
2021-10-17 13:54:43 GMT 53.224091 -1.742667 7,575 331 262 -1472
2021-10-17 13:54:42 GMT 53.223171 -1.741737 7,575 331 262 -1472
2021-10-17 13:54:40 GMT 53.220940 -1.739637 7,675 331 262 -1408
2021-10-17 13:54:38 GMT 53.218460 -1.737174 7,675 331 262 -1408
2021-10-17 13:54:36 GMT 53.216843 -1.735678 7,725 331 262 -1408
2021-10-17 13:54:35 GMT 53.215168 -1.734063 7,750 331 262 -1408
2021-10-17 13:54:33 GMT 53.211906 -1.730993 7,825 331 262 -1472
2021-10-17 13:54:30 GMT 53.210140 -1.729216 7,875 331 262 -1472
2021-10-17 13:54:28 GMT 53.208649 -1.727842 7,900 331 262 -1344
2021-10-17 13:54:25 GMT 53.205624 -1.724934 7,975 331 262 -1280
2021-10-17 13:54:24 GMT 53.204453 -1.723833 7,975 331 262 -1216
2021-10-17 13:54:23 GMT 53.202896 -1.722342 8,000 331 262 -1216
2021-10-17 13:54:22 GMT 53.201843 -1.721322 8,025 331 262 -1152
2021-10-17 13:54:21 GMT 53.200783 -1.720249 8,050 330 263 -1152
2021-10-17 13:54:19 GMT 53.199104 -1.718633 8,075 330 263 -1216
2021-10-17 13:54:17 GMT 53.196873 -1.716533 8,125 330 263 -1280
2021-10-17 13:54:16 GMT 53.195290 -1.714998 8,150 330 263 -1408
2021-10-17 13:54:15 GMT 53.192688 -1.712455 8,175 330 263 -1536
2021-10-17 13:54:12 GMT 53.188980 -1.708845 8,350 330 263 -1600
2021-10-17 13:54:10 GMT 53.188980 -1.708845 8,350 330 263 -1536
2021-10-17 13:54:08 GMT 53.187424 -1.707354 8,350 330 263 -1536
2021-10-17 13:54:07 GMT 53.186256 -1.706193 8,375 330 263 -1472
2021-10-17 13:54:06 GMT 53.185234 -1.705224 8,400 330 263 -1408
2021-10-17 13:54:03 GMT 53.181648 -1.701750 8,475 330 263 -1408
2021-10-17 13:54:02 GMT 53.180740 -1.700762 8,500 330 263 -1408
2021-10-17 13:54:00 GMT 53.178715 -1.698842 8,550 330 263 -1408
2021-10-17 13:53:59 GMT 53.177601 -1.697711 8,600 330 263 -1408
2021-10-17 13:53:58 GMT 53.175457 -1.695691 8,600 330 263 -1280
2021-10-17 13:53:55 GMT 53.173370 -1.693621 8,675 330 263 -1152
2021-10-17 13:53:54 GMT 53.172226 -1.692522 8,675 330 263 -1088
2021-10-17 13:53:52 GMT 53.170120 -1.690482 8,750 330 264 -1024
2021-10-17 13:53:50 GMT 53.167923 -1.688285 8,750 330 265 -1024
2021-10-17 13:53:48 GMT 53.166100 -1.686563 8,775 330 265 -1024
2021-10-17 13:53:47 GMT 53.165085 -1.685538 8,800 330 265 -1088
2021-10-17 13:53:46 GMT 53.162338 -1.682792 8,850 330 266 -1088
2021-10-17 13:53:43 GMT 53.161148 -1.681693 8,875 330 266 -1152
2021-10-17 13:53:42 GMT 53.159767 -1.680343 8,900 330 267 -1152
2021-10-17 13:53:41 GMT 53.158279 -1.678889 8,925 330 267 -1216
2021-10-17 13:53:40 GMT 53.157211 -1.677848 8,950 330 267 -1216
2021-10-17 13:53:38 GMT 53.155209 -1.675819 8,975 330 268 -1216
2021-10-17 13:53:37 GMT 53.154228 -1.674930 9,000 330 268 -1152
2021-10-17 13:53:36 GMT 53.153046 -1.673767 9,025 330 268 -1152
2021-10-17 13:53:34 GMT 53.151016 -1.671780 9,050 330 269 -1088
2021-10-17 13:53:33 GMT 53.149933 -1.670785 9,075 330 270 -1088
2021-10-17 13:53:32 GMT 53.147369 -1.668274 9,125 330 270 -1088
2021-10-17 13:53:30 GMT 53.145309 -1.666312 9,150 330 271 -1088
2021-10-17 13:53:27 GMT 53.144211 -1.665213 9,175 330 271 -1152
2021-10-17 13:53:26 GMT 53.141052 -1.662231 9,200 331 272 -1280
2021-10-17 13:53:24 GMT 53.141052 -1.662231 9,250 331 272 -1280
2021-10-17 13:53:23 GMT 53.137566 -1.658855 9,275 331 273 -1344
2021-10-17 13:53:21 GMT 53.137566 -1.658855 9,300 331 273 -1344
2021-10-17 13:53:19 GMT 53.136261 -1.657643 9,325 331 274 -1088
2021-10-17 13:53:18 GMT 53.134399 -1.655785 9,375 331 274 -1088
2021-10-17 13:53:16 GMT 53.130814 -1.652392 9,425 331 275 -896
2021-10-17 13:53:14 GMT 53.129791 -1.651402 9,425 330 275 -768
2021-10-17 13:53:12 GMT 53.126587 -1.648342 9,450 331 278 -640
2021-10-17 13:53:10 GMT 53.125275 -1.647061 9,475 331 278 -704
2021-10-17 13:53:08 GMT 53.123272 -1.645122 9,500 331 280 -704
2021-10-17 13:53:07 GMT 53.122147 -1.644104 9,500 331 280 -704
2021-10-17 13:53:06 GMT 53.120590 -1.642535 9,525 330 281 -704
2021-10-17 13:53:03 GMT 53.116756 -1.638902 9,550 331 282 -640
2021-10-17 13:53:00 GMT 53.112984 -1.635347 9,625 331 288 -640
2021-10-17 13:52:57 GMT 53.109680 -1.632116 9,625 331 290 -640
2021-10-17 13:52:54 GMT 53.106674 -1.629272 9,650 331 290 -640
2021-10-17 13:52:51 GMT 53.102741 -1.625492 9,700 331 292 -640
2021-10-17 13:52:48 GMT 53.099346 -1.622261 9,725 331 296 -640
2021-10-17 13:52:45 GMT 53.092220 -1.615540 9,775 331 296 -640
2021-10-17 13:52:42 GMT 53.092220 -1.615540 9,800 331 299 -704
2021-10-17 13:52:39 GMT 53.089245 -1.612714 9,850 331 305 -640
2021-10-17 13:52:36 GMT 53.081051 -1.604867 9,850 331 303 -640
2021-10-17 13:52:33 GMT 53.077103 -1.601181 9,900 331 305 -640
2021-10-17 13:52:30 GMT 53.077103 -1.601181 9,925 331 308 -960
2021-10-17 13:52:27 GMT 53.074036 -1.598282 9,975 331 310 -1088
2021-10-17 13:52:24 GMT 53.070694 -1.595078 10,050 330 311 -1088
2021-10-17 13:52:21 GMT 53.066345 -1.590881 10,075 331 314 -1024
2021-10-17 13:52:18 GMT 53.062847 -1.587524 10,325 330 316 -1088
2021-10-17 13:52:15 GMT 53.059937 -1.584702 10,200 330 319 -1088
2021-10-17 13:52:12 GMT 53.052017 -1.577148 10,275 330 321 -1024
2021-10-17 13:52:09 GMT 53.052017 -1.577148 10,300 331 324 -960
2021-10-17 13:52:06 GMT 53.048138 -1.573399 10,350 330 327 -1024
2021-10-17 13:52:03 GMT 53.043457 -1.568909 10,375 331 330 -832
2021-10-17 13:51:59 GMT 53.038696 -1.564331 10,400 331 336 -384
2021-10-17 13:51:56 GMT 53.030167 -1.556213 10,425 331 342 -320
2021-10-17 13:51:53 GMT 53.030167 -1.556213 10,450 330 349 -320
2021-10-17 13:51:50 GMT 53.021183 -1.547581 10,475 330 365 -1792
2021-10-17 13:51:47 GMT 53.018204 -1.544756 10,500 330 358 -832
2021-10-17 13:51:44 GMT 53.018204 -1.544756 10,550 330 365 -1792
2021-10-17 13:51:41 GMT 53.010406 -1.537247 11,350 330 365 -1920
2021-10-17 13:51:38 GMT 53.010406 -1.537247 11,350 331 374 -2880
2021-10-17 13:51:35 GMT 53.000702 -1.527963 11,350 331 374 -2880
2021-10-17 13:51:32 GMT 53.000702 -1.527963 11,350 331 374 -2880
2021-10-17 13:51:29 GMT 52.990768 -1.518478 11,350 331 374 -2880
2021-10-17 13:51:26 GMT 52.987202 -1.515015 11,600 331 374 -2880
2021-10-17 13:51:23 GMT 52.987202 -1.515015 11,600 331 374 -2880
2021-10-17 13:51:20 GMT 52.982265 -1.510306 12,175 330 375 -2752
2021-10-17 13:51:17 GMT 52.977768 -1.506042 12,175 330 377 -2752
2021-10-17 13:51:15 GMT 52.975235 -1.503557 12,175 330 377 -2752
2021-10-17 13:51:12 GMT 52.969231 -1.497829 12,175 330 377 -2752
2021-10-17 13:51:09 GMT 52.965599 -1.494376 12,175 330 377 -2752
2021-10-17 13:51:07 GMT 52.958176 -1.487274 12,650 331 388 -2816
2021-10-17 13:51:04 GMT 52.958176 -1.487274 12,650 331 388 -2816
2021-10-17 13:51:01 GMT 52.954243 -1.483468 12,650 331 388 -2816
2021-10-17 13:50:58 GMT 52.949539 -1.478995 12,650 331 388 -2816
2021-10-17 13:50:56 GMT 52.946640 -1.476212 12,900 331 382 -2880
2021-10-17 13:50:52 GMT 52.939636 -1.469498 13,125 331 382 -2880
2021-10-17 13:50:49 GMT 52.935196 -1.465302 13,525 331 383 -2816
2021-10-17 13:50:46 GMT 52.931351 -1.461639 13,525 331 383 -2816
2021-10-17 13:50:43 GMT 52.925842 -1.456395 13,525 331 383 -2816
2021-10-17 13:50:40 GMT 52.922771 -1.453413 13,525 331 386 -2816
2021-10-17 13:50:38 GMT 52.918907 -1.449803 13,750 331 386 -2816
2021-10-17 13:50:35 GMT 52.913361 -1.444550 13,875 331 386 -2816
2021-10-17 13:50:32 GMT 52.910385 -1.441727 13,875 331 387 -2816
2021-10-17 13:50:31 GMT 52.908875 -1.440277 14,175 331 387 -2816
2021-10-17 13:50:29 GMT 52.905453 -1.437012 14,175 331 387 -2816
2021-10-17 13:50:26 GMT 52.899857 -1.431732 14,200 331 388 -2816
2021-10-17 13:50:24 GMT 52.896748 -1.428772 14,450 331 388 -2816
2021-10-17 13:50:22 GMT 52.893166 -1.425398 14,450 331 390 -2880
2021-10-17 13:50:19 GMT 52.889099 -1.421509 14,650 331 390 -2880
2021-10-17 13:50:16 GMT 52.880859 -1.413651 15,075 331 391 -2880
2021-10-17 13:50:14 GMT 52.880859 -1.413651 15,075 331 391 -2880
2021-10-17 13:50:11 GMT 52.876778 -1.409781 15,075 331 391 -2880
2021-10-17 13:50:08 GMT 52.872711 -1.405869 15,075 331 394 -2880
2021-10-17 13:50:06 GMT 52.864838 -1.398468 15,175 331 394 -2880
2021-10-17 13:50:03 GMT 52.864838 -1.398468 15,225 331 394 -2880
2021-10-17 13:50:00 GMT 52.860260 -1.394119 15,400 331 395 -2944
2021-10-17 13:49:58 GMT 52.856644 -1.390686 15,500 331 395 -2944
2021-10-17 13:49:55 GMT 52.850616 -1.384984 15,725 331 396 -2880
2021-10-17 13:49:52 GMT 52.846054 -1.380668 15,950 331 396 -2880
2021-10-17 13:49:49 GMT 52.840469 -1.375410 16,025 331 397 -2880
2021-10-17 13:49:44 GMT 52.834259 -1.369476 16,350 331 397 -2880
2021-10-17 13:49:41 GMT 52.829636 -1.365128 16,350 330 401 -3008
2021-10-17 13:49:38 GMT 52.825195 -1.360855 16,675 330 401 -3008
2021-10-17 13:49:35 GMT 52.820404 -1.356341 16,675 330 401 -3008
2021-10-17 13:49:33 GMT 52.815582 -1.351776 16,850 330 401 -3008
2021-10-17 13:49:30 GMT 52.812561 -1.348877 16,850 330 401 -3008
2021-10-17 13:49:28 GMT 52.808067 -1.344570 17,000 330 401 -3008
2021-10-17 13:49:25 GMT 52.804016 -1.340724 17,225 331 403 -3008
2021-10-17 13:49:22 GMT 52.800480 -1.337429 17,225 331 403 -3008
2021-10-17 13:49:21 GMT 52.798710 -1.335702 17,275 331 403 -3008
2021-10-17 13:49:19 GMT 52.795624 -1.332779 17,375 331 408 -3008
2021-10-17 13:49:17 GMT 52.792099 -1.329424 17,500 331 408 -3008
2021-10-17 13:49:16 GMT 52.790634 -1.328049 17,525 331 408 -3008
2021-10-17 13:49:14 GMT 52.787399 -1.325030 17,725 331 408 -3008
2021-10-17 13:49:12 GMT 52.776535 -1.314697 18,250 331 408 -3008
2021-10-17 13:49:09 GMT 52.776535 -1.314697 18,075 331 406 -3008
2021-10-17 13:49:06 GMT 52.772781 -1.311188 18,150 331 407 -3008
2021-10-17 13:49:03 GMT 52.766914 -1.305647 18,575 331 408 -3008
2021-10-17 13:49:00 GMT 52.761841 -1.300860 18,575 331 408 -3008
2021-10-17 13:48:57 GMT 52.758907 -1.298113 18,575 331 408 -3008
2021-10-17 13:48:54 GMT 52.752670 -1.292228 18,825 331 411 -3136
2021-10-17 13:48:51 GMT 52.747742 -1.287537 18,900 331 411 -3136
2021-10-17 13:48:48 GMT 52.737026 -1.277475 19,050 331 414 -3200
2021-10-17 13:48:45 GMT 52.737026 -1.277475 19,675 331 414 -3200
2021-10-17 13:48:42 GMT 52.733734 -1.274414 19,675 331 414 -3200
2021-10-17 13:48:39 GMT 52.726414 -1.267587 19,675 331 414 -3200
2021-10-17 13:48:37 GMT 52.726414 -1.267587 19,675 331 414 -3200
2021-10-17 13:48:35 GMT 52.719990 -1.261466 19,825 331 414 -3200
2021-10-17 13:48:33 GMT 52.718307 -1.259918 19,825 331 414 -3200
2021-10-17 13:48:30 GMT 52.713333 -1.255188 20,250 331 416 -3200
2021-10-17 13:48:27 GMT 52.709015 -1.251144 20,250 331 416 -3200
2021-10-17 13:48:24 GMT 52.703697 -1.246164 20,250 331 416 -3200
2021-10-17 13:48:22 GMT 52.699860 -1.242523 20,550 331 416 -3200
2021-10-17 13:48:19 GMT 52.695179 -1.238159 20,650 331 416 -3200
2021-10-17 13:48:17 GMT 52.692665 -1.235805 20,650 331 416 -3200
2021-10-17 13:48:16 GMT 52.690842 -1.234131 21,100 331 416 -3200
2021-10-17 13:48:14 GMT 52.686676 -1.230164 21,100 331 418 -3200
2021-10-17 13:48:11 GMT 52.681957 -1.225760 21,100 331 418 -3200
2021-10-17 13:48:08 GMT 52.676788 -1.220895 21,150 331 418 -3200
2021-10-17 13:48:07 GMT 52.671902 -1.216343 21,450 331 418 -3200
2021-10-17 13:48:05 GMT 52.671902 -1.216343 21,450 331 418 -3200
2021-10-17 13:48:04 GMT 52.667061 -1.211792 21,950 331 420 -3328
2021-10-17 13:48:02 GMT 52.667061 -1.211792 21,950 331 420 -3328
2021-10-17 13:47:59 GMT 52.661148 -1.206299 21,950 331 420 -3328
2021-10-17 13:47:56 GMT 52.657612 -1.203003 21,950 331 420 -3328
2021-10-17 13:47:53 GMT 52.651886 -1.197739 21,950 331 420 -3392
2021-10-17 13:47:51 GMT 52.648487 -1.194528 22,050 329 420 -3456
2021-10-17 13:47:49 GMT 52.645134 -1.191310 22,175 329 420 -3456
2021-10-17 13:47:48 GMT 52.643143 -1.189346 22,250 328 419 -3584
2021-10-17 13:47:46 GMT 52.640015 -1.186210 22,550 328 419 -3584
2021-10-17 13:47:43 GMT 52.629913 -1.175385 22,825 322 418 -3584
2021-10-17 13:47:40 GMT 52.629913 -1.175385 22,825 322 418 -3584
2021-10-17 13:47:37 GMT 52.625290 -1.170120 22,925 323 418 -3776
2021-10-17 13:47:34 GMT 52.619522 -1.163177 23,300 322 418 -3584
2021-10-17 13:47:31 GMT 52.615677 -1.158295 23,375 321 418 -3392
2021-10-17 13:47:28 GMT 52.612381 -1.153946 23,425 321 419 -3264
2021-10-17 13:47:25 GMT 52.607758 -1.147690 23,600 321 418 -3136
2021-10-17 13:47:23 GMT 52.604324 -1.143036 23,725 321 418 -3136
2021-10-17 13:47:21 GMT 52.602081 -1.139984 23,950 321 418 -3136
2021-10-17 13:47:18 GMT 52.595993 -1.131668 23,975 321 418 -3072
2021-10-17 13:47:15 GMT 52.592285 -1.126556 24,225 321 419 -3200
2021-10-17 13:47:12 GMT 52.587223 -1.119664 24,350 321 420 -3200
2021-10-17 13:47:09 GMT 52.579605 -1.109238 24,525 321 420 -3200
2021-10-17 13:47:06 GMT 52.579605 -1.109238 24,575 321 420 -3200
2021-10-17 13:47:04 GMT 52.575577 -1.103745 24,725 321 420 -3200
2021-10-17 13:47:02 GMT 52.572922 -1.100006 24,925 321 419 -3200
2021-10-17 13:46:59 GMT 52.568462 -1.093924 25,000 321 419 -3200
2021-10-17 13:46:57 GMT 52.565296 -1.089608 25,150 321 418 -3200
2021-10-17 13:46:54 GMT 52.561012 -1.083723 25,375 321 417 -3264
2021-10-17 13:46:51 GMT 52.556717 -1.077805 25,500 321 417 -3200
2021-10-17 13:46:48 GMT 52.552094 -1.071548 25,575 321 417 -3264
2021-10-17 13:46:46 GMT 52.548862 -1.067086 25,850 321 416 -3264
2021-10-17 13:46:43 GMT 52.545418 -1.062456 25,825 321 417 -3264
2021-10-17 13:46:41 GMT 52.540997 -1.056414 26,075 321 416 -3264
2021-10-17 13:46:38 GMT 52.536995 -1.050921 26,125 321 416 -3200
2021-10-17 13:46:36 GMT 52.535362 -1.048723 26,525 321 416 -2880
2021-10-17 13:46:34 GMT 52.531082 -1.042916 26,400 321 416 -2944
2021-10-17 13:46:30 GMT 52.521469 -1.029739 26,600 321 418 -2560
2021-10-17 13:46:27 GMT 52.521469 -1.029739 26,725 321 420 -2560
2021-10-17 13:46:24 GMT 52.517628 -1.024475 26,725 321 420 -2560
2021-10-17 13:46:22 GMT 52.513184 -1.018372 26,925 321 420 -3264
2021-10-17 13:46:19 GMT 52.510208 -1.014328 26,925 321 420 -3264
2021-10-17 13:46:17 GMT 52.507198 -1.010193 27,075 321 420 -3968
2021-10-17 13:46:15 GMT 52.502590 -1.003915 27,850 321 422 -4352
2021-10-17 13:46:12 GMT 52.497936 -0.997559 27,525 321 421 -4224
2021-10-17 13:46:09 GMT 52.493328 -0.991202 27,825 321 422 -4352
2021-10-17 13:46:06 GMT 52.490162 -0.986965 28,125 321 422 -4608
2021-10-17 13:46:04 GMT 52.483566 -0.977936 28,125 321 422 -4800
2021-10-17 13:46:01 GMT 52.483566 -0.977936 28,250 321 422 -4800
2021-10-17 13:45:59 GMT 52.479813 -0.972824 28,450 321 422 -4864
2021-10-17 13:45:57 GMT 52.476105 -0.967712 28,950 321 422 -4160
2021-10-17 13:45:54 GMT 52.472488 -0.962830 28,950 321 422 -4160
2021-10-17 13:45:51 GMT 52.463348 -0.950396 29,150 321 422 -3392
2021-10-17 13:45:49 GMT 52.463348 -0.950396 29,325 321 422 -3264
2021-10-17 13:45:46 GMT 52.459251 -0.944903 29,375 321 422 -3008
2021-10-17 13:45:43 GMT 52.455063 -0.939174 29,475 321 422 -2752
2021-10-17 13:45:41 GMT 52.450687 -0.933289 29,675 321 424 -1216
2021-10-17 13:45:38 GMT 52.446945 -0.928192 29,725 321 422 -1920
2021-10-17 13:45:35 GMT 52.442448 -0.922067 29,825 321 424 -1088
2021-10-17 13:45:32 GMT 52.438068 -0.916181 29,900 321 424 -1024
2021-10-17 13:45:29 GMT 52.433693 -0.910296 29,875 321 424 -960
2021-10-17 13:45:27 GMT 52.432484 -0.908648 30,000 321 423 -960
2021-10-17 13:45:25 GMT 52.427994 -0.902557 29,950 321 424 -960
2021-10-17 13:45:23 GMT 52.424377 -0.897598 30,000 321 423 -960
2021-10-17 13:45:20 GMT 52.419983 -0.891724 30,150 321 423 -960
2021-10-17 13:45:17 GMT 52.416050 -0.886440 30,075 321 421 -960
2021-10-17 13:45:14 GMT 52.412476 -0.881577 30,125 321 421 -960
2021-10-17 13:45:12 GMT 52.408882 -0.876709 30,200 321 421 -960
2021-10-17 13:45:09 GMT 52.403458 -0.869370 30,225 321 421 -960
2021-10-17 13:45:06 GMT 52.398083 -0.862034 30,325 321 421 -960
2021-10-17 13:45:03 GMT 52.395195 -0.858189 30,450 321 420 -896
2021-10-17 13:45:00 GMT 52.390137 -0.851288 30,475 321 421 -960
2021-10-17 13:44:57 GMT 52.386658 -0.846634 30,400 321 420 -960
2021-10-17 13:44:54 GMT 52.382629 -0.841141 30,425 321 420 -896
2021-10-17 13:44:52 GMT 52.377686 -0.834503 30,525 321 420 -960
2021-10-17 13:44:49 GMT 52.374386 -0.830017 30,525 321 420 -960
2021-10-17 13:44:46 GMT 52.369171 -0.822954 30,625 321 420 -960
2021-10-17 13:44:43 GMT 52.365726 -0.818324 30,625 321 420 -960
2021-10-17 13:44:41 GMT 52.361847 -0.813065 30,850 321 420 -960
2021-10-17 13:44:38 GMT 52.357067 -0.806632 30,700 321 420 -960
2021-10-17 13:44:35 GMT 52.352554 -0.800552 30,750 321 420 -960
2021-10-17 13:44:32 GMT 52.350494 -0.797729 30,750 321 420 -960
2021-10-17 13:44:30 GMT 52.341057 -0.785052 30,825 321 420 -960
2021-10-17 13:44:27 GMT 52.341057 -0.785052 30,875 321 420 -896
2021-10-17 13:44:24 GMT 52.332230 -0.773163 30,925 321 421 -896
2021-10-17 13:44:21 GMT 52.332230 -0.773163 30,950 321 421 -832
2021-10-17 13:44:18 GMT 52.328476 -0.768051 31,025 321 421 -832
2021-10-17 13:44:16 GMT 52.323532 -0.761414 31,050 321 421 -832
2021-10-17 13:44:13 GMT 52.321152 -0.758209 31,050 321 420 -832
2021-10-17 13:44:11 GMT 52.316483 -0.751953 31,075 321 420 -768
2021-10-17 13:44:08 GMT 52.308701 -0.741501 31,150 321 419 -832
2021-10-17 13:44:05 GMT 52.308701 -0.741501 31,175 321 419 -768
2021-10-17 13:44:03 GMT 52.301834 -0.732269 31,200 321 419 -832
2021-10-17 13:44:01 GMT 52.301834 -0.732269 31,225 321 419 -832
2021-10-17 13:43:58 GMT 52.298695 -0.728080 31,250 321 418 -832
2021-10-17 13:43:56 GMT 52.290638 -0.717250 31,600 321 408 -704
2021-10-17 13:43:53 GMT 52.290638 -0.717250 31,350 321 415 -832
2021-10-17 13:43:51 GMT 52.286030 -0.711129 31,375 321 414 -768
2021-10-17 13:43:48 GMT 52.283657 -0.707912 31,425 321 414 -768
2021-10-17 13:43:45 GMT 52.278214 -0.700607 31,450 321 409 -704
2021-10-17 13:43:43 GMT 52.275558 -0.697021 31,525 321 407 -640
2021-10-17 13:43:40 GMT 52.269970 -0.689549 31,500 321 409 -704
2021-10-17 13:43:37 GMT 52.266895 -0.685468 31,550 321 407 -640
2021-10-17 13:43:35 GMT 52.263702 -0.681152 31,650 321 405 -640
2021-10-17 13:43:33 GMT 52.260101 -0.676287 31,625 321 404 -640
2021-10-17 13:43:30 GMT 52.255783 -0.670471 31,625 321 403 -704
2021-10-17 13:43:27 GMT 52.253036 -0.666809 31,675 321 399 -832
2021-10-17 13:43:25 GMT 52.245159 -0.656276 31,700 321 399 -768
2021-10-17 13:43:22 GMT 52.245159 -0.656276 31,775 321 393 -2432
2021-10-17 13:43:19 GMT 52.239525 -0.648664 31,800 321 395 -1728
2021-10-17 13:43:16 GMT 52.235275 -0.642929 31,925 321 393 -2432
2021-10-17 13:43:13 GMT 52.232357 -0.638933 31,975 321 393 -2432
2021-10-17 13:43:10 GMT 52.228729 -0.634003 32,475 321 390 -3136
2021-10-17 13:43:07 GMT 52.222595 -0.625763 32,650 321 391 -3520
2021-10-17 13:43:04 GMT 52.221321 -0.624023 32,475 321 390 -3136
2021-10-17 13:43:02 GMT 52.218521 -0.620346 32,775 321 390 -3136
2021-10-17 13:43:00 GMT 52.214108 -0.614371 32,675 321 390 -2688
2021-10-17 13:42:57 GMT 52.209358 -0.608015 32,825 321 390 -2496
2021-10-17 13:42:54 GMT 52.205868 -0.603306 32,975 321 390 -2496
2021-10-17 13:42:51 GMT 52.200714 -0.596466 33,075 321 390 -2496
2021-10-17 13:42:48 GMT 52.196651 -0.591064 33,225 321 390 -2496
2021-10-17 13:42:45 GMT 52.192322 -0.585336 33,350 321 391 -2496
2021-10-17 13:42:42 GMT 52.185883 -0.576782 33,500 321 392 -2304
2021-10-17 13:42:39 GMT 52.185883 -0.576782 33,500 321 391 -2368
2021-10-17 13:42:37 GMT 52.181381 -0.570897 33,775 322 394 -1856
2021-10-17 13:42:34 GMT 52.177734 -0.566025 33,700 321 392 -2240
2021-10-17 13:42:32 GMT 52.176353 -0.564148 33,925 321 393 -2112
2021-10-17 13:42:30 GMT 52.172104 -0.558624 33,850 322 394 -1856
2021-10-17 13:42:27 GMT 52.167709 -0.552826 33,925 321 396 -1600
2021-10-17 13:42:23 GMT 52.157776 -0.539703 34,075 321 398 -2048
2021-10-17 13:42:20 GMT 52.157776 -0.539703 34,200 321 399 -2048
2021-10-17 13:42:17 GMT 52.150890 -0.530640 34,275 321 399 -1920
2021-10-17 13:42:15 GMT 52.150890 -0.530640 34,350 321 402 -1472
2021-10-17 13:42:12 GMT 52.145599 -0.523605 34,450 321 404 -1792
2021-10-17 13:42:09 GMT 52.141579 -0.518241 34,475 321 404 -1792
2021-10-17 13:42:06 GMT 52.134338 -0.508652 34,625 321 404 -2176
2021-10-17 13:42:03 GMT 52.130127 -0.503082 34,675 321 406 -1920
2021-10-17 13:42:01 GMT 52.130127 -0.503082 34,750 321 408 -1600
2021-10-17 13:41:58 GMT 52.126404 -0.497995 34,850 321 408 -1600
2021-10-17 13:41:55 GMT 52.121017 -0.490799 34,950 321 409 -1472
2021-10-17 13:41:52 GMT 52.118816 -0.487871 34,975 321 411 -1344
2021-10-17 13:41:50 GMT 52.113876 -0.481186 35,025 321 412 -1280
2021-10-17 13:41:47 GMT 52.110340 -0.476493 35,075 321 414 -1344
2021-10-17 13:41:45 GMT 52.109024 -0.474701 35,125 321 414 -2560
2021-10-17 13:41:42 GMT 52.102341 -0.465775 35,450 321 414 -3136
2021-10-17 13:41:39 GMT 52.099121 -0.461426 35,475 321 413 -3648
2021-10-17 13:41:37 GMT 52.095448 -0.456482 35,600 321 411 -4096
2021-10-17 13:41:34 GMT 52.091354 -0.450974 35,750 321 409 -3840
2021-10-17 13:41:32 GMT 52.088417 -0.447065 35,875 321 409 -3840
2021-10-17 13:41:30 GMT 52.084351 -0.441666 36,050 321 407 -3264
2021-10-17 13:41:27 GMT 52.079819 -0.435638 36,225 321 407 -3136
2021-10-17 13:41:24 GMT 52.077057 -0.431920 36,275 321 407 -3136
2021-10-17 13:41:21 GMT 52.068073 -0.419992 36,550 321 405 -3328
2021-10-17 13:41:18 GMT 52.068073 -0.419992 36,650 321 404 -3520
2021-10-17 13:41:15 GMT 52.059414 -0.408534 36,900 321 401 -4032
2021-10-17 13:41:12 GMT 52.055828 -0.403826 37,350 321 400 -3712
2021-10-17 13:41:10 GMT 52.051804 -0.398560 37,250 322 399 -3392
2021-10-17 13:41:07 GMT 52.051804 -0.398560 37,450 322 398 -3072
2021-10-17 13:41:04 GMT 52.048054 -0.393624 37,925 321 399 -2176
2021-10-17 13:41:01 GMT 52.043198 -0.387268 37,575 321 399 -2176
2021-10-17 13:40:58 GMT 52.039627 -0.382538 37,675 321 399 -1984
2021-10-17 13:40:55 GMT 52.035645 -0.377274 37,775 321 399 -1664
2021-10-17 13:40:53 GMT 52.031937 -0.372314 37,875 321 399 -1280
2021-10-17 13:40:50 GMT 52.028923 -0.368356 37,925 321 399 -1024
2021-10-17 13:40:48 GMT 52.024338 -0.362320 38,000 321 400 -64
2021-10-17 13:40:45 GMT 52.020638 -0.357370 38,000 321 400 -384
2021-10-17 13:40:42 GMT 52.016327 -0.351715 38,000 321 400 -192
2021-10-17 13:40:38 GMT 52.011612 -0.345459 38,000 321 401 -64
2021-10-17 13:40:36 GMT 52.007446 -0.339966 38,000 321 400 0
2021-10-17 13:40:33 GMT 52.004578 -0.336182 38,000 321 399 0
2021-10-17 13:40:31 GMT 52.001877 -0.332572 38,000 321 400 0
2021-10-17 13:40:29 GMT 51.997730 -0.327079 38,000 321 400 64
2021-10-17 13:40:26 GMT 51.990562 -0.317662 38,000 321 400 64
2021-10-17 13:40:24 GMT 51.990562 -0.317662 38,000 321 400 0
2021-10-17 13:40:22 GMT 51.987854 -0.314026 38,000 321 399 0
2021-10-17 13:40:20 GMT 51.985703 -0.311203 38,000 321 399 0
2021-10-17 13:40:17 GMT 51.980988 -0.305023 38,000 321 400 0
2021-10-17 13:40:14 GMT 51.975807 -0.298200 38,000 321 400 0
2021-10-17 13:40:11 GMT 51.971512 -0.292587 38,000 321 399 64
2021-10-17 13:40:08 GMT 51.967667 -0.287476 38,000 321 399 64
2021-10-17 13:40:05 GMT 51.963501 -0.281982 38,000 321 399 64
2021-10-17 13:40:03 GMT 51.960526 -0.278015 38,000 321 399 64
2021-10-17 13:40:01 GMT 51.957233 -0.273717 38,000 321 399 64
2021-10-17 13:39:58 GMT 51.949829 -0.263829 38,000 321 399 64
2021-10-17 13:39:55 GMT 51.945129 -0.257629 38,000 321 399 64
2021-10-17 13:39:53 GMT 51.945129 -0.257629 38,000 321 399 64
2021-10-17 13:39:50 GMT 51.942398 -0.254059 38,000 321 400 64
2021-10-17 13:39:48 GMT 51.938984 -0.249468 38,000 321 400 0
2021-10-17 13:39:45 GMT 51.935959 -0.245544 38,000 321 399 0
2021-10-17 13:39:43 GMT 51.933243 -0.241928 38,000 321 400 0
2021-10-17 13:39:41 GMT 51.928974 -0.236285 38,000 321 400 0
2021-10-17 13:39:39 GMT 51.926228 -0.232675 38,000 321 399 0
2021-10-17 13:39:37 GMT 51.922256 -0.227432 38,000 321 399 0
2021-10-17 13:39:34 GMT 51.918686 -0.222702 38,000 321 399 0
2021-10-17 13:39:31 GMT 51.911655 -0.213527 38,000 321 400 0
2021-10-17 13:39:29 GMT 51.911655 -0.213527 38,000 321 400 0
2021-10-17 13:39:26 GMT 51.907654 -0.208269 38,000 321 400 0
2021-10-17 13:39:23 GMT 51.900925 -0.199432 38,000 321 400 0
2021-10-17 13:39:21 GMT 51.900925 -0.199432 38,000 321 400 0
2021-10-17 13:39:19 GMT 51.898315 -0.195999 38,000 321 401 0
2021-10-17 13:39:16 GMT 51.892570 -0.188446 38,000 321 402 0
2021-10-17 13:39:13 GMT 51.889824 -0.184860 38,000 322 405 0
2021-10-17 13:39:11 GMT 51.886093 -0.179938 38,000 322 403 0
2021-10-17 13:39:08 GMT 51.876232 -0.167084 38,000 322 405 0
2021-10-17 13:39:05 GMT 51.876232 -0.167084 38,000 322 405 0
2021-10-17 13:39:02 GMT 51.870552 -0.159607 38,000 321 406 0
2021-10-17 13:39:00 GMT 51.870552 -0.159607 38,000 321 406 -64
2021-10-17 13:38:57 GMT 51.862976 -0.149726 38,000 321 408 -64
2021-10-17 13:38:55 GMT 51.862976 -0.149726 38,000 321 409 -64
2021-10-17 13:38:52 GMT 51.858307 -0.143585 38,000 321 410 -64
2021-10-17 13:38:50 GMT 51.850952 -0.133972 38,000 321 412 -64
2021-10-17 13:38:47 GMT 51.846668 -0.128326 38,000 322 411 -64
2021-10-17 13:38:44 GMT 51.844158 -0.125046 38,000 321 414 0
2021-10-17 13:38:42 GMT 51.844158 -0.125046 38,000 321 413 0
2021-10-17 13:38:40 GMT 51.840618 -0.120392 38,000 322 415 0
2021-10-17 13:38:38 GMT 51.838802 -0.118103 38,000 321 414 0
2021-10-17 13:38:36 GMT 51.834503 -0.112461 38,000 321 415 0
2021-10-17 13:38:33 GMT 51.827225 -0.102885 38,000 322 416 0
2021-10-17 13:38:30 GMT 51.827225 -0.102885 38,000 322 418 0
2021-10-17 13:38:28 GMT 51.823151 -0.097615 38,000 322 418 0
2021-10-17 13:38:25 GMT 51.817932 -0.090786 38,000 322 418 0
2021-10-17 13:38:22 GMT 51.813263 -0.084699 38,000 321 419 64
2021-10-17 13:38:19 GMT 51.810425 -0.080987 38,000 321 419 64
2021-10-17 13:38:17 GMT 51.807568 -0.077286 38,000 321 419 64
2021-10-17 13:38:15 GMT 51.803192 -0.071564 38,000 322 420 0
2021-10-17 13:38:12 GMT 51.800034 -0.067403 38,000 322 420 0
2021-10-17 13:38:10 GMT 51.795822 -0.061909 38,000 322 420 0
2021-10-17 13:38:07 GMT 51.790668 -0.055237 38,000 321 420 0
2021-10-17 13:38:04 GMT 51.787811 -0.051517 38,000 322 421 -64
2021-10-17 13:38:02 GMT 51.784199 -0.046768 38,000 322 421 0
2021-10-17 13:38:00 GMT 51.781311 -0.043030 38,000 322 421 -64
2021-10-17 13:37:58 GMT 51.776936 -0.037308 38,000 322 421 0
2021-10-17 13:37:55 GMT 51.773304 -0.032578 38,000 322 421 0
2021-10-17 13:37:53 GMT 51.770554 -0.029025 38,000 322 421 0
2021-10-17 13:37:51 GMT 51.766159 -0.023309 38,000 322 421 0
2021-10-17 13:37:48 GMT 51.757370 -0.011877 38,000 322 421 0
2021-10-17 13:37:45 GMT 51.757370 -0.011877 38,000 322 421 0
2021-10-17 13:37:42 GMT 51.749516 -0.001602 38,000 322 421 0
2021-10-17 13:37:40 GMT 51.749516 -0.001602 38,000 322 421 64
2021-10-17 13:37:37 GMT 51.746025 0.002899 38,000 322 421 64
2021-10-17 13:37:34 GMT 51.742393 0.007629 38,000 322 421 64
2021-10-17 13:37:32 GMT 51.737694 0.013733 38,000 322 421 -64
2021-10-17 13:37:29 GMT 51.733749 0.018855 38,000 322 421 -64
2021-10-17 13:37:27 GMT 51.731918 0.021286 38,000 322 421 -64
2021-10-17 13:37:25 GMT 51.727497 0.026932 38,000 322 421 -64
2021-10-17 13:37:23 GMT 51.726006 0.028915 38,000 322 421 0
2021-10-17 13:37:21 GMT 51.722076 0.034072 38,000 322 421 0
2021-10-17 13:37:19 GMT 51.718140 0.039139 38,000 322 421 0
2021-10-17 13:37:16 GMT 51.713562 0.045059 38,000 322 421 0
2021-10-17 13:37:13 GMT 51.709351 0.050552 38,000 322 421 0
2021-10-17 13:37:10 GMT 51.704178 0.057233 38,000 322 421 0
2021-10-17 13:37:07 GMT 51.695435 0.068665 38,000 322 421 0
2021-10-17 13:37:04 GMT 51.695435 0.068665 38,000 322 420 0
2021-10-17 13:37:01 GMT 51.691772 0.073341 38,000 322 420 0
2021-10-17 13:36:59 GMT 51.688766 0.077286 38,000 322 420 0
2021-10-17 13:36:57 GMT 51.680012 0.088654 38,000 322 420 0
2021-10-17 13:36:54 GMT 51.676392 0.093384 38,000 322 420 0
2021-10-17 13:36:51 GMT 51.676392 0.093384 38,000 322 420 0
2021-10-17 13:36:49 GMT 51.673496 0.097122 38,000 322 420 0
2021-10-17 13:36:46 GMT 51.664307 0.109047 38,000 322 420 0
2021-10-17 13:36:43 GMT 51.662647 0.111160 38,000 322 420 0
2021-10-17 13:36:41 GMT 51.657944 0.117286 38,000 322 420 0
2021-10-17 13:36:39 GMT 51.654781 0.121384 38,000 322 420 0
2021-10-17 13:36:36 GMT 51.654781 0.121384 38,000 322 420 0
2021-10-17 13:36:34 GMT 51.650253 0.127234 38,000 322 420 0
2021-10-17 13:36:31 GMT 51.646774 0.131762 38,000 322 420 0
2021-10-17 13:36:29 GMT 51.642746 0.137032 38,000 322 419 0
2021-10-17 13:36:26 GMT 51.638351 0.142674 38,000 322 419 0
2021-10-17 13:36:23 GMT 51.634598 0.147573 38,000 322 419 0
2021-10-17 13:36:21 GMT 51.629131 0.154572 38,000 322 419 0
2021-10-17 13:36:19 GMT 51.629131 0.154572 38,000 322 419 0
2021-10-17 13:36:17 GMT 51.625534 0.159228 38,000 322 419 0
2021-10-17 13:36:14 GMT 51.621311 0.164719 38,000 322 419 0
2021-10-17 13:36:12 GMT 51.618286 0.168610 38,000 322 418 0
2021-10-17 13:36:10 GMT 51.614365 0.173629 38,000 322 419 0
2021-10-17 13:36:08 GMT 51.611347 0.177536 38,000 322 419 0
2021-10-17 13:36:05 GMT 51.606972 0.183105 38,000 322 422 0
2021-10-17 13:36:02 GMT 51.602551 0.188751 38,000 322 420 0
2021-10-17 13:35:59 GMT 51.599213 0.193003 38,000 322 421 0
2021-10-17 13:35:57 GMT 51.591610 0.202789 38,000 322 422 0
2021-10-17 13:35:55 GMT 51.587677 0.207849 38,000 322 425 -64
2021-10-17 13:35:52 GMT 51.587677 0.207849 38,000 322 423 0
2021-10-17 13:35:50 GMT 51.584629 0.211792 38,000 322 424 0
2021-10-17 13:35:48 GMT 51.581406 0.215867 38,000 322 425 -64
2021-10-17 13:35:46 GMT 51.577412 0.220947 38,000 322 426 -64
2021-10-17 13:35:43 GMT 51.573395 0.226111 38,000 321 426 0
2021-10-17 13:35:41 GMT 51.571564 0.228486 38,000 321 426 0
2021-10-17 13:35:39 GMT 51.566380 0.235291 38,000 319 426 64
2021-10-17 13:35:36 GMT 51.563259 0.239639 38,000 318 425 64
2021-10-17 13:35:34 GMT 51.558701 0.246153 38,000 317 425 64
2021-10-17 13:35:31 GMT 51.556835 0.248947 38,000 316 425 0
2021-10-17 13:35:29 GMT 51.552612 0.255506 38,000 316 425 0
2021-10-17 13:35:27 GMT 51.545246 0.266953 38,000 316 425 -64
2021-10-17 13:35:24 GMT 51.545246 0.266953 38,000 316 425 -64
2021-10-17 13:35:21 GMT 51.542175 0.271763 38,000 316 425 -64
2021-10-17 13:35:19 GMT 51.538101 0.278147 38,000 316 424 0
2021-10-17 13:35:16 GMT 51.534119 0.284271 38,000 317 416 0
2021-10-17 13:35:13 GMT 51.530766 0.289459 38,000 316 424 0
2021-10-17 13:35:11 GMT 51.527664 0.294330 38,000 316 424 0
2021-10-17 13:35:08 GMT 51.524017 0.299988 38,000 316 424 64
2021-10-17 13:35:06 GMT 51.520477 0.305481 38,000 316 424 0
2021-10-17 13:35:04 GMT 51.516941 0.310898 38,000 316 424 0
2021-10-17 13:35:01 GMT 51.513866 0.315704 38,000 316 424 0
2021-10-17 13:34:58 GMT 51.509773 0.322037 38,000 316 424 0
2021-10-17 13:34:56 GMT 51.506104 0.327734 38,000 317 423 0
2021-10-17 13:34:53 GMT 51.502167 0.333821 38,000 317 423 0
2021-10-17 13:34:51 GMT 51.499374 0.338127 38,000 317 423 0
2021-10-17 13:34:49 GMT 51.496830 0.342102 38,000 317 423 0
2021-10-17 13:34:46 GMT 51.491058 0.350952 38,000 317 423 0
2021-10-17 13:34:43 GMT 51.488251 0.355348 38,000 317 423 0
2021-10-17 13:34:41 GMT 51.484863 0.360545 38,000 317 423 0
2021-10-17 13:34:39 GMT 51.482483 0.364256 38,000 316 422 0
2021-10-17 13:34:37 GMT 51.479233 0.369186 38,000 316 422 0
2021-10-17 13:34:34 GMT 51.475185 0.375519 38,000 316 422 0
2021-10-17 13:34:31 GMT 51.470108 0.383377 38,000 316 422 -64
2021-10-17 13:34:28 GMT 51.466187 0.389421 38,000 316 422 -64
2021-10-17 13:34:25 GMT 51.460846 0.397720 38,000 316 422 -64
2021-10-17 13:34:22 GMT 51.457214 0.403302 38,000 316 422 0
2021-10-17 13:34:19 GMT 51.450668 0.413546 38,000 316 421 0
2021-10-17 13:34:16 GMT 51.450668 0.413546 38,000 316 421 0
2021-10-17 13:34:14 GMT 51.448563 0.416738 38,000 316 421 0
2021-10-17 13:34:12 GMT 51.445206 0.421982 38,000 316 420 0
2021-10-17 13:34:10 GMT 51.442410 0.426254 38,000 316 420 0
2021-10-17 13:34:08 GMT 51.434464 0.438562 38,000 316 419 0
2021-10-17 13:34:05 GMT 51.434464 0.438562 38,000 316 419 0
2021-10-17 13:34:03 GMT 51.432404 0.441829 38,000 316 419 0
2021-10-17 13:34:01 GMT 51.428772 0.447464 38,000 316 419 0
2021-10-17 13:33:59 GMT 51.423603 0.455399 38,000 316 419 0
2021-10-17 13:33:57 GMT 51.421555 0.458605 38,000 316 419 0
2021-10-17 13:33:55 GMT 51.421555 0.458605 38,000 316 417 0
2021-10-17 13:33:53 GMT 51.418625 0.463133 38,000 316 417 0
2021-10-17 13:33:51 GMT 51.416016 0.467224 38,000 316 417 0
2021-10-17 13:33:49 GMT 51.413223 0.471521 38,000 316 417 0
2021-10-17 13:33:47 GMT 51.410294 0.476049 38,000 316 417 0
2021-10-17 13:33:45 GMT 51.406311 0.482285 38,000 316 417 0
2021-10-17 13:33:42 GMT 51.402702 0.487823 38,000 316 417 0
2021-10-17 13:33:40 GMT 51.400047 0.491943 38,000 316 417 0
2021-10-17 13:33:38 GMT 51.393532 0.502014 38,000 317 416 64
2021-10-17 13:33:35 GMT 51.393532 0.502014 38,000 316 417 0
2021-10-17 13:33:33 GMT 51.390087 0.507355 38,000 316 417 64
2021-10-17 13:33:30 GMT 51.387039 0.512052 38,000 317 416 64
2021-10-17 13:33:28 GMT 51.383057 0.518213 38,000 317 416 64
2021-10-17 13:33:26 GMT 51.380684 0.521851 38,000 317 416 0
2021-10-17 13:33:24 GMT 51.378590 0.525055 38,000 317 416 0
2021-10-17 13:33:21 GMT 51.373745 0.532532 38,000 317 416 0
2021-10-17 13:33:19 GMT 51.370834 0.536994 38,000 317 416 0
2021-10-17 13:33:17 GMT 51.363785 0.547867 38,000 317 416 0
2021-10-17 13:33:14 GMT 51.363785 0.547867 38,000 317 416 0
2021-10-17 13:33:11 GMT 51.360062 0.553589 38,000 317 416 0
2021-10-17 13:33:08 GMT 51.354767 0.561713 38,000 317 416 0
2021-10-17 13:33:05 GMT 51.351334 0.566984 38,000 317 415 0
2021-10-17 13:33:03 GMT 51.348679 0.571066 38,000 317 415 0
2021-10-17 13:33:00 GMT 51.343826 0.578490 38,000 317 415 0
2021-10-17 13:32:57 GMT 51.341766 0.581665 38,000 317 415 0
2021-10-17 13:32:55 GMT 51.338745 0.586358 38,000 317 415 0
2021-10-17 13:32:53 GMT 51.334316 0.593109 38,000 317 413 0
2021-10-17 13:32:50 GMT 51.330460 0.599052 38,000 317 413 -64
2021-10-17 13:32:47 GMT 51.326309 0.605392 38,000 317 412 -64
2021-10-17 13:32:44 GMT 51.322174 0.611745 38,025 317 406 64
2021-10-17 13:32:41 GMT 51.316040 0.621173 38,025 317 410 0
2021-10-17 13:32:39 GMT 51.311783 0.627631 38,025 317 410 0
2021-10-17 13:32:37 GMT 51.311783 0.627631 38,025 317 408 0
2021-10-17 13:32:34 GMT 51.308395 0.632902 38,025 317 408 0
2021-10-17 13:32:32 GMT 51.306618 0.635605 38,025 317 408 0
2021-10-17 13:32:30 GMT 51.304291 0.639114 38,000 317 406 64
2021-10-17 13:32:28 GMT 51.300751 0.644482 38,000 317 406 64
2021-10-17 13:32:26 GMT 51.297775 0.649084 38,000 317 406 64
2021-10-17 13:32:23 GMT 51.293446 0.655670 38,000 317 406 64
2021-10-17 13:32:20 GMT 51.287205 0.665207 38,000 317 406 -64
2021-10-17 13:32:18 GMT 51.287205 0.665207 38,000 317 406 -64
2021-10-17 13:32:16 GMT 51.281109 0.674515 38,000 317 405 0
2021-10-17 13:32:13 GMT 51.281109 0.674515 38,000 317 405 -64
2021-10-17 13:32:11 GMT 51.275162 0.683602 38,000 317 405 64
2021-10-17 13:32:09 GMT 51.275162 0.683602 38,000 317 405 64
2021-10-17 13:32:07 GMT 51.273567 0.686111 38,000 317 405 64
2021-10-17 13:32:05 GMT 51.269890 0.691681 38,000 317 405 128
2021-10-17 13:32:02 GMT 51.265045 0.699116 38,000 317 405 64
2021-10-17 13:31:59 GMT 51.261383 0.704758 38,000 317 405 0
2021-10-17 13:31:57 GMT 51.258671 0.708847 38,000 317 405 0
2021-10-17 13:31:55 GMT 51.256119 0.712775 38,000 317 406 0
2021-10-17 13:31:52 GMT 51.251778 0.719452 38,000 317 406 0
2021-10-17 13:31:50 GMT 51.249069 0.723539 38,000 317 406 0
2021-10-17 13:31:47 GMT 51.245541 0.728912 38,000 317 406 -64
2021-10-17 13:31:45 GMT 51.242157 0.734005 38,000 317 405 0
2021-10-17 13:31:42 GMT 51.236046 0.743256 38,000 317 405 0
2021-10-17 13:31:40 GMT 51.236046 0.743256 38,000 317 405 0
2021-10-17 13:31:37 GMT 51.230347 0.751895 38,000 317 405 0
2021-10-17 13:31:34 GMT 51.227757 0.755768 38,000 317 405 64
2021-10-17 13:31:32 GMT 51.224762 0.760284 38,000 317 405 64
2021-10-17 13:31:29 GMT 51.221241 0.765610 38,000 317 405 64
2021-10-17 13:31:27 GMT 51.217842 0.770798 38,000 317 405 0
2021-10-17 13:31:25 GMT 51.211075 0.781069 38,000 317 405 -64
2021-10-17 13:31:22 GMT 51.207554 0.786362 38,000 317 405 0
2021-10-17 13:31:19 GMT 51.207554 0.786362 38,000 317 405 0
2021-10-17 13:31:16 GMT 51.200775 0.796657 38,000 317 405 0
2021-10-17 13:31:14 GMT 51.200775 0.796657 38,000 317 404 0
2021-10-17 13:31:11 GMT 51.195637 0.804443 38,000 317 404 64
2021-10-17 13:31:08 GMT 51.192673 0.808980 38,000 317 405 0
2021-10-17 13:31:05 GMT 51.188374 0.815582 38,000 316 405 64
2021-10-17 13:31:03 GMT 51.185162 0.820541 38,000 316 405 64
2021-10-17 13:31:01 GMT 51.183243 0.823455 38,000 316 405 0
2021-10-17 13:30:58 GMT 51.177341 0.832520 38,000 317 404 0
2021-10-17 13:30:56 GMT 51.177341 0.832520 38,000 317 404 0
2021-10-17 13:30:54 GMT 51.173309 0.838747 38,000 317 404 0
2021-10-17 13:30:51 GMT 51.169846 0.844116 38,000 317 404 0
2021-10-17 13:30:49 GMT 51.166855 0.848694 38,000 317 405 0
2021-10-17 13:30:47 GMT 51.164074 0.852966 38,000 317 405 0
2021-10-17 13:30:44 GMT 51.159485 0.859977 38,000 317 405 0
2021-10-17 13:30:41 GMT 51.152065 0.871277 38,000 317 404 0
2021-10-17 13:30:38 GMT 51.152065 0.871277 38,000 317 404 0
2021-10-17 13:30:36 GMT 51.148041 0.877496 38,000 317 404 -64
2021-10-17 13:30:33 GMT 51.142612 0.885696 38,000 317 404 64
2021-10-17 13:30:31 GMT 51.142612 0.885696 38,000 317 403 64
2021-10-17 13:30:28 GMT 51.137913 0.892868 38,000 317 404 0
2021-10-17 13:30:25 GMT 51.134560 0.898056 38,000 317 403 64
2021-10-17 13:30:21 GMT 51.129135 0.906224 38,000 317 404 0
2021-10-17 13:30:19 GMT 51.121582 0.917655 38,000 317 404 0
2021-10-17 13:30:16 GMT 51.121582 0.917655 38,000 317 404 -64
2021-10-17 13:30:13 GMT 51.111877 0.932427 38,000 317 404 -64
2021-10-17 13:30:10 GMT 51.111877 0.932427 38,000 317 404 -64
2021-10-17 13:30:07 GMT 51.110825 0.934135 38,000 317 404 0
2021-10-17 13:30:05 GMT 51.107986 0.938366 38,000 317 403 0
2021-10-17 13:30:03 GMT 51.102348 0.947037 38,000 317 403 0
2021-10-17 13:30:01 GMT 51.102348 0.947037 38,000 317 404 0
2021-10-17 13:29:59 GMT 51.099380 0.951505 38,000 317 404 0
2021-10-17 13:29:57 GMT 51.095737 0.957031 38,000 317 404 0
2021-10-17 13:29:54 GMT 51.089497 0.966415 38,000 317 403 0
2021-10-17 13:29:51 GMT 51.089497 0.966415 38,000 317 403 0
2021-10-17 13:29:49 GMT 51.086655 0.970731 38,000 317 403 0
2021-10-17 13:29:47 GMT 51.083313 0.975779 38,000 317 403 0
2021-10-17 13:29:45 GMT 51.080200 0.980530 38,000 317 403 0
2021-10-17 13:29:42 GMT 51.072506 0.992126 38,000 317 403 0
2021-10-17 13:29:39 GMT 51.072506 0.992126 38,000 317 403 -64
2021-10-17 13:29:36 GMT 51.067108 1.000275 38,000 317 403 0
2021-10-17 13:29:33 GMT 51.064407 1.004358 38,000 317 403 0
2021-10-17 13:29:31 GMT 51.061844 1.008293 38,000 317 403 0
2021-10-17 13:29:28 GMT 51.057796 1.014404 38,000 317 403 0
2021-10-17 13:29:25 GMT 51.053879 1.020318 38,000 317 403 64
2021-10-17 13:29:23 GMT 51.051315 1.024178 38,000 317 403 64
2021-10-17 13:29:20 GMT 51.047379 1.030042 38,000 317 403 0
2021-10-17 13:29:17 GMT 51.043320 1.036148 38,000 317 403 0
2021-10-17 13:29:15 GMT 51.039410 1.042099 38,000 317 404 -64
2021-10-17 13:29:12 GMT 51.036163 1.046967 38,000 317 403 0
2021-10-17 13:29:09 GMT 51.032272 1.052906 38,000 317 403 -64
2021-10-17 13:29:07 GMT 51.030350 1.055727 38,000 317 404 -64
2021-10-17 13:29:05 GMT 51.026325 1.061859 38,000 317 404 0
2021-10-17 13:29:03 GMT 51.023487 1.066132 38,000 317 404 0
2021-10-17 13:29:00 GMT 51.019821 1.071612 38,000 317 404 0
2021-10-17 13:28:57 GMT 51.016598 1.076508 38,000 317 404 0
2021-10-17 13:28:55 GMT 51.013092 1.081856 38,000 317 404 0
2021-10-17 13:28:53 GMT 51.010777 1.085281 38,000 317 404 0
2021-10-17 13:28:50 GMT 51.007004 1.090987 38,000 317 404 0
2021-10-17 13:28:48 GMT 51.004578 1.094699 38,000 317 404 0
2021-10-17 13:28:46 GMT 51.000771 1.100388 38,000 317 404 0
2021-10-17 13:28:44 GMT 50.998764 1.103458 38,000 317 403 0
2021-10-17 13:28:42 GMT 50.996861 1.106262 38,000 317 403 0
2021-10-17 13:28:39 GMT 50.991039 1.115036 38,000 317 403 0
2021-10-17 13:28:36 GMT 50.984665 1.124540 38,000 317 403 0
2021-10-17 13:28:34 GMT 50.984665 1.124540 38,000 317 403 0
2021-10-17 13:28:31 GMT 50.980053 1.131439 38,000 317 403 0
2021-10-17 13:28:29 GMT 50.978302 1.134116 38,000 317 403 0
2021-10-17 13:28:26 GMT 50.973541 1.141168 38,000 317 403 0
2021-10-17 13:28:23 GMT 50.970291 1.146067 38,000 317 403 0
2021-10-17 13:28:21 GMT 50.967453 1.150298 38,000 317 404 0
2021-10-17 13:28:18 GMT 50.963242 1.156608 38,000 317 404 0
2021-10-17 13:28:16 GMT 50.959572 1.162109 38,000 317 404 0
2021-10-17 13:28:13 GMT 50.955780 1.167743 38,000 317 404 0
2021-10-17 13:28:10 GMT 50.951843 1.173681 38,000 317 404 0
2021-10-17 13:28:08 GMT 50.949966 1.176502 38,000 317 404 0
2021-10-17 13:28:06 GMT 50.946579 1.181624 38,000 317 405 0
2021-10-17 13:28:04 GMT 50.944160 1.185303 38,000 317 404 0
2021-10-17 13:28:02 GMT 50.940079 1.191349 38,000 317 404 0
2021-10-17 13:27:59 GMT 50.936947 1.196060 38,000 317 404 0
2021-10-17 13:27:56 GMT 50.932617 1.202558 38,000 317 404 0
2021-10-17 13:27:53 GMT 50.929638 1.207047 38,000 317 404 0
2021-10-17 13:27:50 GMT 50.925568 1.213098 38,000 317 405 0
2021-10-17 13:27:47 GMT 50.922272 1.217998 38,000 317 405 0
2021-10-17 13:27:45 GMT 50.917953 1.224442 38,000 317 405 0
2021-10-17 13:27:42 GMT 50.913025 1.231731 38,000 317 404 0
2021-10-17 13:27:39 GMT 50.906780 1.241074 38,000 317 405 0
2021-10-17 13:27:37 GMT 50.903275 1.246354 38,000 317 404 0
2021-10-17 13:27:34 GMT 50.903275 1.246354 38,000 317 404 0
2021-10-17 13:27:31 GMT 50.896179 1.256895 38,000 317 404 0
2021-10-17 13:27:29 GMT 50.896179 1.256895 38,000 317 404 -64
2021-10-17 13:27:27 GMT 50.894444 1.259537 38,000 317 404 -64
2021-10-17 13:27:25 GMT 50.890766 1.265030 38,000 317 404 0
2021-10-17 13:27:23 GMT 50.888298 1.268692 38,000 317 404 0
2021-10-17 13:27:21 GMT 50.884506 1.274340 38,000 317 404 0
2021-10-17 13:27:18 GMT 50.881119 1.279462 38,000 317 404 -64
2021-10-17 13:27:16 GMT 50.879745 1.281466 38,000 317 405 0
2021-10-17 13:27:14 GMT 50.876522 1.286316 38,000 317 405 0
2021-10-17 13:27:12 GMT 50.873775 1.290359 38,000 317 405 0
2021-10-17 13:27:09 GMT 50.869865 1.296310 38,000 317 405 0
2021-10-17 13:27:07 GMT 50.866978 1.300507 38,000 317 405 64
2021-10-17 13:27:05 GMT 50.861393 1.308823 38,000 317 405 0
2021-10-17 13:27:03 GMT 50.856087 1.316757 38,000 317 405 0
2021-10-17 13:27:00 GMT 50.856087 1.316757 38,000 317 405 0
2021-10-17 13:26:57 GMT 50.853245 1.321030 38,000 317 405 0
2021-10-17 13:26:54 GMT 50.849010 1.327286 38,000 317 405 0
2021-10-17 13:26:51 GMT 50.845470 1.332550 38,000 317 405 0
2021-10-17 13:26:49 GMT 50.841003 1.339264 38,000 317 405 0
2021-10-17 13:26:46 GMT 50.838535 1.342926 38,000 317 405 0
2021-10-17 13:26:43 GMT 50.833237 1.350799 38,000 317 405 0
2021-10-17 13:26:39 GMT 50.829163 1.356886 38,000 317 405 0
2021-10-17 13:26:37 GMT 50.826279 1.361117 38,000 317 405 0
2021-10-17 13:26:35 GMT 50.823544 1.365204 38,000 317 405 0
2021-10-17 13:26:33 GMT 50.819355 1.371460 38,000 317 405 0
2021-10-17 13:26:30 GMT 50.816757 1.375295 38,000 317 405 0
2021-10-17 13:26:27 GMT 50.812271 1.381976 38,000 317 405 0
2021-10-17 13:26:24 GMT 50.807785 1.388657 38,000 317 405 0
2021-10-17 13:26:21 GMT 50.805176 1.392517 38,000 317 405 0
2021-10-17 13:26:19 GMT 50.800968 1.398773 38,000 317 405 -64
2021-10-17 13:26:16 GMT 50.796066 1.406102 38,000 317 405 0
2021-10-17 13:26:13 GMT 50.791855 1.412337 38,000 317 405 0
2021-10-17 13:26:10 GMT 50.785446 1.421839 38,000 317 405 0
2021-10-17 13:26:07 GMT 50.785446 1.421839 38,000 317 405 0
2021-10-17 13:26:05 GMT 50.781929 1.427078 38,000 317 405 0
2021-10-17 13:26:02 GMT 50.778900 1.431563 38,000 317 405 64
2021-10-17 13:25:59 GMT 50.774826 1.437650 38,000 317 405 64
2021-10-17 13:25:57 GMT 50.771591 1.442490 38,000 317 405 64
2021-10-17 13:25:54 GMT 50.767914 1.447983 38,000 317 405 0
2021-10-17 13:25:52 GMT 50.764206 1.453387 38,000 317 405 0
2021-10-17 13:25:50 GMT 50.762329 1.456223 38,000 317 405 0
2021-10-17 13:25:47 GMT 50.757675 1.463089 38,000 317 405 0
2021-10-17 13:25:45 GMT 50.751434 1.472391 38,000 317 405 0
2021-10-17 13:25:42 GMT 50.751434 1.472391 38,000 317 405 0
2021-10-17 13:25:40 GMT 50.743893 1.483536 38,000 317 405 0
2021-10-17 13:25:37 GMT 50.743893 1.483536 38,000 317 405 0
2021-10-17 13:25:33 GMT 50.738983 1.490800 38,000 317 404 0
2021-10-17 13:25:30 GMT 50.731232 1.502304 38,000 317 405 0
2021-10-17 13:25:27 GMT 50.731232 1.502304 38,000 317 405 0
2021-10-17 13:25:24 GMT 50.725925 1.510162 38,000 317 404 0
2021-10-17 13:25:21 GMT 50.722916 1.514554 38,000 317 404 0
2021-10-17 13:25:17 GMT 50.717880 1.522052 38,000 317 405 0
2021-10-17 13:25:15 GMT 50.711197 1.531925 38,000 317 405 0
2021-10-17 13:25:13 GMT 50.711197 1.531925 38,000 317 405 0
2021-10-17 13:25:11 GMT 50.708702 1.535568 38,000 317 405 0
2021-10-17 13:25:08 GMT 50.704102 1.542391 38,000 317 405 0
2021-10-17 13:25:05 GMT 50.701206 1.546631 38,000 317 405 0
2021-10-17 13:25:03 GMT 50.697807 1.551666 38,000 318 404 0
2021-10-17 13:25:00 GMT 50.693569 1.557846 38,000 318 404 0
2021-10-17 13:24:57 GMT 50.689335 1.564102 38,000 318 404 0
2021-10-17 13:24:54 GMT 50.685379 1.569931 38,000 318 404 0
2021-10-17 13:24:52 GMT 50.682072 1.574707 38,000 318 404 0
2021-10-17 13:24:49 GMT 50.678787 1.579582 38,000 318 404 0
2021-10-17 13:24:47 GMT 50.676086 1.583590 38,000 318 404 0
2021-10-17 13:24:44 GMT 50.672253 1.589203 38,000 318 404 0
2021-10-17 13:24:42 GMT 50.669643 1.592943 38,000 318 404 0
2021-10-17 13:24:39 GMT 50.661312 1.605192 38,000 318 404 0
2021-10-17 13:24:36 GMT 50.661312 1.605192 38,000 318 404 0
2021-10-17 13:24:33 GMT 50.657227 1.611232 38,000 317 403 0
2021-10-17 13:24:31 GMT 50.653793 1.616219 38,000 317 403 0
2021-10-17 13:24:28 GMT 50.649719 1.622191 38,000 317 403 0
2021-10-17 13:24:26 GMT 50.644691 1.629614 38,000 317 403 0
2021-10-17 13:24:24 GMT 50.644691 1.629614 38,000 317 403 0
2021-10-17 13:24:22 GMT 50.640038 1.636443 38,000 317 403 0
2021-10-17 13:24:20 GMT 50.633652 1.645853 38,000 317 403 0
2021-10-17 13:24:17 GMT 50.633652 1.645853 38,000 317 403 0
2021-10-17 13:24:14 GMT 50.631226 1.649467 38,000 317 403 0
2021-10-17 13:24:12 GMT 50.626190 1.656912 38,000 317 403 0
2021-10-17 13:24:10 GMT 50.621704 1.663489 38,000 317 403 0
2021-10-17 13:24:07 GMT 50.621704 1.663489 38,000 317 403 0
2021-10-17 13:24:04 GMT 50.618317 1.668549 38,000 317 403 0
2021-10-17 13:24:02 GMT 50.614342 1.674302 38,000 317 403 64
2021-10-17 13:23:59 GMT 50.605915 1.686698 38,000 318 403 0
2021-10-17 13:23:56 GMT 50.605915 1.686698 38,000 318 403 0
2021-10-17 13:23:53 GMT 50.602283 1.692117 38,000 318 403 0
2021-10-17 13:23:51 GMT 50.600372 1.694938 38,000 318 403 0
2021-10-17 13:23:49 GMT 50.597626 1.698906 38,000 318 402 0
2021-10-17 13:23:46 GMT 50.593018 1.705702 38,000 318 403 0
2021-10-17 13:23:43 GMT 50.588516 1.712277 38,000 318 403 0
2021-10-17 13:23:41 GMT 50.587051 1.714445 38,000 318 403 0
2021-10-17 13:23:39 GMT 50.583382 1.719806 38,000 318 402 0
2021-10-17 13:23:36 GMT 50.575333 1.731575 38,000 318 402 0
2021-10-17 13:23:33 GMT 50.575333 1.731575 38,000 318 402 0
2021-10-17 13:23:31 GMT 50.572491 1.735766 38,000 318 402 0
2021-10-17 13:23:28 GMT 50.567413 1.743115 38,000 318 402 0
2021-10-17 13:23:25 GMT 50.565086 1.746455 38,000 318 402 0
2021-10-17 13:23:23 GMT 50.557873 1.756996 38,000 318 402 0
2021-10-17 13:23:20 GMT 50.557873 1.756996 38,000 318 402 0
2021-10-17 13:23:18 GMT 50.555145 1.760993 38,000 318 402 0
2021-10-17 13:23:15 GMT 50.550797 1.767314 38,000 318 402 0
2021-10-17 13:23:12 GMT 50.546604 1.773475 38,000 318 402 0
2021-10-17 13:23:09 GMT 50.543060 1.778629 38,000 318 402 0
2021-10-17 13:23:06 GMT 50.536102 1.788748 38,000 318 402 0
2021-10-17 13:23:04 GMT 50.531197 1.795893 38,000 318 402 0
2021-10-17 13:23:01 GMT 50.531197 1.795893 38,000 318 402 0
2021-10-17 13:22:58 GMT 50.527679 1.801107 38,000 318 403 0
2021-10-17 13:22:55 GMT 50.522919 1.808046 38,000 318 403 0
2021-10-17 13:22:52 GMT 50.519886 1.812447 38,000 318 403 0
2021-10-17 13:22:50 GMT 50.512848 1.822719 38,000 318 403 0
2021-10-17 13:22:47 GMT 50.507130 1.831079 38,000 317 402 0
2021-10-17 13:22:44 GMT 50.507130 1.831079 38,000 317 402 0
2021-10-17 13:22:41 GMT 50.504425 1.835078 38,000 317 402 0
2021-10-17 13:22:38 GMT 50.501678 1.839054 38,000 317 403 0
2021-10-17 13:22:35 GMT 50.496376 1.846817 38,000 317 403 0
2021-10-17 13:22:33 GMT 50.492706 1.852208 38,000 317 403 0
2021-10-17 13:22:30 GMT 50.489487 1.856986 38,000 317 403 0
2021-10-17 13:22:27 GMT 50.485531 1.862851 38,000 317 403 0
2021-10-17 13:22:25 GMT 50.480503 1.870200 38,000 317 403 0
2021-10-17 13:22:21 GMT 50.477966 1.874036 38,000 317 403 0
2021-10-17 13:22:19 GMT 50.475243 1.877994 38,000 317 403 0
2021-10-17 13:22:16 GMT 50.470493 1.885046 38,000 317 403 -64
2021-10-17 13:22:13 GMT 50.466305 1.891282 38,000 317 403 -64
2021-10-17 13:22:11 GMT 50.463318 1.895648 38,000 317 403 0
2021-10-17 13:22:09 GMT 50.461555 1.898259 38,000 317 403 0
2021-10-17 13:22:07 GMT 50.458485 1.902862 38,000 317 403 0
2021-10-17 13:22:04 GMT 50.454433 1.908875 38,000 317 403 0
2021-10-17 13:22:02 GMT 50.451416 1.913356 38,000 317 403 0
2021-10-17 13:22:00 GMT 50.448334 1.917931 38,000 317 403 0
2021-10-17 13:21:57 GMT 50.444935 1.922979 38,000 317 403 0
2021-10-17 13:21:54 GMT 50.441986 1.927378 38,000 317 403 0
2021-10-17 13:21:52 GMT 50.437908 1.933371 38,000 317 403 -64
2021-10-17 13:21:50 GMT 50.435349 1.937208 38,000 317 403 -64
2021-10-17 13:21:47 GMT 50.428024 1.948049 38,000 317 403 0
2021-10-17 13:21:44 GMT 50.428024 1.948049 38,000 317 403 0
2021-10-17 13:21:42 GMT 50.424774 1.952820 38,000 317 403 0
2021-10-17 13:21:40 GMT 50.422211 1.956651 38,000 318 403 0
2021-10-17 13:21:38 GMT 50.418915 1.961421 38,000 319 403 0
2021-10-17 13:21:35 GMT 50.414585 1.967740 38,000 318 403 0
2021-10-17 13:21:32 GMT 50.408661 1.976310 38,000 318 404 0
2021-10-17 13:21:30 GMT 50.408661 1.976310 38,000 318 403 0
2021-10-17 13:21:28 GMT 50.404678 1.981948 38,000 319 404 0
2021-10-17 13:21:24 GMT 50.399967 1.988600 38,000 319 404 0
2021-10-17 13:21:22 GMT 50.395638 1.994538 38,000 320 404 0
2021-10-17 13:21:19 GMT 50.393509 1.997416 38,000 320 404 0
2021-10-17 13:21:17 GMT 50.389984 2.002186 38,000 320 404 0
2021-10-17 13:21:15 GMT 50.387165 2.006044 38,000 320 404 0
2021-10-17 13:21:13 GMT 50.383621 2.010787 38,000 320 403 0
2021-10-17 13:21:10 GMT 50.380096 2.015558 38,000 320 403 0
2021-10-17 13:21:08 GMT 50.377396 2.019099 38,000 320 403 0
2021-10-17 13:21:05 GMT 50.373154 2.024825 38,000 320 403 0
2021-10-17 13:21:02 GMT 50.368313 2.031209 38,000 320 403 0
2021-10-17 13:20:59 GMT 50.364624 2.036157 38,000 320 403 0
2021-10-17 13:20:56 GMT 50.360229 2.042011 38,000 320 403 0
2021-10-17 13:20:53 GMT 50.356110 2.047505 38,000 320 403 0
2021-10-17 13:20:50 GMT 50.351852 2.053142 38,000 320 403 0
2021-10-17 13:20:47 GMT 50.346478 2.060308 38,000 320 403 0
2021-10-17 13:20:44 GMT 50.343498 2.064316 38,000 320 403 0
2021-10-17 13:20:41 GMT 50.339401 2.069735 38,000 320 403 0
2021-10-17 13:20:39 GMT 50.333305 2.077901 38,000 320 402 0
2021-10-17 13:20:37 GMT 50.333305 2.077901 38,000 320 402 0
2021-10-17 13:20:35 GMT 50.330429 2.081620 38,000 320 402 0
2021-10-17 13:20:33 GMT 50.327316 2.085812 38,000 320 402 0
2021-10-17 13:20:30 GMT 50.323620 2.090669 38,000 320 402 0
2021-10-17 13:20:27 GMT 50.318687 2.097275 38,000 320 402 0
2021-10-17 13:20:23 GMT 50.313148 2.104624 38,000 320 402 0
2021-10-17 13:20:19 GMT 50.308594 2.110604 38,000 320 402 0
2021-10-17 13:20:17 GMT 50.301224 2.120434 38,000 320 402 0
2021-10-17 13:20:14 GMT 50.301224 2.120434 38,000 320 402 0
2021-10-17 13:20:12 GMT 50.298531 2.123999 38,000 320 402 0
2021-10-17 13:20:09 GMT 50.294266 2.129613 38,000 320 400 0
2021-10-17 13:20:05 GMT 50.288334 2.137583 38,000 320 403 0
2021-10-17 13:20:03 GMT 50.281258 2.147011 38,000 320 402 0
2021-10-17 13:20:00 GMT 50.281258 2.147011 38,000 320 402 0
2021-10-17 13:19:58 GMT 50.273342 2.157477 38,000 320 400 -64
2021-10-17 13:19:55 GMT 50.273342 2.157477 38,000 320 402 0
2021-10-17 13:19:50 GMT 50.263428 2.170616 38,000 320 402 0
2021-10-17 13:19:47 GMT 50.263428 2.170616 38,000 320 402 0
2021-10-17 13:19:44 GMT 50.259285 2.176110 38,000 320 402 0
2021-10-17 13:19:42 GMT 50.256317 2.180063 38,000 320 402 0
2021-10-17 13:19:40 GMT 50.251923 2.185846 38,000 320 402 0
2021-10-17 13:19:37 GMT 50.249268 2.189387 38,000 320 402 0
2021-10-17 13:19:34 GMT 50.244873 2.195170 38,000 320 402 0
2021-10-17 13:19:31 GMT 50.239334 2.202470 38,000 320 402 0
2021-10-17 13:19:28 GMT 50.230984 2.213522 38,000 320 402 0
2021-10-17 13:19:25 GMT 50.230984 2.213522 38,000 320 402 0
2021-10-17 13:19:22 GMT 50.226978 2.218793 38,000 320 402 0
2021-10-17 13:19:19 GMT 50.222603 2.224583 38,000 320 402 0
2021-10-17 13:19:17 GMT 50.220181 2.227701 38,000 320 402 0
2021-10-17 13:19:15 GMT 50.217087 2.231815 38,000 320 402 0
2021-10-17 13:19:13 GMT 50.214249 2.235573 38,000 320 402 0
2021-10-17 13:19:10 GMT 50.210999 2.239838 38,000 320 402 64
2021-10-17 13:19:08 GMT 50.207333 2.244700 38,000 320 402 64
2021-10-17 13:19:05 GMT 50.202805 2.250679 38,000 320 402 0
2021-10-17 13:19:02 GMT 50.199234 2.255378 38,000 320 402 0
2021-10-17 13:18:59 GMT 50.194565 2.261521 38,000 320 402 0
2021-10-17 13:18:57 GMT 50.191589 2.265497 38,000 320 402 0
2021-10-17 13:18:53 GMT 50.186096 2.272724 38,000 320 402 0
2021-10-17 13:18:50 GMT 50.182663 2.277206 38,000 320 402 0
2021-10-17 13:18:48 GMT 50.178589 2.282627 38,000 320 402 0
2021-10-17 13:18:45 GMT 50.174606 2.287903 38,000 320 401 0
2021-10-17 13:18:42 GMT 50.170231 2.293693 38,000 320 401 0
2021-10-17 13:18:39 GMT 50.165016 2.300596 38,000 320 401 0
2021-10-17 13:18:36 GMT 50.161880 2.304671 38,000 320 401 0
2021-10-17 13:18:33 GMT 50.156662 2.311610 38,000 320 401 0
2021-10-17 13:18:30 GMT 50.153687 2.315513 38,000 320 401 0
2021-10-17 13:18:27 GMT 50.148026 2.323015 38,000 320 401 0
2021-10-17 13:18:24 GMT 50.146072 2.325613 38,000 320 401 0
2021-10-17 13:18:21 GMT 50.141136 2.332145 38,000 320 400 0
2021-10-17 13:18:18 GMT 50.137596 2.336822 38,000 320 400 64
2021-10-17 13:18:16 GMT 50.133636 2.342039 38,000 320 400 0
2021-10-17 13:18:13 GMT 50.129288 2.347749 38,000 320 400 0
2021-10-17 13:18:10 GMT 50.125168 2.353170 38,000 320 399 0
2021-10-17 13:18:07 GMT 50.121506 2.358013 38,000 320 399 0
2021-10-17 13:18:05 GMT 50.117302 2.363545 38,000 320 399 0
2021-10-17 13:18:02 GMT 50.114323 2.367479 38,000 320 399 0
2021-10-17 13:17:59 GMT 50.110550 2.372453 38,000 320 399 64
2021-10-17 13:17:57 GMT 50.106308 2.378034 38,000 320 399 64
2021-10-17 13:17:54 GMT 50.099396 2.387069 38,000 320 398 0
2021-10-17 13:17:52 GMT 50.095322 2.392418 38,000 320 398 0
2021-10-17 13:17:49 GMT 50.095322 2.392418 38,000 320 398 0
2021-10-17 13:17:46 GMT 50.091930 2.396875 38,000 320 398 0
2021-10-17 13:17:43 GMT 50.087173 2.403115 38,000 320 398 0
2021-10-17 13:17:41 GMT 50.084343 2.406822 38,000 320 399 0
2021-10-17 13:17:38 GMT 50.080399 2.411933 38,000 321 398 0
2021-10-17 13:17:35 GMT 50.071655 2.423353 38,000 320 398 0
2021-10-17 13:17:32 GMT 50.071655 2.423353 38,000 320 398 0
2021-10-17 13:17:29 GMT 50.067261 2.429063 38,000 321 398 0
2021-10-17 13:17:26 GMT 50.063187 2.434411 38,000 320 398 0
2021-10-17 13:17:23 GMT 50.059391 2.439336 38,000 320 398 64
2021-10-17 13:17:21 GMT 50.056412 2.443196 38,000 320 398 0
2021-10-17 13:17:19 GMT 50.053478 2.447130 38,000 321 403 0
2021-10-17 13:17:16 GMT 50.043049 2.460715 38,000 320 398 0
2021-10-17 13:17:12 GMT 50.043049 2.460715 38,000 320 398 0
2021-10-17 13:17:09 GMT 50.036865 2.468888 38,000 320 398 0
2021-10-17 13:17:07 GMT 50.036865 2.468888 38,000 320 398 0
2021-10-17 13:17:04 GMT 50.031551 2.475858 38,000 320 398 0
2021-10-17 13:17:01 GMT 50.027573 2.481031 38,000 320 398 0
2021-10-17 13:16:58 GMT 50.024803 2.484692 38,000 320 398 0
2021-10-17 13:16:55 GMT 50.014935 2.497608 38,000 320 398 0
2021-10-17 13:16:51 GMT 50.014935 2.497608 38,000 320 398 0
2021-10-17 13:16:48 GMT 50.009033 2.505389 38,000 320 398 0
2021-10-17 13:16:45 GMT 50.005669 2.509782 38,000 320 398 0
2021-10-17 13:16:43 GMT 50.002670 2.513629 38,000 320 398 0
2021-10-17 13:16:41 GMT 50.000015 2.517170 38,000 320 398 0
2021-10-17 13:16:38 GMT 49.996639 2.521585 38,000 320 399 0
2021-10-17 13:16:35 GMT 49.987198 2.533939 38,000 320 399 0
2021-10-17 13:16:32 GMT 49.983089 2.539252 38,000 320 399 0
2021-10-17 13:16:29 GMT 49.979553 2.543855 38,000 320 399 0
2021-10-17 13:16:26 GMT 49.979553 2.543855 38,000 320 399 0
2021-10-17 13:16:23 GMT 49.974339 2.550684 38,000 320 399 0
2021-10-17 13:16:20 GMT 49.966003 2.561549 38,000 320 399 0
2021-10-17 13:16:17 GMT 49.966003 2.561549 38,000 320 399 0
2021-10-17 13:16:14 GMT 49.961769 2.567015 38,000 320 399 0
2021-10-17 13:16:11 GMT 49.958511 2.571246 38,000 321 400 0
2021-10-17 13:16:08 GMT 49.953575 2.577704 38,000 321 400 0
2021-10-17 13:16:05 GMT 49.950039 2.582307 38,000 320 401 0
2021-10-17 13:16:02 GMT 49.944500 2.589507 38,000 321 400 0
2021-10-17 13:16:00 GMT 49.942383 2.592267 38,000 320 401 0
2021-10-17 13:15:58 GMT 49.939407 2.596098 38,000 320 401 0
2021-10-17 13:15:55 GMT 49.930893 2.607157 38,000 320 401 0
2021-10-17 13:15:52 GMT 49.927368 2.611777 38,000 320 401 0
2021-10-17 13:15:49 GMT 49.927368 2.611777 38,000 320 401 0
2021-10-17 13:15:47 GMT 49.924110 2.616008 38,000 320 401 0
2021-10-17 13:15:45 GMT 49.921688 2.619200 38,000 320 401 0
2021-10-17 13:15:43 GMT 49.919735 2.621798 38,000 320 401 0
2021-10-17 13:15:41 GMT 49.914917 2.628045 38,000 320 402 0
2021-10-17 13:15:37 GMT 49.908375 2.636570 38,000 321 403 0
2021-10-17 13:15:34 GMT 49.905533 2.640260 38,000 320 402 0
2021-10-17 13:15:31 GMT 49.896149 2.652475 38,000 321 403 0
2021-10-17 13:15:28 GMT 49.890884 2.659270 38,000 321 403 0
2021-10-17 13:15:25 GMT 49.890884 2.659270 38,000 321 402 0
2021-10-17 13:15:22 GMT 49.883194 2.669244 38,000 321 403 0
2021-10-17 13:15:19 GMT 49.883194 2.669244 38,000 321 403 0
2021-10-17 13:15:16 GMT 49.878071 2.675913 38,000 321 403 0
2021-10-17 13:15:13 GMT 49.874634 2.680375 38,000 321 403 0
2021-10-17 13:15:10 GMT 49.869644 2.686808 38,000 321 403 0
2021-10-17 13:15:07 GMT 49.861637 2.697144 38,000 321 403 0
2021-10-17 13:15:04 GMT 49.861637 2.697144 38,000 321 403 0
2021-10-17 13:15:00 GMT 49.856232 2.704227 38,000 321 403 0
2021-10-17 13:14:57 GMT 49.852066 2.709575 38,000 321 404 0
2021-10-17 13:14:54 GMT 49.849209 2.713252 38,000 321 404 0
2021-10-17 13:14:51 GMT 49.842316 2.722152 38,000 321 405 -64
2021-10-17 13:14:48 GMT 49.839153 2.726242 38,000 321 405 0
2021-10-17 13:14:43 GMT 49.827282 2.741608 38,000 321 405 0
2021-10-17 13:14:40 GMT 49.827282 2.741608 38,000 320 406 0
2021-10-17 13:14:37 GMT 49.823547 2.746437 38,000 320 406 0
2021-10-17 13:14:34 GMT 49.819645 2.751481 38,000 320 406 0
2021-10-17 13:14:32 GMT 49.816772 2.755183 38,000 320 406 0
2021-10-17 13:14:30 GMT 49.812927 2.760170 38,000 320 406 0
2021-10-17 13:14:27 GMT 49.809452 2.764620 38,000 321 406 0
2021-10-17 13:14:24 GMT 49.805878 2.769277 38,000 321 406 0
2021-10-17 13:14:21 GMT 49.800705 2.775999 38,000 321 406 0
2021-10-17 13:14:18 GMT 49.796677 2.781203 38,000 321 406 0
2021-10-17 13:14:15 GMT 49.791203 2.788300 38,000 321 408 0
2021-10-17 13:14:11 GMT 49.786285 2.794647 38,000 321 408 0
2021-10-17 13:14:08 GMT 49.782543 2.799435 38,000 321 408 0
2021-10-17 13:14:05 GMT 49.778183 2.805055 38,000 321 410 0
2021-10-17 13:14:03 GMT 49.775299 2.808814 38,000 321 408 0
2021-10-17 13:13:59 GMT 49.768532 2.817548 38,000 321 408 0
2021-10-17 13:13:56 GMT 49.764496 2.822836 38,000 321 408 0
2021-10-17 13:13:53 GMT 49.760010 2.828618 38,000 321 408 0
2021-10-17 13:13:49 GMT 49.754379 2.835918 38,000 321 408 0
2021-10-17 13:13:46 GMT 49.750332 2.841154 38,000 321 408 0
2021-10-17 13:13:44 GMT 49.747559 2.844664 38,000 321 408 0
2021-10-17 13:13:41 GMT 49.743073 2.850446 38,000 321 408 0
2021-10-17 13:13:38 GMT 49.738739 2.856074 38,000 321 409 0
2021-10-17 13:13:35 GMT 49.734501 2.861493 38,000 321 409 0
2021-10-17 13:13:32 GMT 49.730034 2.867283 38,000 321 409 0
2021-10-17 13:13:29 GMT 49.725677 2.872925 38,000 321 410 0
2021-10-17 13:13:26 GMT 49.719681 2.880586 38,000 321 410 0
2021-10-17 13:13:23 GMT 49.717667 2.883188 38,000 321 410 0
2021-10-17 13:13:20 GMT 49.712585 2.889693 38,000 321 411 0
2021-10-17 13:13:17 GMT 49.708054 2.895476 38,000 321 410 0
2021-10-17 13:13:14 GMT 49.704849 2.899648 38,000 321 410 0
2021-10-17 13:13:12 GMT 49.700638 2.905016 38,000 321 410 0
2021-10-17 13:13:09 GMT 49.695957 2.911006 38,000 321 411 0
2021-10-17 13:13:06 GMT 49.692444 2.915497 38,000 321 411 0
2021-10-17 13:13:03 GMT 49.687637 2.921640 38,000 321 411 0
2021-10-17 13:13:00 GMT 49.682831 2.927784 38,000 321 411 0
2021-10-17 13:12:57 GMT 49.678734 2.933053 38,000 321 411 0
2021-10-17 13:12:54 GMT 49.674637 2.938265 38,000 321 411 0
2021-10-17 13:12:51 GMT 49.670975 2.942963 38,000 321 411 0
2021-10-17 13:12:48 GMT 49.666302 2.948938 38,000 321 411 0
2021-10-17 13:12:45 GMT 49.661041 2.955684 38,000 321 411 0
2021-10-17 13:12:42 GMT 49.656509 2.961466 38,000 321 411 -64
2021-10-17 13:12:38 GMT 49.647263 2.973212 38,000 321 412 -64
2021-10-17 13:12:35 GMT 49.647263 2.973212 38,000 321 412 -64
2021-10-17 13:12:33 GMT 49.643307 2.978334 38,000 321 412 -64
2021-10-17 13:12:29 GMT 49.637020 2.986351 38,000 321 412 -64
2021-10-17 13:12:25 GMT 49.632923 2.991622 38,000 321 412 0
2021-10-17 13:12:23 GMT 49.629135 2.996521 38,000 321 412 0
2021-10-17 13:12:20 GMT 49.625198 3.001580 38,000 321 412 0
2021-10-17 13:12:17 GMT 49.620941 3.007074 38,000 321 412 0
2021-10-17 13:12:14 GMT 49.616409 3.012856 38,000 321 412 -64
2021-10-17 13:12:12 GMT 49.613186 3.017009 38,000 321 412 -64
2021-10-17 13:12:09 GMT 49.608215 3.023409 38,025 321 412 -64
2021-10-17 13:12:06 GMT 49.604389 3.028218 38,025 321 413 128
2021-10-17 13:12:03 GMT 49.595901 3.039165 38,000 321 413 128
2021-10-17 13:12:00 GMT 49.595901 3.039165 38,000 321 413 128
2021-10-17 13:11:57 GMT 49.585922 3.051886 38,000 321 413 64
2021-10-17 13:11:53 GMT 49.585922 3.051886 38,000 321 413 0
2021-10-17 13:11:50 GMT 49.581207 3.057911 38,000 321 414 0
2021-10-17 13:11:47 GMT 49.572830 3.068583 38,000 321 414 0
2021-10-17 13:11:42 GMT 49.562851 3.081304 38,000 321 414 0
2021-10-17 13:11:39 GMT 49.562851 3.081304 38,000 321 414 0
2021-10-17 13:11:34 GMT 49.557838 3.087678 38,000 321 414 0
2021-10-17 13:11:31 GMT 49.552826 3.094025 38,000 321 414 0
2021-10-17 13:11:28 GMT 49.549301 3.098578 38,000 321 414 0
2021-10-17 13:11:25 GMT 49.537540 3.113511 38,000 321 414 0
2021-10-17 13:11:20 GMT 49.537540 3.113511 38,000 321 414 0
2021-10-17 13:11:17 GMT 49.531357 3.121418 38,000 321 414 0
2021-10-17 13:11:14 GMT 49.526184 3.127996 38,000 321 414 0
2021-10-17 13:11:11 GMT 49.524170 3.130598 38,000 321 414 0
2021-10-17 13:11:08 GMT 49.519154 3.136968 38,000 321 414 0
2021-10-17 13:11:05 GMT 49.513138 3.144692 38,000 321 414 0
2021-10-17 13:11:01 GMT 49.509422 3.149365 38,000 321 414 0
2021-10-17 13:10:58 GMT 49.504166 3.156112 38,000 321 414 0
2021-10-17 13:10:55 GMT 49.500019 3.161390 38,000 321 414 0
2021-10-17 13:10:52 GMT 49.495178 3.167551 38,000 321 414 0
2021-10-17 13:10:49 GMT 49.490894 3.172970 38,000 321 414 0
2021-10-17 13:10:46 GMT 49.486771 3.178229 38,000 321 414 0
2021-10-17 13:10:43 GMT 49.482971 3.183144 38,000 321 414 0
2021-10-17 13:10:40 GMT 49.478558 3.188782 38,000 321 413 0
2021-10-17 13:10:37 GMT 49.468369 3.201647 38,000 321 414 0
2021-10-17 13:10:34 GMT 49.464111 3.207140 38,000 321 414 0
2021-10-17 13:10:30 GMT 49.457890 3.214986 38,000 321 414 0
2021-10-17 13:10:27 GMT 49.457890 3.214986 38,000 321 414 0
2021-10-17 13:10:24 GMT 49.454086 3.219861 38,000 321 414 -64
2021-10-17 13:10:21 GMT 49.450378 3.224560 38,000 321 414 0
2021-10-17 13:10:18 GMT 49.443924 3.232801 38,000 321 414 0
2021-10-17 13:10:14 GMT 49.440247 3.237478 38,000 321 414 0
2021-10-17 13:10:11 GMT 49.433762 3.245665 38,000 321 414 0
2021-10-17 13:10:08 GMT 49.429504 3.251086 38,000 321 414 0
2021-10-17 13:10:05 GMT 49.425072 3.256724 38,000 321 414 0
2021-10-17 13:10:02 GMT 49.422272 3.260263 38,000 321 414 0
2021-10-17 13:09:58 GMT 49.416225 3.267927 38,000 321 414 0
2021-10-17 13:09:55 GMT 49.410187 3.275546 38,000 321 409 0
2021-10-17 13:09:52 GMT 49.407211 3.279278 38,000 321 413 0
2021-10-17 13:09:49 GMT 49.403378 3.284117 38,000 321 414 0
2021-10-17 13:09:44 GMT 49.389771 3.301180 38,000 321 413 0
2021-10-17 13:09:41 GMT 49.386063 3.305828 38,000 321 413 0
2021-10-17 13:09:38 GMT 49.386063 3.305828 38,000 321 413 0
2021-10-17 13:09:35 GMT 49.381962 3.311005 38,000 321 413 0
2021-10-17 13:09:32 GMT 49.378098 3.315829 38,000 321 412 0
2021-10-17 13:09:29 GMT 49.373520 3.321604 38,000 321 412 0
2021-10-17 13:09:25 GMT 49.367298 3.329363 38,000 321 412 0
2021-10-17 13:09:22 GMT 49.363342 3.334351 38,000 321 407 0
2021-10-17 13:09:19 GMT 49.354935 3.344844 38,000 321 407 0
2021-10-17 13:09:16 GMT 49.354935 3.344844 38,000 321 407 0
2021-10-17 13:09:13 GMT 49.349049 3.352276 38,000 321 411 0
2021-10-17 13:09:09 GMT 49.343765 3.358859 38,000 321 410 0
2021-10-17 13:09:05 GMT 49.337769 3.366464 38,000 321 410 0
2021-10-17 13:09:02 GMT 49.333786 3.371465 38,000 321 410 0
2021-10-17 13:08:58 GMT 49.327961 3.378802 38,000 321 409 0
2021-10-17 13:08:54 GMT 49.322113 3.386184 38,000 321 409 64
2021-10-17 13:08:51 GMT 49.311714 3.399184 38,000 321 408 0
2021-10-17 13:08:47 GMT 49.311714 3.399184 38,000 321 408 0
2021-10-17 13:08:43 GMT 49.305614 3.406918 38,000 321 408 0
2021-10-17 13:08:40 GMT 49.301971 3.411466 38,000 321 408 0
2021-10-17 13:08:37 GMT 49.295654 3.419350 38,000 321 408 0
2021-10-17 13:08:32 GMT 49.285309 3.432312 38,000 321 408 0
2021-10-17 13:08:29 GMT 49.285309 3.432312 38,000 321 407 0
2021-10-17 13:08:25 GMT 49.275265 3.444864 38,000 321 407 0
2021-10-17 13:08:22 GMT 49.275265 3.444864 38,000 321 408 0
2021-10-17 13:08:19 GMT 49.270702 3.450574 38,000 321 407 0
2021-10-17 13:08:16 GMT 49.261826 3.461679 38,000 321 407 0
2021-10-17 13:08:13 GMT 49.261826 3.461679 38,000 321 407 0
2021-10-17 13:08:10 GMT 49.256149 3.468792 38,000 321 407 0
2021-10-17 13:08:07 GMT 49.254131 3.471318 38,000 321 407 0
2021-10-17 13:08:04 GMT 49.248871 3.477948 38,000 321 407 0
2021-10-17 13:08:01 GMT 49.245239 3.482521 38,000 321 407 0
2021-10-17 13:07:58 GMT 49.238388 3.491047 38,000 321 407 0
2021-10-17 13:07:54 GMT 49.234634 3.495836 38,000 321 408 0
2021-10-17 13:07:51 GMT 49.230377 3.501117 38,000 321 408 0
2021-10-17 13:07:48 GMT 49.225594 3.507096 38,000 321 408 0
2021-10-17 13:07:45 GMT 49.221359 3.512385 38,000 321 408 0
2021-10-17 13:07:42 GMT 49.212463 3.523503 38,000 321 408 0
2021-10-17 13:07:39 GMT 49.212463 3.523503 38,000 321 407 -64
2021-10-17 13:07:36 GMT 49.208229 3.528780 38,000 321 407 0
2021-10-17 13:07:33 GMT 49.203297 3.534996 38,000 321 407 0
2021-10-17 13:07:30 GMT 49.198654 3.540837 38,000 321 407 0
2021-10-17 13:07:27 GMT 49.194122 3.546488 38,000 321 407 0
2021-10-17 13:07:24 GMT 49.188904 3.553021 38,000 321 407 0
2021-10-17 13:07:21 GMT 49.185242 3.557598 38,000 321 407 0
2021-10-17 13:07:18 GMT 49.180756 3.563232 38,000 321 407 0
2021-10-17 13:07:15 GMT 49.178696 3.565768 38,000 321 407 0
2021-10-17 13:07:12 GMT 49.171871 3.574315 38,000 321 407 0
2021-10-17 13:07:09 GMT 49.169544 3.577279 38,000 321 407 0
2021-10-17 13:07:06 GMT 49.164471 3.583639 38,000 321 407 0
2021-10-17 13:07:03 GMT 49.159348 3.590000 38,000 321 407 0
2021-10-17 13:07:00 GMT 49.155853 3.594360 38,000 321 407 0
2021-10-17 13:06:56 GMT 49.150925 3.600552 38,000 321 407 0
2021-10-17 13:06:53 GMT 49.144638 3.608358 38,000 321 407 0
2021-10-17 13:06:50 GMT 49.140884 3.613093 38,000 321 407 0
2021-10-17 13:06:46 GMT 49.133884 3.621802 38,000 321 407 0
2021-10-17 13:06:43 GMT 49.130814 3.625633 38,000 321 407 0
2021-10-17 13:06:40 GMT 49.124855 3.633078 38,000 321 407 0
2021-10-17 13:06:35 GMT 49.119781 3.639438 38,000 321 407 0
2021-10-17 13:06:30 GMT 49.111446 3.649846 38,000 321 407 0
2021-10-17 13:06:27 GMT 49.107212 3.655050 38,000 321 407 0
2021-10-17 13:06:24 GMT 49.103394 3.659785 38,000 321 408 0
2021-10-17 13:06:21 GMT 49.100040 3.663940 38,000 321 408 0
2021-10-17 13:06:18 GMT 49.094330 3.671053 38,000 321 408 0
2021-10-17 13:06:15 GMT 49.089798 3.676687 38,000 321 408 0
2021-10-17 13:06:12 GMT 49.081055 3.687533 38,000 321 408 0
2021-10-17 13:06:09 GMT 49.081055 3.687533 38,000 321 409 0
2021-10-17 13:06:06 GMT 49.077530 3.691899 38,000 321 408 0
2021-10-17 13:06:03 GMT 49.072403 3.698237 38,000 321 408 0
2021-10-17 13:05:59 GMT 49.065220 3.707091 38,000 321 409 0
2021-10-17 13:05:55 GMT 49.060226 3.713308 38,000 321 409 0
2021-10-17 13:05:52 GMT 49.057022 3.717252 38,000 321 409 0
2021-10-17 13:05:49 GMT 49.052326 3.723064 38,000 321 409 0
2021-10-17 13:05:47 GMT 49.049812 3.726172 38,000 321 409 0
2021-10-17 13:05:44 GMT 49.045715 3.731232 38,000 321 409 0
2021-10-17 13:05:41 GMT 49.040268 3.737887 38,000 321 409 0
2021-10-17 13:05:38 GMT 49.036636 3.742435 38,000 321 409 0
2021-10-17 13:05:35 GMT 49.030445 3.750096 38,000 321 409 0
2021-10-17 13:05:32 GMT 49.021820 3.760775 38,000 321 410 0
2021-10-17 13:05:28 GMT 49.021820 3.760775 38,000 321 409 0
2021-10-17 13:05:26 GMT 49.018574 3.764769 38,000 321 409 0
2021-10-17 13:05:23 GMT 49.013901 3.770564 38,000 321 410 0
2021-10-17 13:05:19 GMT 49.008179 3.777677 38,000 321 410 0
2021-10-17 13:05:16 GMT 49.003647 3.783311 38,000 321 410 64
2021-10-17 13:05:13 GMT 48.999210 3.788765 38,000 321 410 64
2021-10-17 13:05:11 GMT 48.997162 3.791295 38,000 321 410 64
2021-10-17 13:05:08 GMT 48.992043 3.797656 38,000 321 410 64
2021-10-17 13:05:04 GMT 48.985153 3.806199 38,000 321 410 0
2021-10-17 13:05:01 GMT 48.982357 3.809726 38,000 321 410 0
2021-10-17 13:04:58 GMT 48.977371 3.815848 38,000 321 410 -64
2021-10-17 13:04:55 GMT 48.968998 3.826278 38,000 321 410 0
2021-10-17 13:04:52 GMT 48.968998 3.826278 38,000 321 410 -64
2021-10-17 13:04:49 GMT 48.964279 3.832045 38,000 321 410 0
2021-10-17 13:04:46 GMT 48.958710 3.838999 38,000 321 410 0
2021-10-17 13:04:43 GMT 48.950134 3.849511 38,000 321 410 0
2021-10-17 13:04:39 GMT 48.950134 3.849511 38,000 321 410 0
2021-10-17 13:04:36 GMT 48.938972 3.863357 38,000 321 410 0
2021-10-17 13:04:33 GMT 48.938972 3.863357 38,000 321 410 0
2021-10-17 13:04:30 GMT 48.935852 3.867187 38,000 322 411 0
2021-10-17 13:04:27 GMT 48.932190 3.871695 38,000 322 411 0
2021-10-17 13:04:24 GMT 48.927753 3.877162 38,000 322 411 0
2021-10-17 13:04:20 GMT 48.920242 3.886414 38,000 322 411 0
2021-10-17 13:04:17 GMT 48.915928 3.891690 38,000 322 411 0
2021-10-17 13:04:14 GMT 48.912689 3.895639 38,000 322 411 64
2021-10-17 13:04:12 GMT 48.908249 3.901086 38,000 322 411 64
2021-10-17 13:04:09 GMT 48.906757 3.902893 38,000 322 411 64
2021-10-17 13:04:07 GMT 48.902195 3.908531 38,000 322 411 64
2021-10-17 13:04:04 GMT 48.897308 3.914513 38,000 322 411 64
2021-10-17 13:04:01 GMT 48.892273 3.920711 38,000 322 411 0
2021-10-17 13:03:58 GMT 48.884457 3.930287 38,000 321 412 0
2021-10-17 13:03:55 GMT 48.880875 3.934655 38,000 321 412 -64
2021-10-17 13:03:52 GMT 48.880875 3.934655 38,000 321 413 64
2021-10-17 13:03:49 GMT 48.875153 3.941768 38,000 322 412 0
2021-10-17 13:03:46 GMT 48.870678 3.947200 38,000 321 412 0
2021-10-17 13:03:43 GMT 48.866398 3.952476 38,000 322 412 0
2021-10-17 13:03:38 GMT 48.859909 3.960501 38,000 322 412 0
2021-10-17 13:03:35 GMT 48.850849 3.971558 38,000 322 412 0
2021-10-17 13:03:29 GMT 48.845535 3.978107 38,000 321 413 0
2021-10-17 13:03:26 GMT 48.841553 3.982966 38,000 321 413 0
2021-10-17 13:03:23 GMT 48.837673 3.987676 38,000 321 413 -64
2021-10-17 13:03:19 GMT 48.826309 4.001700 38,000 321 413 0
2021-10-17 13:03:16 GMT 48.826309 4.001700 38,000 321 413 0
2021-10-17 13:03:13 GMT 48.822006 4.006981 38,000 321 413 0
2021-10-17 13:03:08 GMT 48.814590 4.015996 38,000 321 413 0
2021-10-17 13:03:05 GMT 48.810150 4.021489 38,000 322 412 0
2021-10-17 13:03:02 GMT 48.805573 4.027123 38,000 322 412 0
2021-10-17 13:02:59 GMT 48.801270 4.032335 38,000 322 412 0
2021-10-17 13:02:55 GMT 48.795635 4.039210 38,000 322 412 0
2021-10-17 13:02:52 GMT 48.784790 4.052437 38,000 322 412 0
2021-10-17 13:02:48 GMT 48.784790 4.052437 38,000 322 412 64
2021-10-17 13:02:45 GMT 48.780319 4.057858 38,000 322 412 0
2021-10-17 13:02:36 GMT 48.762539 4.079614 38,000 322 413 0
2021-10-17 13:02:33 GMT 48.762539 4.079614 38,000 322 413 0
2021-10-17 13:02:28 GMT 48.751553 4.092985 38,000 322 413 0
2021-10-17 13:02:25 GMT 48.751553 4.092985 38,000 322 413 0
2021-10-17 13:02:22 GMT 48.738739 4.108535 38,000 322 413 0
2021-10-17 13:02:17 GMT 48.738739 4.108535 38,000 322 413 0
2021-10-17 13:02:14 GMT 48.735031 4.113042 38,000 322 413 0
2021-10-17 13:02:11 GMT 48.730000 4.119223 38,000 322 413 0
2021-10-17 13:02:08 GMT 48.725510 4.124592 38,000 322 413 0
2021-10-17 13:02:05 GMT 48.720612 4.130578 38,000 322 413 0
2021-10-17 13:02:01 GMT 48.714844 4.137620 38,000 322 412 0
2021-10-17 13:01:58 GMT 48.711842 4.141195 38,000 322 412 0
2021-10-17 13:01:55 GMT 48.706512 4.147691 38,000 322 412 0
2021-10-17 13:01:52 GMT 48.700378 4.155086 38,000 322 412 0
2021-10-17 13:01:49 GMT 48.695923 4.160494 38,000 322 412 0
2021-10-17 13:01:46 GMT 48.686874 4.171495 38,000 322 412 0
2021-10-17 13:01:43 GMT 48.686874 4.171495 38,000 322 412 0
2021-10-17 13:01:40 GMT 48.684654 4.174154 38,000 322 412 0
2021-10-17 13:01:36 GMT 48.676758 4.183749 38,000 322 412 0
2021-10-17 13:01:33 GMT 48.673050 4.188256 38,000 322 412 0
2021-10-17 13:01:28 GMT 48.664734 4.198295 38,000 322 412 0
2021-10-17 13:01:25 GMT 48.661194 4.202623 38,000 322 412 0
2021-10-17 13:01:21 GMT 48.655106 4.210017 38,000 322 412 0
2021-10-17 13:01:18 GMT 48.651234 4.214702 38,000 322 412 0
2021-10-17 13:01:14 GMT 48.645309 4.221919 38,000 322 412 0
2021-10-17 13:01:11 GMT 48.641129 4.226990 38,000 322 412 0
2021-10-17 13:01:08 GMT 48.636848 4.232194 38,000 322 412 0
2021-10-17 13:01:03 GMT 48.628693 4.242131 38,000 322 412 0
2021-10-17 13:00:59 GMT 48.623520 4.248399 38,000 322 412 0
2021-10-17 13:00:56 GMT 48.619389 4.253444 38,000 322 412 64
2021-10-17 13:00:53 GMT 48.614502 4.259371 38,000 322 412 64
2021-10-17 13:00:50 GMT 48.609192 4.265864 38,000 322 412 0
2021-10-17 13:00:47 GMT 48.605484 4.270372 38,000 322 412 0
2021-10-17 13:00:44 GMT 48.601048 4.275778 38,000 322 412 0
2021-10-17 13:00:41 GMT 48.591270 4.287704 38,000 322 411 0
2021-10-17 13:00:37 GMT 48.586105 4.293992 38,000 322 412 0
2021-10-17 13:00:34 GMT 48.586105 4.293992 38,000 322 411 0
2021-10-17 13:00:30 GMT 48.575119 4.307363 38,000 322 411 0
2021-10-17 13:00:26 GMT 48.575119 4.307363 38,000 322 412 0
2021-10-17 13:00:23 GMT 48.569672 4.314013 38,000 322 412 0
2021-10-17 13:00:19 GMT 48.562820 4.322275 38,000 322 411 0
2021-10-17 13:00:14 GMT 48.551147 4.336501 38,000 322 411 0
2021-10-17 13:00:10 GMT 48.551147 4.336501 38,000 322 411 0
2021-10-17 13:00:07 GMT 48.547279 4.341117 38,000 322 411 0
2021-10-17 13:00:04 GMT 48.542068 4.347406 38,000 320 411 0
2021-10-17 13:00:01 GMT 48.538342 4.351887 38,000 320 411 0
2021-10-17 12:59:58 GMT 48.531921 4.359952 38,000 319 410 0
2021-10-17 12:59:54 GMT 48.527496 4.365837 38,000 314 410 0
2021-10-17 12:59:50 GMT 48.522720 4.372347 38,000 315 410 0
2021-10-17 12:59:47 GMT 48.517578 4.379931 38,000 314 410 0
2021-10-17 12:59:42 GMT 48.510818 4.390376 38,000 310 409 0
2021-10-17 12:59:39 GMT 48.507797 4.395447 38,000 307 408 0
2021-10-17 12:59:34 GMT 48.500610 4.407912 38,000 307 408 0
2021-10-17 12:59:31 GMT 48.497635 4.413476 38,000 307 408 0
2021-10-17 12:59:27 GMT 48.492233 4.424110 38,000 303 408 0
2021-10-17 12:59:24 GMT 48.489487 4.429885 38,000 304 408 0
2021-10-17 12:59:21 GMT 48.486298 4.436886 38,000 303 408 0
2021-10-17 12:59:18 GMT 48.482712 4.445271 38,000 303 408 0
2021-10-17 12:59:14 GMT 48.478336 4.455534 38,000 303 408 0
2021-10-17 12:59:11 GMT 48.476196 4.460594 38,000 303 408 0
2021-10-17 12:59:07 GMT 48.470982 4.472737 38,000 303 408 0
2021-10-17 12:59:02 GMT 48.463852 4.489464 38,000 303 408 0
2021-10-17 12:58:59 GMT 48.463852 4.489464 38,000 303 408 0
2021-10-17 12:58:54 GMT 48.458786 4.501431 38,000 303 408 0
2021-10-17 12:58:51 GMT 48.455013 4.510249 38,000 303 408 0
2021-10-17 12:58:48 GMT 48.452774 4.515522 38,000 303 408 0
2021-10-17 12:58:45 GMT 48.449615 4.522916 38,000 303 408 0
2021-10-17 12:58:43 GMT 48.447567 4.527668 38,000 303 408 0
2021-10-17 12:58:39 GMT 48.444077 4.535804 38,000 303 408 0
2021-10-17 12:58:36 GMT 48.440441 4.544365 38,000 303 408 0
2021-10-17 12:58:32 GMT 48.436859 4.552677 38,000 303 408 0
2021-10-17 12:58:29 GMT 48.432266 4.563411 38,000 303 408 0
2021-10-17 12:58:26 GMT 48.430340 4.567927 38,000 303 408 0
2021-10-17 12:58:23 GMT 48.426758 4.576312 38,000 303 408 0
2021-10-17 12:58:19 GMT 48.423294 4.584398 38,000 303 408 0
2021-10-17 12:58:16 GMT 48.420425 4.591056 38,000 303 408 0
2021-10-17 12:58:13 GMT 48.414326 4.605368 38,000 303 408 0
2021-10-17 12:58:10 GMT 48.414326 4.605368 38,000 303 408 0
2021-10-17 12:58:07 GMT 48.411209 4.612740 38,000 303 408 0
2021-10-17 12:58:04 GMT 48.408142 4.619892 38,000 303 407 0
2021-10-17 12:58:01 GMT 48.404690 4.627991 38,000 303 408 64
2021-10-17 12:57:58 GMT 48.400726 4.637287 38,000 303 408 0
2021-10-17 12:57:55 GMT 48.398781 4.641796 38,000 303 408 -64
2021-10-17 12:57:51 GMT 48.394272 4.652287 38,000 303 408 -64
2021-10-17 12:57:47 GMT 48.390820 4.660371 38,000 303 408 -64
2021-10-17 12:57:44 GMT 48.387589 4.667992 38,000 303 408 -64
2021-10-17 12:57:41 GMT 48.384907 4.674177 38,000 303 408 0
2021-10-17 12:57:38 GMT 48.381367 4.682489 38,000 303 407 0
2021-10-17 12:57:34 GMT 48.377701 4.691021 38,000 303 408 64
2021-10-17 12:57:31 GMT 48.374012 4.699619 38,000 303 407 0
2021-10-17 12:57:28 GMT 48.370476 4.707931 38,000 303 407 0
2021-10-17 12:57:24 GMT 48.367916 4.713858 38,000 303 407 0
2021-10-17 12:57:20 GMT 48.363098 4.724966 38,000 303 407 0
2021-10-17 12:57:16 GMT 48.359161 4.734262 38,000 303 407 0
2021-10-17 12:57:13 GMT 48.355362 4.742995 38,000 303 407 0
2021-10-17 12:57:10 GMT 48.353344 4.747756 38,000 303 407 0
2021-10-17 12:57:07 GMT 48.346359 4.763874 38,000 303 407 0
2021-10-17 12:57:04 GMT 48.346359 4.763874 38,000 303 407 0
2021-10-17 12:57:00 GMT 48.342823 4.772186 38,000 303 407 0
2021-10-17 12:56:57 GMT 48.339657 4.779486 38,000 303 407 0
2021-10-17 12:56:54 GMT 48.337006 4.785673 38,000 303 407 0
2021-10-17 12:56:50 GMT 48.332611 4.795814 38,000 303 407 0
2021-10-17 12:56:46 GMT 48.327183 4.808398 38,000 303 407 0
2021-10-17 12:56:40 GMT 48.322575 4.819095 38,000 303 407 0
2021-10-17 12:56:37 GMT 48.319408 4.826395 38,000 303 407 0
2021-10-17 12:56:34 GMT 48.316055 4.834201 38,000 303 407 0
2021-10-17 12:56:29 GMT 48.305908 4.857619 38,000 303 407 0
2021-10-17 12:56:24 GMT 48.305908 4.857619 38,000 303 407 0
2021-10-17 12:56:21 GMT 48.302929 4.864486 38,000 303 407 0
2021-10-17 12:56:18 GMT 48.299763 4.871858 38,000 303 407 0
2021-10-17 12:56:15 GMT 48.293430 4.886459 38,000 303 407 0
2021-10-17 12:56:12 GMT 48.293430 4.886459 38,000 303 407 0
2021-10-17 12:56:09 GMT 48.290451 4.893325 38,000 303 407 0
2021-10-17 12:56:05 GMT 48.286636 4.902071 38,000 303 407 0
2021-10-17 12:56:01 GMT 48.282120 4.912508 38,000 303 407 0
2021-10-17 12:55:57 GMT 48.277927 4.922164 38,000 303 407 0
2021-10-17 12:55:54 GMT 48.274246 4.930678 38,000 303 407 0
2021-10-17 12:55:49 GMT 48.269737 4.941101 38,000 304 408 0
2021-10-17 12:55:45 GMT 48.266647 4.948214 38,000 303 407 0
2021-10-17 12:55:41 GMT 48.261402 4.960255 38,000 304 408 0
2021-10-17 12:55:38 GMT 48.259048 4.965679 38,000 304 408 -64
2021-10-17 12:55:34 GMT 48.253922 4.977511 38,000 304 408 0
2021-10-17 12:55:31 GMT 48.251358 4.983427 38,000 304 408 0
2021-10-17 12:55:29 GMT 48.249393 4.987938 38,000 304 408 -64
2021-10-17 12:55:25 GMT 48.245911 4.995962 38,000 304 408 -64
2021-10-17 12:55:22 GMT 48.241699 5.005611 38,000 304 408 0
2021-10-17 12:55:19 GMT 48.239319 5.011104 38,000 304 408 0
2021-10-17 12:55:15 GMT 48.235382 5.020048 38,000 304 408 0
2021-10-17 12:55:12 GMT 48.231888 5.028124 38,000 304 408 0
2021-10-17 12:55:09 GMT 48.225094 5.043664 38,000 304 408 0
2021-10-17 12:55:06 GMT 48.225094 5.043664 38,000 304 408 0
2021-10-17 12:55:03 GMT 48.222610 5.049345 38,000 304 408 0
2021-10-17 12:55:00 GMT 48.219460 5.056674 38,000 304 408 0
2021-10-17 12:54:57 GMT 48.216980 5.062373 38,000 304 408 0
2021-10-17 12:54:54 GMT 48.213455 5.070407 38,000 304 408 0
2021-10-17 12:54:51 GMT 48.209564 5.079346 38,000 304 409 0
2021-10-17 12:54:48 GMT 48.207916 5.083128 38,000 304 408 0
2021-10-17 12:54:45 GMT 48.204208 5.091670 38,000 304 408 0
2021-10-17 12:54:41 GMT 48.200180 5.100896 38,000 304 408 0
2021-10-17 12:54:38 GMT 48.196045 5.110377 38,000 304 408 0
2021-10-17 12:54:35 GMT 48.194412 5.114136 38,000 304 408 0
2021-10-17 12:54:31 GMT 48.189972 5.124277 38,000 304 409 0
2021-10-17 12:54:29 GMT 48.188049 5.128784 38,000 304 409 0
2021-10-17 12:54:26 GMT 48.182079 5.142469 38,000 304 409 0
2021-10-17 12:54:23 GMT 48.182079 5.142469 38,000 304 409 0
2021-10-17 12:54:20 GMT 48.178253 5.151250 38,000 304 409 0
2021-10-17 12:54:17 GMT 48.175655 5.157141 38,000 304 409 0
2021-10-17 12:54:13 GMT 48.170532 5.168995 38,000 304 409 0
2021-10-17 12:54:08 GMT 48.165390 5.180828 38,000 304 409 0
2021-10-17 12:54:05 GMT 48.163193 5.185829 38,000 304 409 0
2021-10-17 12:54:00 GMT 48.157425 5.199074 38,000 304 409 0
2021-10-17 12:53:56 GMT 48.154449 5.205940 38,000 304 409 0
2021-10-17 12:53:53 GMT 48.149677 5.216816 38,000 304 409 0
2021-10-17 12:53:49 GMT 48.145676 5.226041 38,000 304 408 0
2021-10-17 12:53:45 GMT 48.142593 5.233131 38,000 304 408 0
2021-10-17 12:53:42 GMT 48.139156 5.240901 38,000 304 408 0
2021-10-17 12:53:38 GMT 48.132130 5.256958 38,000 304 408 0
2021-10-17 12:53:35 GMT 48.132130 5.256958 38,000 304 408 0
2021-10-17 12:53:32 GMT 48.128681 5.264705 38,000 304 408 0
2021-10-17 12:53:29 GMT 48.123093 5.277489 38,000 304 408 0
2021-10-17 12:53:26 GMT 48.123093 5.277489 38,000 304 408 0
2021-10-17 12:53:23 GMT 48.119385 5.285934 38,000 304 408 0
2021-10-17 12:53:20 GMT 48.116997 5.291396 38,000 304 408 0
2021-10-17 12:53:17 GMT 48.113663 5.298912 38,000 304 408 0
2021-10-17 12:53:14 GMT 48.106243 5.315904 38,000 304 408 0
2021-10-17 12:53:10 GMT 48.106243 5.315904 38,000 304 408 0
2021-10-17 12:53:07 GMT 48.101852 5.325829 38,000 304 409 0
2021-10-17 12:53:03 GMT 48.098984 5.332454 38,000 304 409 0
2021-10-17 12:53:00 GMT 48.095856 5.339493 38,000 304 409 0
2021-10-17 12:52:58 GMT 48.092743 5.346539 38,000 304 409 0
2021-10-17 12:52:54 GMT 48.089401 5.354118 38,000 304 409 0
2021-10-17 12:52:51 GMT 48.082455 5.369850 38,000 304 408 0
2021-10-17 12:52:48 GMT 48.082455 5.369850 38,000 304 408 0
2021-10-17 12:52:45 GMT 48.079376 5.376984 38,000 304 408 0
2021-10-17 12:52:39 GMT 48.074169 5.388724 38,000 304 409 0
2021-10-17 12:52:37 GMT 48.072510 5.392502 38,000 304 409 0
2021-10-17 12:52:34 GMT 48.069122 5.400261 38,000 304 408 0
2021-10-17 12:52:31 GMT 48.065372 5.408724 38,000 304 407 0
2021-10-17 12:52:28 GMT 48.060287 5.420242 38,000 304 407 0
2021-10-17 12:52:26 GMT 48.060287 5.420242 38,000 304 408 0
2021-10-17 12:52:23 GMT 48.056339 5.429148 38,000 304 408 0
2021-10-17 12:52:19 GMT 48.053650 5.435280 38,000 304 408 0
2021-10-17 12:52:14 GMT 48.048241 5.447458 38,000 304 407 0
2021-10-17 12:52:11 GMT 48.045135 5.454506 38,000 304 407 0
2021-10-17 12:52:08 GMT 48.037441 5.471825 38,000 304 407 0
2021-10-17 12:52:04 GMT 48.037441 5.471825 38,000 304 407 0
2021-10-17 12:52:01 GMT 48.034554 5.478445 38,000 304 407 0
2021-10-17 12:51:58 GMT 48.031448 5.485474 38,000 304 407 0
2021-10-17 12:51:55 GMT 48.028839 5.491310 38,000 304 407 0
2021-10-17 12:51:52 GMT 48.025223 5.499481 38,000 304 407 0
2021-10-17 12:51:49 GMT 48.022202 5.506279 38,000 304 407 64
2021-10-17 12:51:45 GMT 48.018681 5.514221 38,000 304 407 0
2021-10-17 12:51:42 GMT 48.014740 5.523102 38,000 304 407 0
2021-10-17 12:51:38 GMT 48.011185 5.531053 38,000 304 407 0
2021-10-17 12:51:35 GMT 48.003342 5.548782 38,000 304 406 0
2021-10-17 12:51:32 GMT 48.003342 5.548782 38,000 304 406 0
2021-10-17 12:51:29 GMT 48.000824 5.554413 38,000 304 406 -64
2021-10-17 12:51:26 GMT 47.998032 5.560730 38,000 304 406 0
2021-10-17 12:51:23 GMT 47.994331 5.569153 38,000 304 406 0
2021-10-17 12:51:20 GMT 47.992218 5.573776 38,000 304 406 0
2021-10-17 12:51:17 GMT 47.987778 5.583801 38,000 304 406 0
2021-10-17 12:51:14 GMT 47.985722 5.588449 38,000 304 406 0
2021-10-17 12:51:11 GMT 47.982193 5.596436 38,000 304 406 0
2021-10-17 12:51:08 GMT 47.979717 5.602041 38,000 304 406 0
2021-10-17 12:51:04 GMT 47.974640 5.613450 38,000 304 406 0
2021-10-17 12:51:01 GMT 47.969559 5.624863 38,000 304 406 0
2021-10-17 12:50:58 GMT 47.969559 5.624863 38,000 304 406 0
2021-10-17 12:50:54 GMT 47.965302 5.634407 38,000 304 406 0
2021-10-17 12:50:51 GMT 47.961868 5.642029 38,000 304 406 0
2021-10-17 12:50:48 GMT 47.958767 5.649015 38,000 304 406 0
2021-10-17 12:50:44 GMT 47.954391 5.658804 38,000 304 406 0
2021-10-17 12:50:41 GMT 47.951385 5.665581 38,000 304 406 64
2021-10-17 12:50:38 GMT 47.948292 5.672537 38,000 304 406 0
2021-10-17 12:50:34 GMT 47.939987 5.691124 38,000 304 406 0
2021-10-17 12:50:30 GMT 47.939987 5.691124 38,000 304 406 0
2021-10-17 12:50:26 GMT 47.934814 5.702728 38,000 304 406 0
2021-10-17 12:50:23 GMT 47.933441 5.705778 38,000 304 406 0
2021-10-17 12:50:20 GMT 47.929207 5.715285 38,000 304 406 64
2021-10-17 12:50:17 GMT 47.925888 5.722710 38,000 304 406 64
2021-10-17 12:50:14 GMT 47.923386 5.728314 38,000 304 405 0
2021-10-17 12:50:11 GMT 47.920074 5.735756 38,000 304 406 -64
2021-10-17 12:50:08 GMT 47.917381 5.741765 38,000 304 406 -64
2021-10-17 12:50:05 GMT 47.914673 5.747841 38,000 304 406 -64
2021-10-17 12:50:01 GMT 47.910645 5.756836 38,000 304 405 0
2021-10-17 12:49:58 GMT 47.907093 5.764794 38,000 304 405 0
2021-10-17 12:49:55 GMT 47.903778 5.772217 38,000 304 405 0
2021-10-17 12:49:52 GMT 47.900803 5.778946 38,000 304 405 0
2021-10-17 12:49:48 GMT 47.896526 5.788457 38,000 304 405 0
2021-10-17 12:49:45 GMT 47.893753 5.794739 38,000 304 405 0
2021-10-17 12:49:42 GMT 47.890228 5.802567 38,000 304 405 0
2021-10-17 12:49:38 GMT 47.885559 5.813004 38,000 304 402 0
2021-10-17 12:49:34 GMT 47.882355 5.820213 38,000 304 405 0
2021-10-17 12:49:31 GMT 47.878838 5.828106 38,000 304 405 0
2021-10-17 12:49:28 GMT 47.875534 5.835526 38,000 304 402 0
2021-10-17 12:49:25 GMT 47.872925 5.841346 38,000 304 405 64
2021-10-17 12:49:22 GMT 47.869537 5.848984 38,000 304 405 0
2021-10-17 12:49:18 GMT 47.864777 5.859657 38,000 304 405 -64
2021-10-17 12:49:15 GMT 47.862171 5.865432 38,000 304 405 -64
2021-10-17 12:49:11 GMT 47.857002 5.876981 38,000 304 405 -64
2021-10-17 12:49:07 GMT 47.850163 5.892264 38,000 304 405 0
2021-10-17 12:49:03 GMT 47.850163 5.892264 38,000 304 405 0
2021-10-17 12:49:00 GMT 47.846481 5.900362 38,000 304 405 0
2021-10-17 12:48:57 GMT 47.843399 5.907280 38,000 304 405 0
2021-10-17 12:48:54 GMT 47.840057 5.914659 38,000 304 404 0
2021-10-17 12:48:51 GMT 47.836761 5.922043 38,000 305 401 0
2021-10-17 12:48:48 GMT 47.834240 5.927617 38,000 304 404 0
2021-10-17 12:48:45 GMT 47.831028 5.934730 38,000 304 404 0
2021-10-17 12:48:42 GMT 47.827927 5.941612 38,000 304 402 0
2021-10-17 12:48:39 GMT 47.824280 5.949731 38,000 304 403 0
2021-10-17 12:48:36 GMT 47.821609 5.955688 38,000 304 403 0
2021-10-17 12:48:33 GMT 47.819111 5.961210 38,000 304 403 0
2021-10-17 12:48:30 GMT 47.815384 5.969490 38,000 304 403 0
2021-10-17 12:48:27 GMT 47.812267 5.976422 38,000 304 402 0
2021-10-17 12:48:24 GMT 47.809708 5.982193 38,000 304 402 0
2021-10-17 12:48:21 GMT 47.806587 5.989098 38,000 304 402 0
2021-10-17 12:48:16 GMT 47.801926 5.999428 38,000 304 402 0
2021-10-17 12:48:13 GMT 47.797256 6.009727 38,000 304 402 0
2021-10-17 12:48:10 GMT 47.795105 6.014603 38,000 304 402 0
2021-10-17 12:48:07 GMT 47.791031 6.023529 38,000 304 402 0
2021-10-17 12:48:04 GMT 47.788990 6.028114 38,000 304 402 0
2021-10-17 12:48:01 GMT 47.785675 6.035477 38,000 304 402 0
2021-10-17 12:47:58 GMT 47.781914 6.043678 38,000 304 402 0
2021-10-17 12:47:54 GMT 47.778809 6.050583 38,000 304 402 0
2021-10-17 12:47:51 GMT 47.774654 6.059735 38,000 304 402 0
2021-10-17 12:47:47 GMT 47.771160 6.067552 38,000 304 402 0
2021-10-17 12:47:44 GMT 47.767639 6.075302 38,000 304 402 0
2021-10-17 12:47:39 GMT 47.762970 6.085602 38,000 304 402 0
2021-10-17 12:47:36 GMT 47.760269 6.091496 38,000 304 402 0
2021-10-17 12:47:33 GMT 47.756332 6.100227 38,000 304 401 0
2021-10-17 12:47:30 GMT 47.750565 6.112999 38,000 304 402 0
2021-10-17 12:47:27 GMT 47.747654 6.119385 38,000 305 401 -64
2021-10-17 12:47:24 GMT 47.743103 6.129478 38,000 304 401 0
2021-10-17 12:47:21 GMT 47.743103 6.129478 38,000 304 401 0
2021-10-17 12:47:18 GMT 47.740906 6.134216 38,000 305 401 -64
2021-10-17 12:47:15 GMT 47.738251 6.140160 38,000 304 401 64
2021-10-17 12:47:11 GMT 47.734497 6.148361 38,000 304 401 0
2021-10-17 12:47:08 GMT 47.730568 6.157062 38,000 305 401 0
2021-10-17 12:47:05 GMT 47.726517 6.165936 38,000 304 401 0
2021-10-17 12:47:01 GMT 47.723911 6.171570 38,000 304 401 0
2021-10-17 12:46:57 GMT 47.719257 6.181852 38,000 304 401 64
2021-10-17 12:46:54 GMT 47.715626 6.189810 38,000 304 401 64
2021-10-17 12:46:51 GMT 47.713120 6.195259 38,000 304 401 0
2021-10-17 12:46:48 GMT 47.709091 6.204185 38,000 304 401 0
2021-10-17 12:46:45 GMT 47.706940 6.208923 38,000 304 401 0
2021-10-17 12:46:42 GMT 47.703846 6.215797 38,000 304 401 0
2021-10-17 12:46:39 GMT 47.700634 6.222839 38,000 304 401 0
2021-10-17 12:46:36 GMT 47.696587 6.231713 38,000 304 401 0
2021-10-17 12:46:33 GMT 47.694023 6.237417 38,000 304 400 0
2021-10-17 12:46:30 GMT 47.690918 6.244286 38,000 304 401 0
2021-10-17 12:46:26 GMT 47.687649 6.251573 38,000 304 401 64
2021-10-17 12:46:23 GMT 47.680386 6.267559 38,000 304 402 64
2021-10-17 12:46:20 GMT 47.680386 6.267559 38,000 304 402 0
2021-10-17 12:46:17 GMT 47.675858 6.277588 38,000 304 402 -64
2021-10-17 12:46:11 GMT 47.671509 6.287201 38,000 304 401 -64
2021-10-17 12:46:07 GMT 47.667068 6.296951 38,000 304 402 0
2021-10-17 12:46:04 GMT 47.664604 6.302490 38,000 304 402 0
2021-10-17 12:46:00 GMT 47.660477 6.311577 38,000 304 402 0
2021-10-17 12:45:57 GMT 47.655014 6.323688 38,000 304 402 0
2021-10-17 12:45:54 GMT 47.655014 6.323688 38,000 305 401 0
2021-10-17 12:45:51 GMT 47.651150 6.332139 38,000 305 401 0
2021-10-17 12:45:48 GMT 47.648438 6.338013 38,000 305 401 0
2021-10-17 12:45:45 GMT 47.643997 6.347832 38,000 305 401 0
2021-10-17 12:45:42 GMT 47.641617 6.353050 38,000 305 402 0
2021-10-17 12:45:39 GMT 47.638676 6.359464 38,000 305 402 0
2021-10-17 12:45:36 GMT 47.634018 6.369676 38,000 305 402 0
2021-10-17 12:45:33 GMT 47.632015 6.373972 38,000 305 403 0
2021-10-17 12:45:29 GMT 47.628021 6.382645 38,000 304 401 0
2021-10-17 12:45:26 GMT 47.625080 6.388972 38,000 303 401 0
2021-10-17 12:45:22 GMT 47.620472 6.399254 38,000 301 401 0
2021-10-17 12:45:19 GMT 47.616982 6.407353 38,000 301 401 0
2021-10-17 12:45:16 GMT 47.615433 6.411140 38,000 299 402 0
2021-10-17 12:45:11 GMT 47.610744 6.423058 38,000 298 402 0
2021-10-17 12:45:07 GMT 47.607018 6.433199 38,000 298 402 0
2021-10-17 12:45:04 GMT 47.604126 6.441559 38,000 295 404 0
2021-10-17 12:45:01 GMT 47.601570 6.449538 38,000 294 404 0
2021-10-17 12:44:57 GMT 47.598816 6.458656 38,000 293 404 0
2021-10-17 12:44:54 GMT 47.594650 6.474106 38,000 292 405 0
2021-10-17 12:44:51 GMT 47.594650 6.474106 38,000 292 406 0
2021-10-17 12:44:48 GMT 47.592167 6.483413 38,000 292 406 0
2021-10-17 12:44:43 GMT 47.589283 6.494540 38,000 292 406 -64
2021-10-17 12:44:40 GMT 47.587139 6.502498 38,000 292 406 64
2021-10-17 12:44:37 GMT 47.585464 6.508977 38,000 292 406 64
2021-10-17 12:44:34 GMT 47.582886 6.518806 38,000 292 406 64
2021-10-17 12:44:30 GMT 47.580780 6.526840 38,000 292 406 64
2021-10-17 12:44:27 GMT 47.578342 6.536161 38,000 292 406 64
2021-10-17 12:44:24 GMT 47.576477 6.543388 38,000 292 406 0
2021-10-17 12:44:21 GMT 47.574013 6.552711 38,000 292 406 -64
2021-10-17 12:44:18 GMT 47.572758 6.557570 38,000 292 406 0
2021-10-17 12:44:15 GMT 47.570381 6.566655 38,000 292 406 0
2021-10-17 12:44:12 GMT 47.568287 6.574684 38,000 292 406 0
2021-10-17 12:44:10 GMT 47.566360 6.581909 38,000 292 406 0
2021-10-17 12:44:05 GMT 47.563477 6.593033 38,000 292 406 0
2021-10-17 12:44:01 GMT 47.560135 6.605667 38,000 292 406 0
2021-10-17 12:43:57 GMT 47.557858 6.614474 38,000 292 406 0
2021-10-17 12:43:54 GMT 47.555996 6.621446 38,000 292 406 0
2021-10-17 12:43:51 GMT 47.554001 6.629219 38,000 292 406 0
2021-10-17 12:43:48 GMT 47.551620 6.638214 38,000 292 406 0
2021-10-17 12:43:45 GMT 47.549850 6.644968 38,000 292 406 -64
2021-10-17 12:43:41 GMT 47.547153 6.655320 38,000 292 406 -64
2021-10-17 12:43:38 GMT 47.545120 6.663071 38,000 292 406 0
2021-10-17 12:43:35 GMT 47.542328 6.673645 38,000 292 406 64
2021-10-17 12:43:31 GMT 47.540543 6.680321 38,000 292 406 64
2021-10-17 12:43:29 GMT 47.536819 6.694547 38,000 292 406 0
2021-10-17 12:43:25 GMT 47.534584 6.703069 38,000 292 406 -64
2021-10-17 12:43:22 GMT 47.534584 6.703069 38,000 292 406 0
2021-10-17 12:43:19 GMT 47.530346 6.719126 38,000 292 406 -64
2021-10-17 12:43:16 GMT 47.530346 6.719126 38,000 292 406 -64
2021-10-17 12:43:13 GMT 47.527405 6.730225 38,000 292 407 -64
2021-10-17 12:43:10 GMT 47.525970 6.735676 38,000 292 407 -64
2021-10-17 12:43:07 GMT 47.523605 6.744713 38,000 292 407 0
2021-10-17 12:43:03 GMT 47.520950 6.754807 38,000 292 407 0
2021-10-17 12:43:00 GMT 47.519577 6.760025 38,000 292 407 64
2021-10-17 12:42:57 GMT 47.517544 6.767789 38,000 292 407 64
2021-10-17 12:42:54 GMT 47.513535 6.783028 38,000 292 408 0
2021-10-17 12:42:51 GMT 47.513535 6.783028 38,000 292 407 0
2021-10-17 12:42:49 GMT 47.511383 6.791061 38,000 292 407 0
2021-10-17 12:42:46 GMT 47.509689 6.797516 38,000 292 408 0
2021-10-17 12:42:43 GMT 47.507210 6.806875 38,000 292 408 0
2021-10-17 12:42:40 GMT 47.505489 6.813284 38,000 292 408 0
2021-10-17 12:42:36 GMT 47.503006 6.822647 38,000 292 408 -64
2021-10-17 12:42:33 GMT 47.498886 6.838165 38,000 292 408 64
2021-10-17 12:42:30 GMT 47.498886 6.838165 38,000 292 408 64
2021-10-17 12:42:27 GMT 47.496918 6.845650 38,000 292 408 64
2021-10-17 12:42:24 GMT 47.494686 6.853919 38,000 292 408 64
2021-10-17 12:42:21 GMT 47.492615 6.861717 38,000 292 408 64
2021-10-17 12:42:19 GMT 47.491196 6.867142 38,000 292 408 64
2021-10-17 12:42:16 GMT 47.489044 6.875175 38,000 292 408 0
2021-10-17 12:42:13 GMT 47.487194 6.882160 38,000 292 408 0
2021-10-17 12:42:10 GMT 47.484924 6.890694 38,000 292 408 0
2021-10-17 12:42:07 GMT 47.482956 6.897903 38,000 292 408 0
2021-10-17 12:42:04 GMT 47.480583 6.906738 38,000 292 409 -64
2021-10-17 12:42:01 GMT 47.478439 6.914767 38,000 292 408 0
2021-10-17 12:41:59 GMT 47.476639 6.921455 38,000 292 409 0
2021-10-17 12:41:56 GMT 47.474625 6.929008 38,000 292 409 -64
2021-10-17 12:41:53 GMT 47.473022 6.934982 38,000 292 409 -64
2021-10-17 12:41:50 GMT 47.470367 6.945076 38,000 292 409 0
2021-10-17 12:41:47 GMT 47.467175 6.957022 38,000 292 409 0
2021-10-17 12:41:44 GMT 47.467175 6.957022 38,000 292 409 0
2021-10-17 12:41:41 GMT 47.465034 6.965050 38,000 292 409 0
2021-10-17 12:41:38 GMT 47.462631 6.974190 38,000 292 409 0
2021-10-17 12:41:35 GMT 47.458557 6.989502 38,000 292 410 0
2021-10-17 12:41:32 GMT 47.458557 6.989502 38,000 292 410 0
2021-10-17 12:41:29 GMT 47.456654 6.996742 38,000 292 410 64
2021-10-17 12:41:26 GMT 47.454437 7.005089 38,000 292 410 0
2021-10-17 12:41:23 GMT 47.451920 7.014702 38,000 292 410 64
2021-10-17 12:41:20 GMT 47.450371 7.020405 38,000 292 410 64
2021-10-17 12:41:17 GMT 47.448807 7.026443 38,000 292 410 64
2021-10-17 12:41:14 GMT 47.446461 7.035264 38,000 292 410 64
2021-10-17 12:41:11 GMT 47.444229 7.043610 38,000 292 410 -64
2021-10-17 12:41:08 GMT 47.441940 7.052193 38,000 292 410 -64
2021-10-17 12:41:05 GMT 47.439926 7.059746 38,000 292 410 -64
2021-10-17 12:41:02 GMT 47.437710 7.068082 38,000 292 410 -64
2021-10-17 12:40:59 GMT 47.433517 7.083646 38,000 292 411 -64
2021-10-17 12:40:56 GMT 47.433517 7.083646 38,000 292 414 0
2021-10-17 12:40:53 GMT 47.432007 7.089134 38,000 292 411 0
2021-10-17 12:40:50 GMT 47.427746 7.104985 38,000 292 411 -64
2021-10-17 12:40:47 GMT 47.427746 7.104985 38,000 292 411 0
2021-10-17 12:40:44 GMT 47.422714 7.123398 38,000 292 411 0
2021-10-17 12:40:41 GMT 47.422714 7.123398 38,000 292 411 0
2021-10-17 12:40:38 GMT 47.421249 7.128822 38,000 292 411 0
2021-10-17 12:40:35 GMT 47.418915 7.137405 38,000 292 411 0
2021-10-17 12:40:32 GMT 47.416481 7.146254 38,000 292 411 64
2021-10-17 12:40:29 GMT 47.414898 7.152240 38,000 292 412 128
2021-10-17 12:40:26 GMT 47.412460 7.161095 38,000 292 412 64
2021-10-17 12:40:23 GMT 47.410721 7.167618 38,000 292 412 -128
2021-10-17 12:40:20 GMT 47.407516 7.179291 38,000 292 412 -128
2021-10-17 12:40:16 GMT 47.405819 7.185552 38,000 292 412 -128
2021-10-17 12:40:13 GMT 47.403305 7.194946 38,000 292 412 -64
2021-10-17 12:40:10 GMT 47.401291 7.202225 38,025 292 412 0
2021-10-17 12:40:07 GMT 47.398418 7.212877 38,000 292 412 64
2021-10-17 12:40:04 GMT 47.397079 7.217880 38,000 292 412 128
2021-10-17 12:40:01 GMT 47.395115 7.225131 38,000 292 412 64
2021-10-17 12:39:58 GMT 47.393280 7.231956 38,000 292 412 64
2021-10-17 12:39:56 GMT 47.391998 7.236626 38,000 292 413 -64
2021-10-17 12:39:53 GMT 47.389526 7.245758 38,000 292 413 0
2021-10-17 12:39:50 GMT 47.386734 7.256188 38,000 292 413 0
2021-10-17 12:39:47 GMT 47.385040 7.262444 38,000 292 413 0
2021-10-17 12:39:44 GMT 47.381145 7.276823 38,000 292 413 0
2021-10-17 12:39:41 GMT 47.381145 7.276823 38,000 292 413 0
2021-10-17 12:39:38 GMT 47.378960 7.284921 38,000 292 413 64
2021-10-17 12:39:35 GMT 47.376350 7.294570 38,000 292 413 64
2021-10-17 12:39:32 GMT 47.374649 7.300827 38,000 292 413 0
2021-10-17 12:39:29 GMT 47.372395 7.309218 38,000 292 414 0
2021-10-17 12:39:27 GMT 47.370625 7.315697 38,000 292 414 64
2021-10-17 12:39:24 GMT 47.368763 7.322529 38,000 292 414 0
2021-10-17 12:39:21 GMT 47.366959 7.329323 38,000 292 414 0
2021-10-17 12:39:18 GMT 47.364166 7.339554 38,000 292 414 0
2021-10-17 12:39:15 GMT 47.360245 7.353938 38,000 292 414 -64
2021-10-17 12:39:12 GMT 47.360245 7.353938 38,000 292 414 -64
2021-10-17 12:39:09 GMT 47.357986 7.362282 38,000 292 414 -64
2021-10-17 12:39:07 GMT 47.356705 7.367020 38,000 292 414 0
2021-10-17 12:39:04 GMT 47.354706 7.374291 38,000 292 414 0
2021-10-17 12:39:01 GMT 47.352173 7.383774 38,000 292 414 0
2021-10-17 12:38:58 GMT 47.350388 7.390297 38,000 292 415 0
2021-10-17 12:38:55 GMT 47.347534 7.400771 38,000 292 415 0
2021-10-17 12:38:52 GMT 47.345303 7.408870 38,000 292 415 0
2021-10-17 12:38:49 GMT 47.343933 7.413849 38,000 292 415 0
2021-10-17 12:38:46 GMT 47.341064 7.424293 38,000 293 415 0
2021-10-17 12:38:42 GMT 47.338226 7.434786 38,000 293 416 0
2021-10-17 12:38:39 GMT 47.336563 7.440834 38,000 293 416 0
2021-10-17 12:38:36 GMT 47.334549 7.448167 38,000 293 416 0
2021-10-17 12:38:33 GMT 47.332592 7.455210 38,000 293 417 0
2021-10-17 12:38:30 GMT 47.329567 7.466266 38,000 293 417 0
2021-10-17 12:38:27 GMT 47.326538 7.477295 38,000 293 417 0
2021-10-17 12:38:20 GMT 47.322258 7.492817 38,000 292 418 0
2021-10-17 12:38:17 GMT 47.320953 7.497535 38,000 292 418 0
2021-10-17 12:38:14 GMT 47.318527 7.506477 38,000 292 418 0
2021-10-17 12:38:11 GMT 47.316925 7.512314 38,000 292 418 -64
2021-10-17 12:38:08 GMT 47.314270 7.522064 38,000 292 418 0
2021-10-17 12:38:06 GMT 47.312485 7.528656 38,000 292 418 -64
2021-10-17 12:38:03 GMT 47.310902 7.534438 38,000 292 418 -64
2021-10-17 12:38:00 GMT 47.308319 7.543968 38,000 292 418 -64
2021-10-17 12:37:57 GMT 47.306534 7.550560 38,025 292 418 0
2021-10-17 12:37:55 GMT 47.303032 7.563805 38,000 292 419 0
2021-10-17 12:37:52 GMT 47.303032 7.563805 38,000 292 419 64
2021-10-17 12:37:49 GMT 47.301086 7.571228 38,000 292 419 0
2021-10-17 12:37:46 GMT 47.298615 7.580566 38,000 292 419 64
2021-10-17 12:37:43 GMT 47.296875 7.587158 38,000 292 419 64
2021-10-17 12:37:40 GMT 47.294449 7.596497 38,000 292 420 64
2021-10-17 12:37:37 GMT 47.291016 7.609474 38,000 292 420 0
2021-10-17 12:37:34 GMT 47.291016 7.609474 38,000 292 420 0
2021-10-17 12:37:31 GMT 47.286530 7.626503 38,000 292 420 0
2021-10-17 12:37:29 GMT 47.286530 7.626503 38,000 292 420 0
2021-10-17 12:37:26 GMT 47.284828 7.632892 38,000 292 420 0
2021-10-17 12:37:23 GMT 47.280533 7.649094 38,000 292 420 0
2021-10-17 12:37:20 GMT 47.278519 7.656578 38,000 292 421 -64
2021-10-17 12:37:17 GMT 47.278519 7.656578 38,000 292 420 0
2021-10-17 12:37:13 GMT 47.275612 7.667471 38,000 292 420 0
2021-10-17 12:37:10 GMT 47.271378 7.683105 38,000 293 420 0
2021-10-17 12:37:07 GMT 47.271378 7.683105 38,000 293 420 0
2021-10-17 12:37:05 GMT 47.269421 7.690218 38,000 293 420 0
2021-10-17 12:37:02 GMT 47.267487 7.697090 38,000 295 419 0
2021-10-17 12:36:59 GMT 47.265198 7.705261 38,000 295 419 0
2021-10-17 12:36:56 GMT 47.263325 7.711839 38,000 294 419 0
2021-10-17 12:36:53 GMT 47.258011 7.729568 38,000 295 419 0
2021-10-17 12:36:50 GMT 47.256203 7.735502 38,000 295 419 0
2021-10-17 12:36:47 GMT 47.256203 7.735502 38,000 295 419 0
2021-10-17 12:36:45 GMT 47.253872 7.743037 38,000 295 419 0
2021-10-17 12:36:42 GMT 47.251923 7.749207 38,000 295 419 0
2021-10-17 12:36:39 GMT 47.249218 7.758038 38,000 295 419 0
2021-10-17 12:36:36 GMT 47.247299 7.764244 38,000 295 419 0
2021-10-17 12:36:33 GMT 47.244507 7.773308 38,000 295 419 0
2021-10-17 12:36:30 GMT 47.241955 7.781630 38,000 295 419 0
2021-10-17 12:36:27 GMT 47.240021 7.787865 38,000 295 419 0
2021-10-17 12:36:25 GMT 47.238419 7.793015 38,000 295 419 0
2021-10-17 12:36:22 GMT 47.235207 7.803392 38,000 295 419 0
2021-10-17 12:36:19 GMT 47.233391 7.809378 38,000 295 419 0
2021-10-17 12:36:16 GMT 47.231201 7.816350 38,000 295 419 0
2021-10-17 12:36:13 GMT 47.228874 7.823885 38,000 295 419 0
2021-10-17 12:36:10 GMT 47.226471 7.831604 38,000 295 419 0
2021-10-17 12:36:07 GMT 47.223816 7.840187 38,000 295 419 0
2021-10-17 12:36:05 GMT 47.222309 7.845083 38,000 295 419 0
2021-10-17 12:36:02 GMT 47.219845 7.853182 38,000 295 419 0
2021-10-17 12:35:59 GMT 47.217796 7.859661 38,000 295 419 0
2021-10-17 12:35:56 GMT 47.215141 7.868183 38,000 295 419 0
2021-10-17 12:35:53 GMT 47.212601 7.876442 38,000 295 419 0
2021-10-17 12:35:50 GMT 47.210346 7.883747 38,000 295 419 0
2021-10-17 12:35:47 GMT 47.205597 7.899029 38,000 295 419 -64
2021-10-17 12:35:44 GMT 47.205597 7.899029 38,000 295 419 0
2021-10-17 12:35:41 GMT 47.200699 7.914825 38,000 295 420 0
2021-10-17 12:35:38 GMT 47.200699 7.914825 38,000 295 420 0
2021-10-17 12:35:35 GMT 47.198570 7.921565 38,000 295 420 0
2021-10-17 12:35:32 GMT 47.192799 7.940157 38,000 295 421 0
2021-10-17 12:35:29 GMT 47.191269 7.945107 38,000 295 420 0
2021-10-17 12:35:26 GMT 47.191269 7.945107 38,000 295 420 0
2021-10-17 12:35:24 GMT 47.189632 7.950299 38,000 295 420 0
2021-10-17 12:35:21 GMT 47.186325 7.960862 38,000 295 420 0
2021-10-17 12:35:17 GMT 47.183075 7.971268 38,000 295 421 0
2021-10-17 12:35:14 GMT 47.181061 7.977722 38,000 295 421 0
2021-10-17 12:35:11 GMT 47.178970 7.984455 38,000 295 420 0
2021-10-17 12:35:08 GMT 47.175617 7.995089 38,000 295 420 -64
2021-10-17 12:35:05 GMT 47.174362 7.999244 38,000 295 420 -64
2021-10-17 12:35:02 GMT 47.171661 8.007766 38,000 295 421 0
2021-10-17 12:34:59 GMT 47.169006 8.016357 38,000 295 421 0
2021-10-17 12:34:56 GMT 47.166092 8.025650 38,000 295 421 0
2021-10-17 12:34:53 GMT 47.164078 8.032173 38,000 295 421 0
2021-10-17 12:34:50 GMT 47.162212 8.038119 38,000 295 421 0
2021-10-17 12:34:47 GMT 47.158813 8.048996 38,000 295 421 0
2021-10-17 12:34:44 GMT 47.156998 8.054669 38,000 295 421 0
2021-10-17 12:34:41 GMT 47.155060 8.060944 38,000 295 421 0
2021-10-17 12:34:38 GMT 47.150200 8.076501 38,000 295 421 0
2021-10-17 12:34:35 GMT 47.150200 8.076501 38,000 295 421 0
2021-10-17 12:34:33 GMT 47.148285 8.082710 38,000 295 421 0
2021-10-17 12:34:30 GMT 47.145824 8.090515 38,000 295 421 0
2021-10-17 12:34:27 GMT 47.143497 8.098051 38,000 295 421 0
2021-10-17 12:34:24 GMT 47.140228 8.108391 38,000 295 421 0
2021-10-17 12:34:21 GMT 47.138191 8.114882 38,000 295 421 0
2021-10-17 12:34:17 GMT 47.134827 8.125557 38,000 295 421 0
2021-10-17 12:34:15 GMT 47.134094 8.127840 38,000 295 421 0
2021-10-17 12:34:13 GMT 47.131905 8.134883 38,000 295 422 0
2021-10-17 12:34:10 GMT 47.128555 8.145517 38,000 295 421 0
2021-10-17 12:34:06 GMT 47.125343 8.155588 38,000 295 421 0
2021-10-17 12:34:03 GMT 47.123714 8.160799 38,000 295 421 0
2021-10-17 12:34:00 GMT 47.120548 8.170941 38,000 295 422 0
2021-10-17 12:33:57 GMT 47.117935 8.179253 38,000 295 422 0
2021-10-17 12:33:54 GMT 47.116699 8.183098 38,000 295 422 0
2021-10-17 12:33:51 GMT 47.113861 8.192230 38,000 295 422 0
2021-10-17 12:33:48 GMT 47.110912 8.201576 38,000 295 422 0
2021-10-17 12:33:45 GMT 47.109467 8.206224 38,000 295 422 64
2021-10-17 12:33:42 GMT 47.106537 8.215576 38,000 295 422 64
2021-10-17 12:33:39 GMT 47.103653 8.224640 38,000 295 422 0
2021-10-17 12:33:35 GMT 47.100250 8.235591 38,000 295 422 0
2021-10-17 12:33:32 GMT 47.097549 8.244112 38,000 295 422 0
2021-10-17 12:33:29 GMT 47.095829 8.249606 38,000 295 422 0
2021-10-17 12:33:26 GMT 47.093399 8.257393 38,000 295 422 0
2021-10-17 12:33:23 GMT 47.090710 8.266015 38,000 295 422 0
2021-10-17 12:33:20 GMT 47.088474 8.272987 38,000 295 422 0
2021-10-17 12:33:17 GMT 47.086285 8.280029 38,000 295 422 0
2021-10-17 12:33:14 GMT 47.080811 8.297424 38,000 295 423 64
2021-10-17 12:33:11 GMT 47.080811 8.297424 38,000 295 423 0
2021-10-17 12:33:08 GMT 47.078430 8.304977 38,000 295 423 0
2021-10-17 12:33:05 GMT 47.076557 8.310946 38,000 295 423 0
2021-10-17 12:33:03 GMT 47.074322 8.317988 38,000 295 423 -64
2021-10-17 12:33:00 GMT 47.071701 8.326332 38,000 295 423 0
2021-10-17 12:32:57 GMT 47.070465 8.330246 38,000 295 425 0
2021-10-17 12:32:54 GMT 47.067200 8.340665 38,000 295 425 0
2021-10-17 12:32:52 GMT 47.065708 8.345313 38,000 295 425 0
2021-10-17 12:32:49 GMT 47.062870 8.354469 38,000 295 425 0
2021-10-17 12:32:46 GMT 47.060776 8.360948 38,000 295 425 0
2021-10-17 12:32:44 GMT 47.059067 8.366432 38,000 295 425 0
2021-10-17 12:32:40 GMT 47.053253 8.384697 38,000 296 425 0
2021-10-17 12:32:37 GMT 47.053253 8.384697 38,000 295 427 0
2021-10-17 12:32:33 GMT 47.047367 8.403273 38,000 296 428 0
2021-10-17 12:32:30 GMT 47.047367 8.403273 38,000 295 426 0
2021-10-17 12:32:27 GMT 47.041718 8.421021 38,000 295 427 0
2021-10-17 12:32:24 GMT 47.041718 8.421021 38,000 295 427 0
2021-10-17 12:32:21 GMT 47.039780 8.427077 38,000 295 427 0
2021-10-17 12:32:18 GMT 47.036774 8.436539 38,000 296 428 0
2021-10-17 12:32:15 GMT 47.033524 8.446770 38,000 296 428 0
2021-10-17 12:32:13 GMT 47.033524 8.446770 38,000 296 428 0
2021-10-17 12:32:11 GMT 47.031960 8.451726 38,000 296 428 0
2021-10-17 12:32:07 GMT 47.028259 8.463249 38,000 296 429 0
2021-10-17 12:32:04 GMT 47.026199 8.469841 38,000 296 429 0
2021-10-17 12:32:02 GMT 47.023590 8.477943 38,000 296 429 0
2021-10-17 12:31:59 GMT 47.021484 8.484535 38,000 296 429 0
2021-10-17 12:31:56 GMT 47.018459 8.493981 38,000 296 429 0
2021-10-17 12:31:53 GMT 47.016598 8.499756 38,000 296 429 0
2021-10-17 12:31:49 GMT 47.010731 8.518137 38,000 296 429 0
2021-10-17 12:31:46 GMT 47.010731 8.518137 38,000 296 429 0
2021-10-17 12:31:43 GMT 47.007385 8.528618 38,000 295 429 0
2021-10-17 12:31:40 GMT 47.002956 8.542574 38,000 296 429 0
2021-10-17 12:31:37 GMT 47.002956 8.542574 38,000 296 429 0
2021-10-17 12:31:34 GMT 47.000538 8.550180 38,000 296 429 0
2021-10-17 12:31:31 GMT 46.998093 8.557800 38,000 296 429 0
2021-10-17 12:31:28 GMT 46.992279 8.575928 38,000 296 430 0
2021-10-17 12:31:25 GMT 46.992279 8.575928 38,000 296 430 64
2021-10-17 12:31:22 GMT 46.991039 8.579900 38,000 296 430 64
2021-10-17 12:31:19 GMT 46.988159 8.588837 38,000 296 430 0
2021-10-17 12:31:16 GMT 46.984909 8.599068 38,000 296 430 0
2021-10-17 12:31:13 GMT 46.982529 8.606415 38,000 296 430 0
2021-10-17 12:31:09 GMT 46.979031 8.617507 38,000 296 430 0
2021-10-17 12:31:06 GMT 46.976749 8.624620 38,000 296 430 0
2021-10-17 12:31:02 GMT 46.973953 8.633282 38,000 296 430 0
2021-10-17 12:30:59 GMT 46.970509 8.644057 38,000 296 430 0
2021-10-17 12:30:56 GMT 46.968933 8.649055 38,000 296 430 0
2021-10-17 12:30:54 GMT 46.967148 8.654549 38,000 296 430 0
2021-10-17 12:30:51 GMT 46.964539 8.662720 38,000 296 430 0
2021-10-17 12:30:48 GMT 46.959663 8.678002 38,000 296 430 0
2021-10-17 12:30:45 GMT 46.959663 8.678002 38,000 296 430 0
2021-10-17 12:30:43 GMT 46.957893 8.683495 38,000 296 432 0
2021-10-17 12:30:40 GMT 46.955383 8.691422 38,000 296 430 0
2021-10-17 12:30:37 GMT 46.953369 8.697739 38,000 296 430 0
2021-10-17 12:30:34 GMT 46.950352 8.707228 38,000 296 430 0
2021-10-17 12:30:31 GMT 46.948257 8.713778 38,000 296 430 0
2021-10-17 12:30:28 GMT 46.942429 8.731934 38,000 296 430 0
2021-10-17 12:30:25 GMT 46.942429 8.731934 38,000 296 430 0
2021-10-17 12:30:22 GMT 46.939877 8.739835 38,000 296 430 0
2021-10-17 12:30:19 GMT 46.938110 8.745328 38,000 296 431 0
2021-10-17 12:30:16 GMT 46.935562 8.753220 38,000 296 431 0
2021-10-17 12:30:13 GMT 46.929962 8.770611 38,000 296 431 0
2021-10-17 12:30:11 GMT 46.929962 8.770611 38,000 296 433 0
2021-10-17 12:30:08 GMT 46.928707 8.774555 38,000 296 432 0
2021-10-17 12:30:05 GMT 46.926224 8.782196 38,000 296 432 0
2021-10-17 12:30:03 GMT 46.923679 8.790119 38,000 296 432 0
2021-10-17 12:30:00 GMT 46.921646 8.796410 38,000 296 433 0
2021-10-17 12:29:57 GMT 46.918232 8.806950 38,000 296 433 0
2021-10-17 12:29:54 GMT 46.915833 8.814331 38,000 296 433 0
2021-10-17 12:29:51 GMT 46.914139 8.819618 38,000 296 433 0
2021-10-17 12:29:48 GMT 46.911530 8.827858 38,000 296 433 0
2021-10-17 12:29:44 GMT 46.907524 8.840262 38,000 296 433 0
2021-10-17 12:29:41 GMT 46.905430 8.846882 38,000 296 434 0
2021-10-17 12:29:38 GMT 46.903008 8.854276 38,000 296 434 0
2021-10-17 12:29:35 GMT 46.900818 8.861160 38,000 296 434 0
2021-10-17 12:29:32 GMT 46.896561 8.874413 38,000 296 434 0
2021-10-17 12:29:28 GMT 46.894398 8.881038 38,000 296 434 0
2021-10-17 12:29:25 GMT 46.891068 8.891373 38,000 296 434 0
2021-10-17 12:29:22 GMT 46.886856 8.904350 38,000 296 434 0
2021-10-17 12:29:20 GMT 46.886856 8.904350 38,000 296 436 0
2021-10-17 12:29:17 GMT 46.883923 8.913363 38,000 296 434 0
2021-10-17 12:29:14 GMT 46.882153 8.918927 38,000 296 434 0
2021-10-17 12:29:11 GMT 46.879395 8.927353 38,000 296 436 0
2021-10-17 12:29:08 GMT 46.877590 8.932941 38,000 296 434 0
2021-10-17 12:29:05 GMT 46.873959 8.944068 38,000 296 434 0
2021-10-17 12:29:02 GMT 46.871017 8.953033 38,000 296 436 0
2021-10-17 12:28:59 GMT 46.868282 8.961534 38,000 296 436 0
2021-10-17 12:28:55 GMT 46.865753 8.969198 38,000 296 436 -64
2021-10-17 12:28:52 GMT 46.863098 8.977438 38,000 296 436 -64
2021-10-17 12:28:49 GMT 46.860508 8.985374 38,000 296 436 -64
2021-10-17 12:28:46 GMT 46.857925 8.993314 38,000 296 436 0
2021-10-17 12:28:43 GMT 46.855270 9.001554 38,000 296 435 0
2021-10-17 12:28:40 GMT 46.853531 9.006846 38,000 296 435 0
2021-10-17 12:28:37 GMT 46.850357 9.016685 38,000 296 436 64
2021-10-17 12:28:34 GMT 46.847706 9.024857 38,000 296 436 64
2021-10-17 12:28:32 GMT 46.846310 9.029114 38,000 296 435 0
2021-10-17 12:28:30 GMT 46.841839 9.042915 38,000 296 435 0
2021-10-17 12:28:27 GMT 46.841839 9.042915 38,000 296 435 0
2021-10-17 12:28:24 GMT 46.838882 9.051864 38,000 296 435 0
2021-10-17 12:28:21 GMT 46.836533 9.059052 38,000 296 435 -64
2021-10-17 12:28:18 GMT 46.834122 9.066400 38,000 296 435 -64
2021-10-17 12:28:15 GMT 46.831604 9.074104 38,000 296 434 0
2021-10-17 12:28:12 GMT 46.828903 9.082277 38,000 296 434 0
2021-10-17 12:28:09 GMT 46.825687 9.092079 38,000 296 434 0
2021-10-17 12:28:05 GMT 46.822941 9.100525 38,000 296 434 -64
2021-10-17 12:28:02 GMT 46.819633 9.110550 38,000 296 434 0
2021-10-17 12:27:59 GMT 46.817230 9.117915 38,000 296 434 0
2021-10-17 12:27:56 GMT 46.815071 9.124489 38,000 296 434 0
2021-10-17 12:27:52 GMT 46.811325 9.135869 38,000 296 433 -64
2021-10-17 12:27:48 GMT 46.807983 9.146185 38,000 296 434 0
2021-10-17 12:27:45 GMT 46.805832 9.152750 38,000 296 433 0
2021-10-17 12:27:42 GMT 46.802856 9.161995 38,000 296 433 0
2021-10-17 12:27:39 GMT 46.799755 9.171524 38,000 296 433 0
2021-10-17 12:27:36 GMT 46.797958 9.177067 38,000 296 433 0
2021-10-17 12:27:33 GMT 46.794937 9.186245 38,000 296 432 0
2021-10-17 12:27:29 GMT 46.791504 9.196829 38,000 296 432 0
2021-10-17 12:27:26 GMT 46.788677 9.205513 38,000 296 432 0
2021-10-17 12:27:22 GMT 46.785557 9.214920 38,000 296 432 0
2021-10-17 12:27:19 GMT 46.780064 9.231812 38,000 296 432 64
2021-10-17 12:27:16 GMT 46.780064 9.231812 38,000 296 432 0
2021-10-17 12:27:13 GMT 46.777924 9.238335 38,000 296 432 0
2021-10-17 12:27:10 GMT 46.776386 9.243073 38,000 296 432 64
2021-10-17 12:27:08 GMT 46.773651 9.251493 38,000 296 432 0
2021-10-17 12:27:05 GMT 46.771080 9.259346 38,000 296 432 0
2021-10-17 12:27:02 GMT 46.768707 9.266700 38,000 296 431 64
2021-10-17 12:26:59 GMT 46.766098 9.274590 38,000 296 431 64
2021-10-17 12:26:56 GMT 46.762794 9.284821 38,000 296 432 0
2021-10-17 12:26:53 GMT 46.760468 9.291893 38,000 296 431 0
2021-10-17 12:26:49 GMT 46.757999 9.299515 38,000 296 431 -64
2021-10-17 12:26:46 GMT 46.755157 9.308100 38,000 296 431 0
2021-10-17 12:26:43 GMT 46.752739 9.315445 38,000 296 431 0
2021-10-17 12:26:40 GMT 46.749664 9.324847 38,000 296 431 0
2021-10-17 12:26:37 GMT 46.747513 9.331412 38,000 296 431 0
2021-10-17 12:26:34 GMT 46.743988 9.342130 38,000 296 431 0
2021-10-17 12:26:29 GMT 46.737656 9.361450 38,000 296 431 0
2021-10-17 12:26:26 GMT 46.737656 9.361450 38,000 296 429 0
2021-10-17 12:26:23 GMT 46.734375 9.371338 38,000 296 430 -64
2021-10-17 12:26:20 GMT 46.733002 9.375491 38,000 296 430 -64
2021-10-17 12:26:17 GMT 46.730068 9.384384 38,000 296 430 0
2021-10-17 12:26:14 GMT 46.727276 9.392967 38,000 296 430 64
2021-10-17 12:26:11 GMT 46.722805 9.406563 38,000 296 430 64
2021-10-17 12:26:09 GMT 46.722805 9.406563 38,000 296 430 64
2021-10-17 12:26:04 GMT 46.718170 9.420642 38,000 296 430 0
2021-10-17 12:26:00 GMT 46.714661 9.431282 38,000 296 430 0
2021-10-17 12:25:57 GMT 46.712769 9.436988 38,000 296 429 0
2021-10-17 12:25:54 GMT 46.710022 9.445362 38,000 296 429 0
2021-10-17 12:25:51 GMT 46.707256 9.453667 38,000 296 429 0
2021-10-17 12:25:47 GMT 46.704044 9.463280 38,000 296 429 0
2021-10-17 12:25:43 GMT 46.700500 9.473966 38,000 296 429 0
2021-10-17 12:25:40 GMT 46.698257 9.480665 38,000 296 429 0
2021-10-17 12:25:37 GMT 46.695107 9.490334 38,000 296 429 0
2021-10-17 12:25:34 GMT 46.692352 9.498619 38,000 296 429 0
2021-10-17 12:25:31 GMT 46.690292 9.504849 38,000 296 429 0
2021-10-17 12:25:28 GMT 46.687843 9.512169 38,000 296 429 0
2021-10-17 12:25:24 GMT 46.683887 9.524117 38,000 296 429 0
2021-10-17 12:25:20 GMT 46.681049 9.532631 38,000 296 429 0
2021-10-17 12:25:16 GMT 46.677509 9.543274 38,000 296 429 0
2021-10-17 12:25:13 GMT 46.674911 9.551072 38,000 296 429 0
2021-10-17 12:25:10 GMT 46.672295 9.558861 38,000 296 429 0
2021-10-17 12:25:07 GMT 46.669968 9.565876 38,000 296 429 0
2021-10-17 12:25:04 GMT 46.664288 9.583031 38,000 296 429 0
2021-10-17 12:25:01 GMT 46.664288 9.583031 38,000 296 429 0
2021-10-17 12:24:58 GMT 46.661865 9.590261 38,000 296 429 0
2021-10-17 12:24:55 GMT 46.659805 9.596491 38,000 296 429 0
2021-10-17 12:24:51 GMT 46.655319 9.610023 38,000 296 429 0
2021-10-17 12:24:48 GMT 46.651253 9.622169 38,000 296 429 0
2021-10-17 12:24:45 GMT 46.651253 9.622169 38,000 296 429 0
2021-10-17 12:24:42 GMT 46.647903 9.632263 38,000 296 429 0
2021-10-17 12:24:39 GMT 46.642548 9.648399 38,000 296 428 0
2021-10-17 12:24:36 GMT 46.642548 9.648399 38,000 296 428 0
2021-10-17 12:24:33 GMT 46.639755 9.656647 38,000 296 428 0
2021-10-17 12:24:30 GMT 46.637196 9.664467 38,000 296 428 64
2021-10-17 12:24:26 GMT 46.634079 9.673797 38,000 296 428 0
2021-10-17 12:24:22 GMT 46.629654 9.686989 38,000 296 428 0
2021-10-17 12:24:19 GMT 46.628445 9.690628 38,000 296 428 0
2021-10-17 12:24:16 GMT 46.622952 9.707176 38,000 296 428 -64
2021-10-17 12:24:13 GMT 46.622952 9.707176 38,000 296 428 0
2021-10-17 12:24:09 GMT 46.619843 9.716536 38,000 296 428 0
2021-10-17 12:24:05 GMT 46.616638 9.726049 38,000 296 428 0
2021-10-17 12:24:02 GMT 46.613159 9.736432 38,000 296 428 0
2021-10-17 12:23:59 GMT 46.611099 9.742595 38,000 296 428 0
2021-10-17 12:23:55 GMT 46.606934 9.755055 38,000 296 428 0
2021-10-17 12:23:50 GMT 46.602375 9.768700 38,000 296 428 0
2021-10-17 12:23:47 GMT 46.600388 9.774684 38,000 296 428 0
2021-10-17 12:23:44 GMT 46.598236 9.781115 38,000 296 428 0
2021-10-17 12:23:40 GMT 46.591946 9.800011 38,000 296 428 0
2021-10-17 12:23:37 GMT 46.591946 9.800011 38,000 296 428 0
2021-10-17 12:23:34 GMT 46.589249 9.807976 38,000 296 428 0
2021-10-17 12:23:30 GMT 46.585602 9.818830 38,000 296 428 0
2021-10-17 12:23:27 GMT 46.582684 9.827614 38,000 296 428 0
2021-10-17 12:23:22 GMT 46.574818 9.851097 38,000 296 428 0
2021-10-17 12:23:18 GMT 46.574818 9.851097 38,000 296 428 -64
2021-10-17 12:23:14 GMT 46.572235 9.858823 38,000 296 428 0
2021-10-17 12:23:09 GMT 46.566948 9.874512 38,000 297 426 0
2021-10-17 12:23:05 GMT 46.560291 9.894356 38,000 296 428 0
2021-10-17 12:23:01 GMT 46.560291 9.894356 38,000 296 428 0
2021-10-17 12:22:58 GMT 46.558571 9.899506 38,000 296 427 0
2021-10-17 12:22:54 GMT 46.554703 9.911075 38,000 296 427 0
2021-10-17 12:22:51 GMT 46.552284 9.918320 38,000 296 427 0
2021-10-17 12:22:47 GMT 46.548660 9.929095 38,000 296 427 0
2021-10-17 12:22:44 GMT 46.546326 9.936062 38,000 296 427 64
2021-10-17 12:22:41 GMT 46.541252 9.951210 38,000 296 427 64
2021-10-17 12:22:38 GMT 46.541252 9.951210 38,000 296 427 0
2021-10-17 12:22:34 GMT 46.537666 9.961716 38,000 296 427 0
2021-10-17 12:22:30 GMT 46.534241 9.972035 38,000 296 427 64
2021-10-17 12:22:27 GMT 46.531616 9.979706 38,000 296 427 0
2021-10-17 12:22:24 GMT 46.528961 9.987671 38,000 296 427 0
2021-10-17 12:22:20 GMT 46.524960 9.999481 38,000 296 427 0
2021-10-17 12:22:17 GMT 46.518677 10.018258 38,000 296 427 0
2021-10-17 12:22:13 GMT 46.518677 10.018258 38,000 297 427 0
2021-10-17 12:22:10 GMT 46.517212 10.022613 38,000 297 427 0
2021-10-17 12:22:07 GMT 46.511551 10.039307 38,000 297 427 0
2021-10-17 12:22:04 GMT 46.511551 10.039307 38,000 297 426 0
2021-10-17 12:22:00 GMT 46.504986 10.058807 38,000 297 426 0
2021-10-17 12:21:57 GMT 46.504986 10.058807 38,000 297 426 0
2021-10-17 12:21:54 GMT 46.503067 10.064414 38,000 297 426 0
2021-10-17 12:21:51 GMT 46.500797 10.071098 38,000 297 426 0
2021-10-17 12:21:47 GMT 46.497162 10.081832 38,000 296 427 0
2021-10-17 12:21:44 GMT 46.494095 10.090808 38,000 297 426 0
2021-10-17 12:21:41 GMT 46.490570 10.101326 38,000 297 426 0
2021-10-17 12:21:37 GMT 46.488419 10.107757 38,000 296 427 0
2021-10-17 12:21:33 GMT 46.484596 10.119026 38,000 297 426 0
2021-10-17 12:21:30 GMT 46.482082 10.126442 38,000 297 426 0
2021-10-17 12:21:27 GMT 46.479675 10.133682 38,000 297 426 0
2021-10-17 12:21:24 GMT 46.474640 10.148487 38,000 297 426 0
2021-10-17 12:21:21 GMT 46.474640 10.148487 38,000 297 426 0
2021-10-17 12:21:18 GMT 46.469376 10.164139 38,000 297 426 0
2021-10-17 12:21:15 GMT 46.469376 10.164139 38,000 297 426 0
2021-10-17 12:21:11 GMT 46.465897 10.174412 38,000 297 426 0
2021-10-17 12:21:08 GMT 46.463322 10.182060 38,000 297 426 0
2021-10-17 12:21:05 GMT 46.460110 10.191536 38,000 297 426 -64
2021-10-17 12:21:02 GMT 46.458389 10.196652 38,000 297 426 -64
2021-10-17 12:20:59 GMT 46.455688 10.204624 38,000 298 426 -64
2021-10-17 12:20:55 GMT 46.451870 10.215843 38,000 302 423 0
2021-10-17 12:20:52 GMT 46.444931 10.233966 38,000 301 424 64
2021-10-17 12:20:49 GMT 46.444931 10.233966 38,000 301 424 64
2021-10-17 12:20:46 GMT 46.443398 10.237610 38,000 302 423 0
2021-10-17 12:20:42 GMT 46.439072 10.248033 38,000 302 423 0
2021-10-17 12:20:37 GMT 46.433807 10.260681 38,000 302 423 0
2021-10-17 12:20:34 GMT 46.428635 10.273021 38,000 302 423 0
2021-10-17 12:20:31 GMT 46.428635 10.273021 38,000 302 423 0
2021-10-17 12:20:26 GMT 46.423004 10.286620 38,000 302 423 0
2021-10-17 12:20:23 GMT 46.419331 10.295357 38,000 302 423 0
2021-10-17 12:20:17 GMT 46.414215 10.307721 38,000 302 423 0
2021-10-17 12:20:14 GMT 46.410049 10.317703 38,000 302 423 0
2021-10-17 12:20:10 GMT 46.407135 10.324745 38,000 302 423 0
2021-10-17 12:20:06 GMT 46.399826 10.342186 38,000 302 424 0
2021-10-17 12:20:03 GMT 46.396362 10.350394 38,000 302 423 0
2021-10-17 12:20:00 GMT 46.396362 10.350394 38,000 302 424 0
2021-10-17 12:19:55 GMT 46.392197 10.360375 38,000 302 424 0
2021-10-17 12:19:51 GMT 46.386837 10.373222 38,000 302 423 0
2021-10-17 12:19:46 GMT 46.381859 10.385101 38,000 302 423 0
2021-10-17 12:19:43 GMT 46.379837 10.389918 38,000 302 423 0
2021-10-17 12:19:40 GMT 46.376907 10.396952 38,000 302 423 0
2021-10-17 12:19:38 GMT 46.374985 10.401574 38,000 302 425 -64
2021-10-17 12:19:35 GMT 46.371941 10.408859 38,000 302 426 0
2021-10-17 12:19:32 GMT 46.368301 10.417585 38,000 302 424 0
2021-10-17 12:19:29 GMT 46.365376 10.424652 38,000 302 424 0
2021-10-17 12:19:26 GMT 46.362717 10.430916 38,000 302 424 0
2021-10-17 12:19:23 GMT 46.354389 10.450813 38,000 302 425 0
2021-10-17 12:19:19 GMT 46.354389 10.450813 38,000 302 425 0
2021-10-17 12:19:15 GMT 46.350906 10.459051 38,000 302 425 0
2021-10-17 12:19:11 GMT 46.346664 10.469215 38,000 302 425 0
2021-10-17 12:19:08 GMT 46.343994 10.475531 38,000 302 425 0
2021-10-17 12:19:05 GMT 46.336468 10.493454 38,000 302 425 0
2021-10-17 12:19:01 GMT 46.336468 10.493454 38,000 302 425 0
2021-10-17 12:18:58 GMT 46.333302 10.501007 38,000 302 425 0
2021-10-17 12:18:54 GMT 46.329720 10.509521 38,000 302 425 0
2021-10-17 12:18:50 GMT 46.324997 10.520615 38,000 302 425 0
2021-10-17 12:18:46 GMT 46.320511 10.531333 38,000 302 426 0
2021-10-17 12:18:43 GMT 46.318779 10.535408 38,000 302 425 0
2021-10-17 12:18:40 GMT 46.315613 10.542961 38,000 302 425 0
2021-10-17 12:18:36 GMT 46.310261 10.555595 38,000 302 426 0
2021-10-17 12:18:32 GMT 46.307514 10.562119 38,000 302 426 0
2021-10-17 12:18:29 GMT 46.300529 10.578598 38,000 302 426 0
2021-10-17 12:18:26 GMT 46.300529 10.578598 38,000 302 426 0
2021-10-17 12:18:22 GMT 46.296661 10.587806 38,000 302 426 0
2021-10-17 12:18:19 GMT 46.294384 10.593155 38,000 302 426 0
2021-10-17 12:18:16 GMT 46.290527 10.602410 38,000 302 426 0
2021-10-17 12:18:13 GMT 46.287823 10.608673 38,000 302 426 0
2021-10-17 12:18:10 GMT 46.284050 10.617668 38,000 302 426 0
2021-10-17 12:18:06 GMT 46.280319 10.626392 38,000 302 426 0
2021-10-17 12:18:03 GMT 46.277859 10.632225 38,000 302 426 0
2021-10-17 12:18:00 GMT 46.273670 10.642181 38,000 302 426 64
2021-10-17 12:17:56 GMT 46.269341 10.652344 38,000 302 427 0
2021-10-17 12:17:53 GMT 46.267776 10.656001 38,000 302 427 0
2021-10-17 12:17:49 GMT 46.258621 10.677572 38,000 302 427 0
2021-10-17 12:17:46 GMT 46.258621 10.677572 38,000 302 427 0
2021-10-17 12:17:42 GMT 46.255562 10.684891 38,000 302 427 0
2021-10-17 12:17:39 GMT 46.251324 10.694847 38,000 302 427 0
2021-10-17 12:17:35 GMT 46.247925 10.702812 38,000 302 427 0
2021-10-17 12:17:32 GMT 46.245255 10.709124 38,000 302 427 0
2021-10-17 12:17:29 GMT 46.241226 10.718637 38,000 302 427 0
2021-10-17 12:17:25 GMT 46.238022 10.726140 38,000 302 427 0
2021-10-17 12:17:22 GMT 46.235046 10.733174 38,000 302 427 0
2021-10-17 12:17:18 GMT 46.230843 10.743118 38,000 302 427 0
2021-10-17 12:17:14 GMT 46.226486 10.753338 38,000 302 427 0
2021-10-17 12:17:11 GMT 46.223511 10.760372 38,000 302 427 0
2021-10-17 12:17:07 GMT 46.219341 10.770103 38,000 302 428 0
2021-10-17 12:17:03 GMT 46.215637 10.778861 38,000 302 431 0
2021-10-17 12:16:58 GMT 46.206959 10.799355 38,000 302 429 0
2021-10-17 12:16:55 GMT 46.203793 10.806908 38,000 302 429 0
2021-10-17 12:16:52 GMT 46.203793 10.806908 38,000 302 430 0
2021-10-17 12:16:47 GMT 46.199432 10.817112 38,000 302 430 0
2021-10-17 12:16:44 GMT 46.195881 10.825447 38,000 302 430 0
2021-10-17 12:16:41 GMT 46.192482 10.833481 38,000 302 430 0
2021-10-17 12:16:38 GMT 46.186111 10.848396 38,000 302 431 0
2021-10-17 12:16:35 GMT 46.186111 10.848396 38,000 302 431 0
2021-10-17 12:16:32 GMT 46.183731 10.854023 38,000 302 431 0
2021-10-17 12:16:29 GMT 46.179356 10.864243 38,000 302 432 0
2021-10-17 12:16:26 GMT 46.177586 10.868431 38,000 302 433 0
2021-10-17 12:16:23 GMT 46.173386 10.878207 38,000 302 432 0
2021-10-17 12:16:20 GMT 46.170231 10.885529 38,000 302 432 0
2021-10-17 12:16:16 GMT 46.162502 10.903656 38,000 302 432 0
2021-10-17 12:16:13 GMT 46.162502 10.903656 38,000 302 432 0
2021-10-17 12:16:10 GMT 46.160316 10.908806 38,000 302 432 0
2021-10-17 12:16:05 GMT 46.155029 10.921013 38,000 302 433 0
2021-10-17 12:16:02 GMT 46.148987 10.935215 38,000 302 433 0
2021-10-17 12:15:59 GMT 46.148987 10.935215 38,000 302 433 0
2021-10-17 12:15:56 GMT 46.145737 10.942852 38,000 302 433 0
2021-10-17 12:15:53 GMT 46.142899 10.949417 38,000 302 433 0
2021-10-17 12:15:49 GMT 46.137875 10.961197 38,000 302 433 0
2021-10-17 12:15:45 GMT 46.134804 10.968338 38,000 302 433 0
2021-10-17 12:15:42 GMT 46.130630 10.978155 38,000 302 433 0
2021-10-17 12:15:39 GMT 46.127975 10.984251 38,000 302 433 0
2021-10-17 12:15:35 GMT 46.123901 10.993831 38,000 302 434 0
2021-10-17 12:15:32 GMT 46.119720 11.003632 38,000 302 434 0
2021-10-17 12:15:29 GMT 46.117535 11.008781 38,000 302 434 0
2021-10-17 12:15:25 GMT 46.113625 11.017914 38,000 302 433 0
2021-10-17 12:15:22 GMT 46.107338 11.032608 38,000 302 434 0
2021-10-17 12:15:16 GMT 46.100418 11.048830 38,000 302 434 0
2021-10-17 12:15:13 GMT 46.100418 11.048830 38,000 302 434 0
2021-10-17 12:15:10 GMT 46.097168 11.056399 38,000 302 434 0
2021-10-17 12:15:06 GMT 46.094009 11.063768 38,000 302 434 0
2021-10-17 12:15:03 GMT 46.090439 11.072090 38,000 302 433 0
2021-10-17 12:15:00 GMT 46.086807 11.080673 38,000 302 433 0
2021-10-17 12:14:57 GMT 46.084389 11.086372 38,000 302 434 0
2021-10-17 12:14:54 GMT 46.080292 11.095917 38,000 302 433 0
2021-10-17 12:14:50 GMT 46.076195 11.105461 38,000 302 433 0
2021-10-17 12:14:47 GMT 46.072632 11.113810 38,000 302 433 0
2021-10-17 12:14:42 GMT 46.068096 11.124344 38,000 302 434 0
2021-10-17 12:14:39 GMT 46.064941 11.131696 38,000 302 434 0
2021-10-17 12:14:34 GMT 46.058506 11.146591 38,000 302 433 0
2021-10-17 12:14:31 GMT 46.056412 11.151466 38,000 302 433 0
2021-10-17 12:14:28 GMT 46.053635 11.157889 38,000 302 434 -64
2021-10-17 12:14:25 GMT 46.050797 11.164454 38,000 302 434 -64
2021-10-17 12:14:22 GMT 46.047005 11.173233 38,000 302 434 0
2021-10-17 12:14:19 GMT 46.043327 11.181816 38,000 302 434 0
2021-10-17 12:14:16 GMT 46.039948 11.189642 38,000 302 434 0
2021-10-17 12:14:11 GMT 46.036011 11.198686 38,000 302 434 0
2021-10-17 12:14:08 GMT 46.031891 11.208265 38,000 302 434 0
2021-10-17 12:14:05 GMT 46.029282 11.214361 38,000 302 434 0
2021-10-17 12:14:02 GMT 46.025757 11.222400 38,000 302 434 0
2021-10-17 12:13:59 GMT 46.023033 11.228783 38,000 302 434 0
2021-10-17 12:13:55 GMT 46.018387 11.239550 38,000 302 434 0
2021-10-17 12:13:52 GMT 46.014374 11.248833 38,000 302 434 0
2021-10-17 12:13:48 GMT 46.011116 11.256386 38,000 302 433 0
2021-10-17 12:13:45 GMT 46.007809 11.264008 38,000 302 433 0
2021-10-17 12:13:42 GMT 46.004196 11.272308 38,000 302 433 0
2021-10-17 12:13:39 GMT 46.000408 11.281105 38,000 302 433 0
2021-10-17 12:13:33 GMT 45.994171 11.295486 38,000 302 434 64
2021-10-17 12:13:30 GMT 45.992123 11.300125 38,000 302 434 64
2021-10-17 12:13:27 GMT 45.988953 11.307477 38,000 302 434 0
2021-10-17 12:13:23 GMT 45.984512 11.317727 38,000 303 433 0
2021-10-17 12:13:20 GMT 45.980804 11.326234 38,000 303 433 0
2021-10-17 12:13:17 GMT 45.978699 11.331125 38,000 303 433 0
2021-10-17 12:13:13 GMT 45.974442 11.340905 38,000 303 433 0
2021-10-17 12:13:10 GMT 45.970734 11.349413 38,000 303 433 0
2021-10-17 12:13:06 GMT 45.967121 11.357735 38,000 303 433 0
2021-10-17 12:13:02 GMT 45.961578 11.370448 38,000 303 433 0
2021-10-17 12:12:59 GMT 45.959442 11.375313 38,000 303 433 0
2021-10-17 12:12:56 GMT 45.956268 11.382640 38,000 303 433 0
2021-10-17 12:12:53 GMT 45.952744 11.390679 38,000 303 433 0
2021-10-17 12:12:49 GMT 45.948315 11.400925 38,000 303 433 0
2021-10-17 12:12:45 GMT 45.943634 11.411646 38,000 303 433 0
2021-10-17 12:12:40 GMT 45.939377 11.421427 38,000 303 433 0
2021-10-17 12:12:37 GMT 45.932556 11.436969 38,000 303 433 0
2021-10-17 12:12:34 GMT 45.932556 11.436969 38,000 303 433 0
2021-10-17 12:12:31 GMT 45.928848 11.445543 38,000 303 433 0
2021-10-17 12:12:28 GMT 45.925552 11.453113 38,000 302 434 0
2021-10-17 12:12:25 GMT 45.920105 11.465538 38,000 302 434 64
2021-10-17 12:12:23 GMT 45.920105 11.465538 38,000 302 434 64
2021-10-17 12:12:20 GMT 45.918091 11.470195 38,000 303 435 64
2021-10-17 12:12:17 GMT 45.914566 11.478234 38,000 303 435 0
2021-10-17 12:12:13 GMT 45.910004 11.488747 38,000 303 435 -64
2021-10-17 12:12:10 GMT 45.906372 11.496991 38,000 303 435 0
2021-10-17 12:12:07 GMT 45.903904 11.502617 38,000 303 435 0
2021-10-17 12:12:04 GMT 45.900272 11.510925 38,000 302 435 0
2021-10-17 12:12:01 GMT 45.896759 11.518964 38,000 302 435 0
2021-10-17 12:11:58 GMT 45.894455 11.524384 38,000 302 435 0
2021-10-17 12:11:55 GMT 45.886917 11.541741 38,000 302 435 0
2021-10-17 12:11:52 GMT 45.882248 11.552459 38,000 302 435 0
2021-10-17 12:11:47 GMT 45.882248 11.552459 38,000 302 435 0
2021-10-17 12:11:44 GMT 45.879684 11.558354 38,000 302 435 0
2021-10-17 12:11:41 GMT 45.876160 11.566393 38,000 302 435 0
2021-10-17 12:11:37 GMT 45.872040 11.575972 38,000 302 435 0
2021-10-17 12:11:34 GMT 45.868103 11.585016 38,000 302 435 0
2021-10-17 12:11:30 GMT 45.864258 11.593859 38,000 302 436 0
2021-10-17 12:11:26 GMT 45.860001 11.603639 38,000 303 436 0
2021-10-17 12:11:23 GMT 45.857346 11.609735 38,000 303 435 0
2021-10-17 12:11:20 GMT 45.853775 11.617774 38,000 303 435 0
2021-10-17 12:11:17 GMT 45.850250 11.625813 38,000 303 435 0
2021-10-17 12:11:14 GMT 45.847485 11.632187 38,000 303 436 0
2021-10-17 12:11:11 GMT 45.841106 11.646606 38,000 303 436 0
2021-10-17 12:11:08 GMT 45.841106 11.646606 38,000 303 436 0
2021-10-17 12:11:05 GMT 45.837803 11.654160 38,000 303 436 0
2021-10-17 12:11:02 GMT 45.835190 11.659978 38,000 303 436 0
2021-10-17 12:10:59 GMT 45.831116 11.669222 38,000 303 436 0
2021-10-17 12:10:56 GMT 45.827866 11.676591 38,000 303 436 0
2021-10-17 12:10:53 GMT 45.824860 11.683411 38,000 303 436 0
2021-10-17 12:10:50 GMT 45.820541 11.693138 38,000 303 436 0
2021-10-17 12:10:45 GMT 45.816757 11.701675 38,000 303 437 -64
2021-10-17 12:10:42 GMT 45.812988 11.710190 38,000 303 437 -64
2021-10-17 12:10:39 GMT 45.809509 11.718058 38,000 303 436 0
2021-10-17 12:10:35 GMT 45.802746 11.733467 38,000 303 437 0
2021-10-17 12:10:32 GMT 45.802746 11.733467 38,000 303 437 0
2021-10-17 12:10:29 GMT 45.797951 11.744453 38,000 303 437 0
2021-10-17 12:10:26 GMT 45.795998 11.748917 38,000 303 437 0
2021-10-17 12:10:23 GMT 45.791611 11.758922 38,000 303 437 0
2021-10-17 12:10:19 GMT 45.787857 11.767496 38,000 303 438 0
2021-10-17 12:10:15 GMT 45.783337 11.777756 38,000 303 438 0
2021-10-17 12:10:12 GMT 45.780533 11.784177 38,000 303 438 0
2021-10-17 12:10:08 GMT 45.776863 11.792450 38,000 303 437 0
2021-10-17 12:10:05 GMT 45.772568 11.802264 38,000 303 438 0
2021-10-17 12:10:02 GMT 45.766113 11.816935 38,000 303 438 0
2021-10-17 12:09:59 GMT 45.766113 11.816935 38,000 303 438 0
2021-10-17 12:09:55 GMT 45.762863 11.824237 38,000 303 438 0
2021-10-17 12:09:52 GMT 45.759064 11.832811 38,000 303 438 0
2021-10-17 12:09:48 GMT 45.754936 11.842094 38,000 303 438 0
2021-10-17 12:09:45 GMT 45.750870 11.851434 38,000 303 438 0
2021-10-17 12:09:42 GMT 45.748234 11.857269 38,000 303 438 0
2021-10-17 12:09:39 GMT 45.745010 11.864631 38,000 303 438 0
2021-10-17 12:09:36 GMT 45.739155 11.877869 38,000 303 438 0
2021-10-17 12:09:33 GMT 45.739155 11.877869 38,000 303 438 0
2021-10-17 12:09:30 GMT 45.734734 11.887894 38,000 303 439 0
2021-10-17 12:09:27 GMT 45.732685 11.892563 38,000 303 438 0
2021-10-17 12:09:24 GMT 45.728218 11.902588 38,000 303 439 0
2021-10-17 12:09:21 GMT 45.726059 11.907505 38,000 303 439 0
2021-10-17 12:09:17 GMT 45.721329 11.918312 38,000 303 440 0
2021-10-17 12:09:14 GMT 45.716766 11.928612 38,000 303 439 0
2021-10-17 12:09:09 GMT 45.708340 11.947701 38,000 303 440 0
2021-10-17 12:09:04 GMT 45.705917 11.953058 38,000 303 440 0
2021-10-17 12:09:01 GMT 45.702896 11.959958 38,000 303 440 0
2021-10-17 12:08:58 GMT 45.697819 11.971458 38,000 303 440 0
2021-10-17 12:08:54 GMT 45.695957 11.975647 38,000 303 440 0
2021-10-17 12:08:51 GMT 45.692791 11.982719 38,000 303 439 0
2021-10-17 12:08:48 GMT 45.689575 11.990036 38,000 303 439 0
2021-10-17 12:08:44 GMT 45.684551 12.001328 38,000 303 439 0
2021-10-17 12:08:41 GMT 45.681931 12.007186 38,000 303 439 0
2021-10-17 12:08:37 GMT 45.677799 12.016502 38,000 303 439 0
2021-10-17 12:08:33 GMT 45.672447 12.028450 38,000 303 439 0
2021-10-17 12:08:30 GMT 45.670818 12.032158 38,000 303 439 0
2021-10-17 12:08:27 GMT 45.667233 12.040192 38,000 303 439 0
2021-10-17 12:08:24 GMT 45.660252 12.055847 38,000 303 439 0
2021-10-17 12:08:21 GMT 45.660252 12.055847 38,000 303 439 0
2021-10-17 12:08:17 GMT 45.655827 12.065872 38,000 303 439 0
2021-10-17 12:08:14 GMT 45.652847 12.072533 38,000 303 439 0
2021-10-17 12:08:11 GMT 45.649265 12.080566 38,000 303 439 0
2021-10-17 12:08:04 GMT 45.640457 12.100369 38,000 303 439 0
2021-10-17 12:08:01 GMT 45.638168 12.105527 38,000 303 439 0
2021-10-17 12:07:56 GMT 45.633484 12.115997 38,000 303 439 0
2021-10-17 12:07:53 GMT 45.629990 12.123825 38,000 303 439 0
2021-10-17 12:07:50 GMT 45.626953 12.130648 38,000 303 439 0
2021-10-17 12:07:46 GMT 45.621613 12.142639 38,000 303 439 0
2021-10-17 12:07:43 GMT 45.619583 12.147261 38,000 303 439 0
2021-10-17 12:07:40 GMT 45.615887 12.155548 38,000 303 439 0
2021-10-17 12:07:35 GMT 45.605850 12.178010 38,000 303 438 0
2021-10-17 12:07:31 GMT 45.605850 12.178010 38,000 303 438 -64
2021-10-17 12:07:28 GMT 45.603561 12.183101 38,000 303 438 0
2021-10-17 12:07:24 GMT 45.597778 12.196060 38,000 303 438 -64
2021-10-17 12:07:20 GMT 45.593857 12.204806 38,000 303 438 0
2021-10-17 12:07:17 GMT 45.590515 12.212376 38,000 303 438 0
2021-10-17 12:07:12 GMT 45.584835 12.224968 38,000 303 438 0
2021-10-17 12:07:09 GMT 45.579529 12.236894 38,000 303 438 0
2021-10-17 12:07:03 GMT 45.574921 12.247147 38,000 303 438 0
2021-10-17 12:07:00 GMT 45.572891 12.251699 38,000 303 438 0
2021-10-17 12:06:57 GMT 45.569275 12.259737 38,000 303 438 0
2021-10-17 12:06:54 GMT 45.564678 12.269943 38,000 303 438 0
2021-10-17 12:06:51 GMT 45.561447 12.277222 38,000 303 438 0
2021-10-17 12:06:47 GMT 45.554577 12.292465 38,000 303 438 0
2021-10-17 12:06:44 GMT 45.554577 12.292465 38,000 303 438 0
2021-10-17 12:06:41 GMT 45.551285 12.299730 38,000 303 437 0
2021-10-17 12:06:38 GMT 45.546844 12.309712 38,000 303 437 0
2021-10-17 12:06:35 GMT 45.545731 12.312123 38,000 303 437 0
2021-10-17 12:06:32 GMT 45.539017 12.327118 38,000 303 437 0
2021-10-17 12:06:26 GMT 45.534187 12.337780 38,000 303 437 0
2021-10-17 12:06:23 GMT 45.531143 12.344578 38,000 303 437 0
2021-10-17 12:06:20 GMT 45.528320 12.350843 38,000 303 437 0
2021-10-17 12:06:16 GMT 45.524269 12.359820 38,000 303 437 0
2021-10-17 12:06:13 GMT 45.521439 12.366093 38,000 303 436 0
2021-10-17 12:06:10 GMT 45.517754 12.374290 38,000 303 437 0
2021-10-17 12:06:07 GMT 45.514023 12.382507 38,000 303 437 0
2021-10-17 12:06:04 GMT 45.505554 12.401341 38,000 303 436 0
2021-10-17 12:06:00 GMT 45.505554 12.401341 38,000 303 437 0
2021-10-17 12:05:56 GMT 45.501087 12.411268 38,000 303 437 0
2021-10-17 12:05:52 GMT 45.498901 12.416092 38,000 303 437 0
2021-10-17 12:05:50 GMT 45.495621 12.423314 38,000 303 436 0
2021-10-17 12:05:47 GMT 45.491730 12.432035 38,000 303 436 0
2021-10-17 12:05:42 GMT 45.486465 12.443586 38,000 303 436 0
2021-10-17 12:05:39 GMT 45.483765 12.449668 38,000 303 436 64
2021-10-17 12:05:36 GMT 45.480930 12.455883 38,000 303 436 64
2021-10-17 12:05:33 GMT 45.472878 12.473770 38,000 303 436 0
2021-10-17 12:05:29 GMT 45.472878 12.473770 38,000 303 436 0
2021-10-17 12:05:26 GMT 45.469574 12.480992 38,000 303 435 -64
2021-10-17 12:05:23 GMT 45.466312 12.488240 38,000 303 435 -64
2021-10-17 12:05:19 GMT 45.461975 12.497864 38,000 303 435 -64
2021-10-17 12:05:13 GMT 45.455326 12.512557 38,000 303 435 0
2021-10-17 12:05:09 GMT 45.451557 12.520998 38,000 303 435 -64
2021-10-17 12:05:06 GMT 45.447189 12.530627 38,000 303 435 0
2021-10-17 12:05:03 GMT 45.444572 12.536405 38,000 303 435 0
2021-10-17 12:05:00 GMT 45.441330 12.543640 38,000 303 435 0
2021-10-17 12:04:57 GMT 45.438057 12.550875 38,000 303 434 0
2021-10-17 12:04:53 GMT 45.433170 12.561660 38,000 303 434 0
2021-10-17 12:04:50 GMT 45.429474 12.569863 38,000 303 435 64
2021-10-17 12:04:47 GMT 45.427303 12.574656 38,000 303 435 64
2021-10-17 12:04:44 GMT 45.424137 12.581623 38,000 303 435 64
2021-10-17 12:04:41 GMT 45.417480 12.596283 38,000 303 435 0
2021-10-17 12:04:38 GMT 45.413151 12.605874 38,000 303 435 0
2021-10-17 12:04:35 GMT 45.413151 12.605874 38,000 303 435 0
2021-10-17 12:04:32 GMT 45.410980 12.610670 38,000 303 435 0
2021-10-17 12:04:28 GMT 45.407471 12.618334 38,000 303 432 0
2021-10-17 12:04:25 GMT 45.400406 12.633950 38,000 303 435 0
2021-10-17 12:04:22 GMT 45.400406 12.633950 38,000 303 435 0
2021-10-17 12:04:19 GMT 45.397659 12.639901 38,000 303 435 0
2021-10-17 12:04:16 GMT 45.393860 12.648337 38,000 303 434 0
2021-10-17 12:04:12 GMT 45.389191 12.658604 38,000 303 434 0
2021-10-17 12:04:09 GMT 45.385918 12.665763 38,000 303 434 0
2021-10-17 12:04:06 GMT 45.382099 12.674136 38,000 303 434 0
2021-10-17 12:04:03 GMT 45.379353 12.680165 38,000 303 434 64
2021-10-17 12:04:00 GMT 45.375351 12.689008 38,000 303 434 64
2021-10-17 12:03:57 GMT 45.372940 12.694244 38,000 303 434 64
2021-10-17 12:03:53 GMT 45.366737 12.707899 38,000 303 434 0
2021-10-17 12:03:48 GMT 45.363247 12.715536 38,000 303 434 0
2021-10-17 12:03:45 GMT 45.359337 12.724111 38,000 303 434 0
2021-10-17 12:03:41 GMT 45.355728 12.732043 38,000 303 434 0
2021-10-17 12:03:38 GMT 45.347351 12.750419 38,000 303 434 0
2021-10-17 12:03:35 GMT 45.347351 12.750419 38,000 303 434 0
2021-10-17 12:03:31 GMT 45.344765 12.756132 38,000 303 434 0
2021-10-17 12:03:29 GMT 45.342579 12.760955 38,000 303 433 0
2021-10-17 12:03:26 GMT 45.339413 12.767855 38,000 303 433 0
2021-10-17 12:03:23 GMT 45.335361 12.776698 38,000 303 433 0
2021-10-17 12:03:20 GMT 45.329819 12.788871 38,000 303 433 0
2021-10-17 12:03:18 GMT 45.329819 12.788871 38,000 303 433 0
2021-10-17 12:03:15 GMT 45.327667 12.793644 38,000 303 433 0
2021-10-17 12:03:12 GMT 45.323723 12.802221 38,000 303 433 0
2021-10-17 12:03:10 GMT 45.321991 12.806004 38,000 303 433 0
2021-10-17 12:03:07 GMT 45.317734 12.815290 38,000 303 433 0
2021-10-17 12:03:04 GMT 45.314346 12.822680 38,000 303 433 0
2021-10-17 12:03:01 GMT 45.308456 12.835515 38,000 304 432 0
2021-10-17 12:02:58 GMT 45.308456 12.835515 38,000 304 432 0
2021-10-17 12:02:55 GMT 45.305191 12.842691 38,000 304 432 0
2021-10-17 12:02:51 GMT 45.301472 12.850788 38,000 304 432 0
2021-10-17 12:02:48 GMT 45.297890 12.858626 38,000 304 432 0
2021-10-17 12:02:45 GMT 45.294846 12.865252 38,000 304 432 0
2021-10-17 12:02:41 GMT 45.290485 12.874771 38,000 304 432 0
2021-10-17 12:02:38 GMT 45.287201 12.881927 38,000 304 432 0
2021-10-17 12:02:34 GMT 45.282665 12.891920 38,000 304 432 64
2021-10-17 12:02:31 GMT 45.277313 12.903509 38,000 304 432 0
2021-10-17 12:02:26 GMT 45.272751 12.913491 38,000 304 432 0
2021-10-17 12:02:22 GMT 45.266647 12.926854 38,000 304 432 0
2021-10-17 12:02:19 GMT 45.266647 12.926854 38,000 304 432 0
2021-10-17 12:02:16 GMT 45.262527 12.935813 38,000 303 432 0
2021-10-17 12:02:13 GMT 45.260101 12.941044 38,000 303 432 0
2021-10-17 12:02:10 GMT 45.254780 12.952680 38,000 303 432 0
2021-10-17 12:02:05 GMT 45.251289 12.960317 38,000 303 432 0
2021-10-17 12:02:02 GMT 45.246964 12.969818 38,000 303 432 0
2021-10-17 12:01:59 GMT 45.244492 12.975246 38,000 303 432 0
2021-10-17 12:01:56 GMT 45.241234 12.982356 38,000 303 432 0
2021-10-17 12:01:53 GMT 45.234249 12.997563 38,000 303 432 0
2021-10-17 12:01:50 GMT 45.234249 12.997563 38,000 303 432 0
2021-10-17 12:01:47 GMT 45.230713 13.005401 38,000 303 432 0
2021-10-17 12:01:43 GMT 45.224533 13.018930 38,000 303 432 0
2021-10-17 12:01:40 GMT 45.224533 13.018930 38,000 303 432 0
2021-10-17 12:01:38 GMT 45.221916 13.024627 38,000 303 431 0
2021-10-17 12:01:35 GMT 45.218098 13.032867 38,000 303 431 0
2021-10-17 12:01:32 GMT 45.213860 13.042111 38,000 303 431 0
2021-10-17 12:01:29 GMT 45.209625 13.051356 38,000 303 431 0
2021-10-17 12:01:27 GMT 45.206360 13.058428 38,000 303 431 0
2021-10-17 12:01:24 GMT 45.206360 13.058428 38,000 303 431 0
2021-10-17 12:01:20 GMT 45.202011 13.067910 38,000 303 431 0
2021-10-17 12:01:17 GMT 45.194866 13.083511 38,000 303 431 0
2021-10-17 12:01:13 GMT 45.194866 13.083511 38,000 304 431 -64
2021-10-17 12:01:10 GMT 45.191391 13.091060 38,000 305 430 -64
2021-10-17 12:01:07 GMT 45.188770 13.096708 38,000 305 430 -64
2021-10-17 12:01:04 GMT 45.184753 13.105055 38,000 307 430 0
2021-10-17 12:01:01 GMT 45.180679 13.113033 38,000 308 429 0
2021-10-17 12:00:58 GMT 45.177784 13.118413 38,000 308 429 0
2021-10-17 12:00:54 GMT 45.171570 13.129708 38,000 308 429 0
2021-10-17 12:00:51 GMT 45.169266 13.133887 38,000 308 429 0
2021-10-17 12:00:49 GMT 45.166122 13.139648 38,000 308 428 0
2021-10-17 12:00:46 GMT 45.162872 13.145599 38,000 308 428 0
2021-10-17 12:00:43 GMT 45.158978 13.152711 38,000 308 428 0
2021-10-17 12:00:40 GMT 45.154228 13.161286 38,000 308 428 0
2021-10-17 12:00:37 GMT 45.153015 13.163497 38,000 308 428 0
2021-10-17 12:00:35 GMT 45.150375 13.168357 38,000 308 428 0
2021-10-17 12:00:32 GMT 45.145844 13.176531 38,000 308 428 0
2021-10-17 12:00:29 GMT 45.141983 13.183594 38,000 308 427 0
2021-10-17 12:00:26 GMT 45.134125 13.197981 38,000 308 426 0
2021-10-17 12:00:23 GMT 45.134125 13.197981 38,000 308 428 0
2021-10-17 12:00:20 GMT 45.131699 13.202362 38,000 308 428 0
2021-10-17 12:00:17 GMT 45.128632 13.207921 38,000 308 428 64
2021-10-17 12:00:14 GMT 45.123318 13.217625 38,000 308 428 0
2021-10-17 12:00:11 GMT 45.120392 13.222896 38,000 308 428 0
2021-10-17 12:00:08 GMT 45.115540 13.231724 38,000 308 428 0
2021-10-17 12:00:05 GMT 45.113113 13.236106 38,000 308 428 0
2021-10-17 12:00:01 GMT 45.108124 13.245130 38,000 308 428 0
2021-10-17 11:59:57 GMT 45.103043 13.254351 38,000 308 427 -64
2021-10-17 11:59:54 GMT 45.100616 13.258798 38,000 308 427 -64
2021-10-17 11:59:51 GMT 45.096737 13.265857 38,000 308 427 0
2021-10-17 11:59:47 GMT 45.090775 13.276585 38,000 308 427 0
2021-10-17 11:59:44 GMT 45.088211 13.281228 38,000 308 427 0
2021-10-17 11:59:41 GMT 45.084583 13.287830 38,000 308 427 0
2021-10-17 11:59:37 GMT 45.078232 13.299277 38,000 308 427 0
2021-10-17 11:59:33 GMT 45.075211 13.304770 38,000 309 426 0
2021-10-17 11:59:30 GMT 45.071457 13.311571 38,000 308 427 0
2021-10-17 11:59:26 GMT 45.066849 13.319918 38,000 308 427 0
2021-10-17 11:59:24 GMT 45.064056 13.324942 38,000 309 428 0
2021-10-17 11:59:21 GMT 45.058685 13.334590 38,000 309 428 64
2021-10-17 11:59:16 GMT 45.054512 13.342092 38,000 309 428 0
2021-10-17 11:59:14 GMT 45.051361 13.347800 38,000 309 428 0
2021-10-17 11:59:11 GMT 45.042458 13.363796 38,000 309 428 -64
2021-10-17 11:59:07 GMT 45.042458 13.363796 38,000 309 428 0
2021-10-17 11:59:04 GMT 45.038685 13.370629 38,000 309 428 0
2021-10-17 11:59:01 GMT 45.036255 13.375004 38,000 309 428 0
2021-10-17 11:58:58 GMT 45.031841 13.382888 38,000 309 428 0
2021-10-17 11:58:55 GMT 45.027092 13.391463 38,000 309 428 0
2021-10-17 11:58:52 GMT 45.023602 13.397827 38,000 309 428 0
2021-10-17 11:58:47 GMT 45.018108 13.407742 38,000 309 428 0
2021-10-17 11:58:44 GMT 45.013592 13.415847 38,000 308 428 0
2021-10-17 11:58:40 GMT 45.005306 13.430786 38,000 308 428 0
2021-10-17 11:58:36 GMT 45.005306 13.430786 38,000 308 428 0
2021-10-17 11:58:33 GMT 45.001419 13.437849 38,000 308 428 0
2021-10-17 11:58:30 GMT 44.997025 13.445762 38,000 308 428 -64
2021-10-17 11:58:27 GMT 44.993809 13.451419 38,000 308 428 0
2021-10-17 11:58:24 GMT 44.990524 13.457402 38,000 308 428 0
2021-10-17 11:58:22 GMT 44.988464 13.461129 38,000 308 428 0
2021-10-17 11:58:19 GMT 44.984436 13.468388 38,000 309 429 0
2021-10-17 11:58:16 GMT 44.981007 13.474530 38,000 309 428 0
2021-10-17 11:58:12 GMT 44.975979 13.483507 38,000 309 428 0
2021-10-17 11:58:09 GMT 44.972675 13.489469 38,000 309 428 0
2021-10-17 11:58:06 GMT 44.968506 13.496900 38,000 309 429 0
2021-10-17 11:58:03 GMT 44.964851 13.503470 38,000 309 429 0
2021-10-17 11:58:01 GMT 44.958801 13.514255 38,000 309 429 -64
2021-10-17 11:57:58 GMT 44.958801 13.514255 38,000 309 429 -64
2021-10-17 11:57:53 GMT 44.951679 13.526917 38,000 309 429 0
2021-10-17 11:57:50 GMT 44.948868 13.532017 38,000 309 429 0
2021-10-17 11:57:46 GMT 44.944092 13.540515 38,000 309 429 0
2021-10-17 11:57:43 GMT 44.938553 13.550430 38,000 309 429 0
2021-10-17 11:57:40 GMT 44.932892 13.560529 38,000 309 429 0
2021-10-17 11:57:37 GMT 44.932892 13.560529 38,000 309 429 0
2021-10-17 11:57:34 GMT 44.928963 13.567512 38,000 309 429 64
2021-10-17 11:57:32 GMT 44.926353 13.572135 38,000 309 429 0
2021-10-17 11:57:29 GMT 44.923645 13.576944 38,000 309 429 0
2021-10-17 11:57:25 GMT 44.917648 13.587668 38,000 309 430 0
2021-10-17 11:57:22 GMT 44.913803 13.594469 38,000 309 430 0
2021-10-17 11:57:18 GMT 44.905197 13.609903 38,000 309 430 0
2021-10-17 11:57:15 GMT 44.905197 13.609903 38,000 309 430 0
2021-10-17 11:57:13 GMT 44.902660 13.614472 38,000 309 430 0
2021-10-17 11:57:10 GMT 44.898098 13.622645 38,000 309 430 0
2021-10-17 11:57:05 GMT 44.893814 13.630349 38,000 309 430 64
2021-10-17 11:57:02 GMT 44.888901 13.639134 38,000 308 429 64
2021-10-17 11:56:59 GMT 44.886108 13.644235 38,000 309 430 64
2021-10-17 11:56:53 GMT 44.878872 13.657212 38,000 309 430 64
2021-10-17 11:56:51 GMT 44.875847 13.662772 38,000 309 430 64
2021-10-17 11:56:48 GMT 44.866257 13.679921 38,000 309 430 0
2021-10-17 11:56:43 GMT 44.866257 13.679921 38,000 309 430 0
2021-10-17 11:56:41 GMT 44.862671 13.686285 38,000 309 430 0
2021-10-17 11:56:38 GMT 44.860203 13.690640 38,000 309 430 0
2021-10-17 11:56:34 GMT 44.853928 13.701848 38,000 309 430 0
2021-10-17 11:56:30 GMT 44.849854 13.709106 38,000 309 430 0
2021-10-17 11:56:27 GMT 44.846924 13.714338 38,000 309 430 0
2021-10-17 11:56:23 GMT 44.841862 13.723331 38,000 309 430 0
2021-10-17 11:56:20 GMT 44.836716 13.732583 38,000 309 430 0
2021-10-17 11:56:16 GMT 44.833248 13.738738 38,000 309 430 0
2021-10-17 11:56:13 GMT 44.830032 13.744420 38,000 309 430 0
2021-10-17 11:56:10 GMT 44.825500 13.752529 38,000 309 430 0
2021-10-17 11:56:07 GMT 44.821564 13.759572 38,000 309 430 0
2021-10-17 11:56:03 GMT 44.817238 13.767209 38,000 309 430 0
2021-10-17 11:56:01 GMT 44.815514 13.770290 38,000 309 430 0
2021-10-17 11:55:58 GMT 44.810715 13.778817 38,000 309 430 0
2021-10-17 11:55:55 GMT 44.807510 13.784507 38,000 309 430 0
2021-10-17 11:55:52 GMT 44.799820 13.798109 38,000 309 430 0
2021-10-17 11:55:49 GMT 44.799820 13.798109 38,000 309 431 -64
2021-10-17 11:55:46 GMT 44.794647 13.807329 38,000 309 431 -64
2021-10-17 11:55:43 GMT 44.792282 13.811489 38,000 309 431 -64
2021-10-17 11:55:40 GMT 44.788559 13.818054 38,000 309 431 0
2021-10-17 11:55:37 GMT 44.783859 13.826428 38,000 309 431 0
2021-10-17 11:55:32 GMT 44.775478 13.841300 38,000 309 430 0
2021-10-17 11:55:29 GMT 44.775478 13.841300 38,000 309 430 0
2021-10-17 11:55:26 GMT 44.771988 13.847416 38,000 309 430 0
2021-10-17 11:55:23 GMT 44.767284 13.855702 38,000 309 430 0
2021-10-17 11:55:21 GMT 44.765190 13.859454 38,000 309 430 0
2021-10-17 11:55:18 GMT 44.760727 13.867296 38,000 309 430 0
2021-10-17 11:55:13 GMT 44.754810 13.877809 38,000 309 430 0
2021-10-17 11:55:10 GMT 44.752304 13.882141 38,000 309 430 0
2021-10-17 11:55:07 GMT 44.741547 13.901171 38,000 309 429 0
2021-10-17 11:55:01 GMT 44.741547 13.901171 38,000 309 429 0
2021-10-17 11:54:59 GMT 44.738098 13.907285 38,000 309 429 0
2021-10-17 11:54:56 GMT 44.734512 13.913582 38,000 309 429 0
2021-10-17 11:54:52 GMT 44.729206 13.922960 38,000 309 429 0
2021-10-17 11:54:50 GMT 44.727482 13.925975 38,000 309 429 0
2021-10-17 11:54:47 GMT 44.721725 13.936223 38,000 309 429 0
2021-10-17 11:54:42 GMT 44.716644 13.945182 38,000 309 429 0
2021-10-17 11:54:36 GMT 44.709503 13.957803 38,000 309 428 0
2021-10-17 11:54:31 GMT 44.703735 13.968004 38,000 309 429 0
2021-10-17 11:54:28 GMT 44.699551 13.975413 38,000 309 429 0
2021-10-17 11:54:25 GMT 44.696457 13.980822 38,000 309 429 0
2021-10-17 11:54:22 GMT 44.692009 13.988677 38,000 309 429 0
2021-10-17 11:54:19 GMT 44.688080 13.995667 38,000 309 429 0
2021-10-17 11:54:15 GMT 44.682281 14.005894 38,000 309 429 0
2021-10-17 11:54:11 GMT 44.679581 14.010650 38,000 309 429 0
2021-10-17 11:54:07 GMT 44.670689 14.026392 38,000 309 429 0
2021-10-17 11:54:01 GMT 44.666870 14.033091 38,000 309 429 0
2021-10-17 11:53:56 GMT 44.660706 14.043993 38,000 309 429 0
2021-10-17 11:53:52 GMT 44.655807 14.052756 38,000 309 429 0
2021-10-17 11:53:50 GMT 44.653336 14.057138 38,000 309 429 0
2021-10-17 11:53:47 GMT 44.649765 14.063416 38,000 309 429 0
2021-10-17 11:53:44 GMT 44.645325 14.071328 38,000 309 429 0
2021-10-17 11:53:41 GMT 44.641968 14.077171 38,000 309 430 0
2021-10-17 11:53:39 GMT 44.639511 14.081595 38,000 309 430 0
2021-10-17 11:53:36 GMT 44.635822 14.088090 38,000 309 431 0
2021-10-17 11:53:33 GMT 44.631592 14.095524 38,000 309 431 0
2021-10-17 11:53:30 GMT 44.627628 14.102560 38,000 309 431 0
2021-10-17 11:53:26 GMT 44.622437 14.111742 38,000 309 431 0
2021-10-17 11:53:22 GMT 44.617851 14.119776 38,000 309 431 0
2021-10-17 11:53:19 GMT 44.614639 14.125470 38,000 309 432 0
2021-10-17 11:53:16 GMT 44.611679 14.130707 38,000 309 431 0
2021-10-17 11:53:13 GMT 44.607101 14.138816 38,000 309 432 0
2021-10-17 11:53:09 GMT 44.603027 14.146075 38,000 309 432 0
2021-10-17 11:53:06 GMT 44.598679 14.153726 38,000 309 432 0
2021-10-17 11:53:03 GMT 44.594604 14.160919 38,000 309 432 0
2021-10-17 11:53:00 GMT 44.591133 14.167071 38,000 309 432 0
2021-10-17 11:52:58 GMT 44.589386 14.170140 38,000 309 431 0
2021-10-17 11:52:53 GMT 44.582054 14.183015 38,000 309 432 -64
2021-10-17 11:52:50 GMT 44.579029 14.188307 38,000 309 432 -64
2021-10-17 11:52:47 GMT 44.575562 14.194401 38,000 309 432 0
2021-10-17 11:52:44 GMT 44.571766 14.200901 38,000 310 432 0
2021-10-17 11:52:40 GMT 44.565857 14.211142 38,000 310 432 64
2021-10-17 11:52:37 GMT 44.561417 14.218728 38,000 310 432 0
2021-10-17 11:52:34 GMT 44.558762 14.223240 38,000 310 432 -64
2021-10-17 11:52:31 GMT 44.554962 14.229774 38,000 310 432 -64
2021-10-17 11:52:25 GMT 44.547977 14.241631 38,000 310 433 0
2021-10-17 11:52:22 GMT 44.541779 14.252276 38,000 310 433 0
2021-10-17 11:52:19 GMT 44.539879 14.255565 38,000 310 433 0
2021-10-17 11:52:14 GMT 44.529358 14.273518 38,000 310 433 0
2021-10-17 11:52:11 GMT 44.529358 14.273518 38,000 310 433 0
2021-10-17 11:52:08 GMT 44.521591 14.286739 38,000 310 434 0
2021-10-17 11:52:05 GMT 44.518139 14.292543 38,000 310 434 0
2021-10-17 11:52:02 GMT 44.518139 14.292543 38,000 310 434 0
2021-10-17 11:51:59 GMT 44.513577 14.300314 38,000 310 434 0
2021-10-17 11:51:56 GMT 44.505524 14.313980 38,000 310 434 0
2021-10-17 11:51:52 GMT 44.505524 14.313980 38,000 310 434 0
2021-10-17 11:51:49 GMT 44.501038 14.321529 38,000 310 434 -64
2021-10-17 11:51:45 GMT 44.495041 14.331665 38,000 310 434 0
2021-10-17 11:51:42 GMT 44.492626 14.335818 38,000 310 434 0
2021-10-17 11:51:37 GMT 44.487396 14.344679 38,000 310 435 0
2021-10-17 11:51:33 GMT 44.480118 14.357038 38,000 310 434 64
2021-10-17 11:51:27 GMT 44.474258 14.366978 38,000 310 434 64
2021-10-17 11:51:25 GMT 44.470936 14.372596 38,000 310 435 64
2021-10-17 11:51:21 GMT 44.466465 14.380166 38,000 310 435 0
2021-10-17 11:51:18 GMT 44.461994 14.387736 38,000 310 435 0
2021-10-17 11:51:11 GMT 44.452652 14.403599 38,000 310 435 0
2021-10-17 11:51:06 GMT 44.446518 14.413997 38,000 310 435 0
2021-10-17 11:51:02 GMT 44.441528 14.422433 38,000 310 435 0
2021-10-17 11:50:58 GMT 44.435646 14.432418 38,000 310 435 0
2021-10-17 11:50:55 GMT 44.431274 14.439828 38,000 310 435 0
2021-10-17 11:50:50 GMT 44.426010 14.448656 38,000 310 436 0
2021-10-17 11:50:47 GMT 44.422565 14.454524 38,000 310 436 0
2021-10-17 11:50:41 GMT 44.413971 14.469060 38,000 310 436 0
2021-10-17 11:50:38 GMT 44.410091 14.475559 38,000 310 436 0
2021-10-17 11:50:35 GMT 44.407532 14.479913 38,000 310 436 0
2021-10-17 11:50:33 GMT 44.404831 14.484469 38,000 310 436 0
2021-10-17 11:50:30 GMT 44.395378 14.500479 38,000 310 436 0
2021-10-17 11:50:26 GMT 44.395378 14.500479 38,000 310 436 0
2021-10-17 11:50:21 GMT 44.389187 14.510930 38,000 310 436 -64
2021-10-17 11:50:17 GMT 44.383163 14.521114 38,000 310 436 0
2021-10-17 11:50:12 GMT 44.378017 14.529754 38,000 310 436 0
2021-10-17 11:50:09 GMT 44.374191 14.536285 38,000 310 437 0
2021-10-17 11:50:06 GMT 44.370209 14.543021 38,000 310 436 64
2021-10-17 11:50:00 GMT 44.361694 14.557277 38,000 310 437 0
2021-10-17 11:49:56 GMT 44.356705 14.565778 38,000 310 437 0
2021-10-17 11:49:53 GMT 44.353065 14.571823 38,000 310 437 -64
2021-10-17 11:49:48 GMT 44.345490 14.584612 38,000 310 437 0
2021-10-17 11:49:45 GMT 44.343426 14.588102 38,000 310 437 -64
2021-10-17 11:49:40 GMT 44.336472 14.599784 38,000 310 437 0
2021-10-17 11:49:36 GMT 44.330158 14.610410 38,000 310 437 0
2021-10-17 11:49:32 GMT 44.325363 14.618381 38,000 310 437 0
2021-10-17 11:49:29 GMT 44.322525 14.623205 38,000 310 437 0
2021-10-17 11:49:26 GMT 44.317406 14.631846 38,000 310 437 0
2021-10-17 11:49:20 GMT 44.310795 14.642900 38,000 310 437 -64
2021-10-17 11:49:16 GMT 44.304245 14.653931 38,000 310 436 -64
2021-10-17 11:49:13 GMT 44.300133 14.660920 38,000 310 436 0
2021-10-17 11:49:09 GMT 44.296642 14.666748 38,000 310 436 0
2021-10-17 11:49:04 GMT 44.289333 14.679141 38,000 310 437 0
2021-10-17 11:48:59 GMT 44.283279 14.689309 38,000 310 437 0
2021-10-17 11:48:53 GMT 44.275555 14.702320 38,000 310 437 0
2021-10-17 11:48:49 GMT 44.270432 14.711028 38,000 310 437 0
2021-10-17 11:48:44 GMT 44.264236 14.721418 38,000 310 437 0
2021-10-17 11:48:42 GMT 44.261124 14.726637 38,000 310 437 0
2021-10-17 11:48:38 GMT 44.256886 14.733738 38,000 310 437 0
2021-10-17 11:48:35 GMT 44.252518 14.741102 38,000 310 437 0
2021-10-17 11:48:33 GMT 44.250183 14.745059 38,000 310 437 0
2021-10-17 11:48:28 GMT 44.243500 14.756274 38,000 310 437 -64
2021-10-17 11:48:25 GMT 44.239243 14.763481 38,000 310 436 -64
2021-10-17 11:48:22 GMT 44.235626 14.769549 38,000 310 437 0
2021-10-17 11:48:18 GMT 44.230492 14.778219 38,000 310 437 0
2021-10-17 11:48:15 GMT 44.226486 14.784918 38,000 310 437 0
2021-10-17 11:48:11 GMT 44.221115 14.794006 38,000 310 437 0
2021-10-17 11:48:05 GMT 44.213104 14.807412 38,000 310 437 0
2021-10-17 11:48:02 GMT 44.208069 14.815848 38,000 310 437 0
2021-10-17 11:47:59 GMT 44.206650 14.818268 38,000 310 437 0
2021-10-17 11:47:56 GMT 44.202896 14.824480 38,000 310 437 0
2021-10-17 11:47:53 GMT 44.198914 14.831216 38,000 310 437 0
2021-10-17 11:47:50 GMT 44.195297 14.837232 38,000 310 436 0
2021-10-17 11:47:47 GMT 44.191154 14.844164 38,000 310 436 0
2021-10-17 11:47:41 GMT 44.182388 14.858881 38,000 310 436 0
2021-10-17 11:47:37 GMT 44.177353 14.867249 38,000 310 437 64
2021-10-17 11:47:34 GMT 44.174023 14.872872 38,000 310 437 64
2021-10-17 11:47:30 GMT 44.168716 14.881766 38,000 310 437 64
2021-10-17 11:47:27 GMT 44.165226 14.887521 38,000 310 437 0
2021-10-17 11:47:24 GMT 44.160553 14.895289 38,000 310 437 0
2021-10-17 11:47:20 GMT 44.155914 14.903085 38,000 310 437 0
2021-10-17 11:47:16 GMT 44.150234 14.912567 38,000 310 437 0
2021-10-17 11:47:13 GMT 44.147232 14.917517 38,000 310 437 0
2021-10-17 11:47:10 GMT 44.138596 14.931989 38,000 310 437 0
2021-10-17 11:47:07 GMT 44.133820 14.939937 38,000 310 437 0
2021-10-17 11:47:03 GMT 44.133820 14.939937 38,000 310 437 0
2021-10-17 11:46:59 GMT 44.126820 14.951542 38,000 310 437 0
2021-10-17 11:46:56 GMT 44.124756 14.955011 38,000 310 437 0
2021-10-17 11:46:51 GMT 44.115044 14.971161 38,000 310 437 0
2021-10-17 11:46:49 GMT 44.111160 14.977623 38,000 310 437 0
2021-10-17 11:46:45 GMT 44.111160 14.977623 38,000 310 437 0
2021-10-17 11:46:41 GMT 44.103031 14.991172 38,000 310 437 0
2021-10-17 11:46:39 GMT 44.103031 14.991172 38,000 310 437 0
2021-10-17 11:46:36 GMT 44.098663 14.998510 38,000 310 437 0
2021-10-17 11:46:33 GMT 44.095303 15.004120 38,000 310 437 0
2021-10-17 11:46:30 GMT 44.089462 15.013775 38,000 310 436 0
2021-10-17 11:46:26 GMT 44.085995 15.019618 38,000 310 436 0
2021-10-17 11:46:23 GMT 44.081680 15.026678 38,000 310 436 0
2021-10-17 11:46:18 GMT 44.075985 15.036163 38,000 310 436 0
2021-10-17 11:46:13 GMT 44.068256 15.049046 38,000 310 437 0
2021-10-17 11:46:07 GMT 44.061493 15.060212 38,000 311 436 0
2021-10-17 11:46:04 GMT 44.056713 15.068141 38,000 311 436 0
2021-10-17 11:46:00 GMT 44.052662 15.074812 38,000 311 437 -64
2021-10-17 11:45:55 GMT 44.045242 15.086975 38,000 311 436 0
2021-10-17 11:45:52 GMT 44.041580 15.092915 38,000 311 437 64
2021-10-17 11:45:44 GMT 44.027618 15.115749 38,000 311 437 64
2021-10-17 11:45:41 GMT 44.027618 15.115749 38,000 311 436 0
2021-10-17 11:45:36 GMT 44.019104 15.129579 38,000 311 436 0
2021-10-17 11:45:32 GMT 44.015141 15.135956 38,000 311 436 0
2021-10-17 11:45:29 GMT 44.012302 15.140664 38,000 305 436 0
2021-10-17 11:45:24 GMT 44.005051 15.152318 38,000 311 436 0
2021-10-17 11:45:21 GMT 44.000748 15.159344 38,000 311 436 0
2021-10-17 11:45:14 GMT 43.991592 15.174227 38,000 311 437 0
2021-10-17 11:45:11 GMT 43.988419 15.179313 38,000 311 437 64
2021-10-17 11:45:06 GMT 43.979576 15.193830 38,000 311 437 64
2021-10-17 11:45:03 GMT 43.977859 15.196583 38,000 311 437 0
2021-10-17 11:45:00 GMT 43.971989 15.206190 38,000 311 437 0
2021-10-17 11:44:57 GMT 43.968636 15.211748 38,000 308 436 0
2021-10-17 11:44:53 GMT 43.964214 15.219073 38,000 309 435 0
2021-10-17 11:44:49 GMT 43.960209 15.226070 38,000 308 436 0
2021-10-17 11:44:46 GMT 43.956345 15.233247 38,000 306 436 64
2021-10-17 11:44:42 GMT 43.951904 15.241933 38,000 305 437 0
2021-10-17 11:44:39 GMT 43.948471 15.248832 38,000 305 437 0
2021-10-17 11:44:35 GMT 43.941833 15.262245 38,000 305 437 0
2021-10-17 11:44:30 GMT 43.936981 15.271912 38,000 305 437 0
2021-10-17 11:44:27 GMT 43.934464 15.276936 38,000 305 437 0
2021-10-17 11:44:24 GMT 43.931168 15.283643 38,000 305 437 0
2021-10-17 11:44:21 GMT 43.926910 15.292138 38,000 305 437 0
2021-10-17 11:44:14 GMT 43.918854 15.308299 38,000 305 437 0
2021-10-17 11:44:11 GMT 43.915558 15.315005 38,000 305 437 64
2021-10-17 11:44:08 GMT 43.913361 15.319349 38,000 305 437 64
2021-10-17 11:44:05 GMT 43.909046 15.328151 38,000 305 437 64
2021-10-17 11:44:00 GMT 43.903519 15.339214 38,000 305 437 0
2021-10-17 11:43:52 GMT 43.894272 15.357865 38,000 305 437 0
2021-10-17 11:43:49 GMT 43.890747 15.365019 38,000 305 437 0
2021-10-17 11:43:39 GMT 43.878845 15.389035 38,000 305 437 0
2021-10-17 11:43:30 GMT 43.869385 15.408194 38,000 305 437 0
2021-10-17 11:43:21 GMT 43.858444 15.430363 38,000 305 438 -64
2021-10-17 11:43:16 GMT 43.854263 15.438921 38,000 305 438 -64
2021-10-17 11:43:12 GMT 43.847553 15.452532 38,000 305 437 64
2021-10-17 11:43:08 GMT 43.843872 15.459872 38,000 305 437 64
2021-10-17 11:43:04 GMT 43.839661 15.468431 38,000 305 437 0
2021-10-17 11:42:58 GMT 43.833447 15.481175 38,000 305 437 0
2021-10-17 11:42:51 GMT 43.824276 15.499878 38,000 305 437 0
2021-10-17 11:42:48 GMT 43.821304 15.505925 38,000 305 437 0
2021-10-17 11:42:39 GMT 43.811325 15.526237 38,000 305 436 0
2021-10-17 11:42:36 GMT 43.807331 15.534276 38,000 305 436 0
2021-10-17 11:42:29 GMT 43.799370 15.550428 38,000 305 436 0
2021-10-17 11:42:26 GMT 43.796860 15.555491 38,000 305 436 0
2021-10-17 11:42:20 GMT 43.786285 15.576889 38,000 305 437 0
2021-10-17 11:42:17 GMT 43.786285 15.576889 38,000 305 437 0
2021-10-17 11:42:09 GMT 43.777496 15.594646 38,000 305 437 0
2021-10-17 11:42:06 GMT 43.773628 15.602482 38,000 305 437 0
2021-10-17 11:41:59 GMT 43.765274 15.619237 38,000 305 436 0
2021-10-17 11:41:56 GMT 43.762665 15.624539 38,000 305 436 0
2021-10-17 11:41:53 GMT 43.758865 15.632076 38,000 305 436 0
2021-10-17 11:41:50 GMT 43.754539 15.640804 38,000 305 437 0
2021-10-17 11:41:47 GMT 43.751701 15.646558 38,000 305 436 0
2021-10-17 11:41:44 GMT 43.748703 15.652516 38,000 310 437 0
2021-10-17 11:41:37 GMT 43.740578 15.668858 38,000 305 436 0
2021-10-17 11:41:27 GMT 43.728474 15.693185 38,000 305 436 0
2021-10-17 11:41:20 GMT 43.720596 15.708980 38,000 305 437 0
2021-10-17 11:41:17 GMT 43.717533 15.715158 38,000 305 437 0
2021-10-17 11:41:13 GMT 43.713272 15.723671 38,000 305 437 0
2021-10-17 11:41:07 GMT 43.705490 15.739256 38,000 305 437 0
2021-10-17 11:40:56 GMT 43.693451 15.763337 38,000 306 437 0
2021-10-17 11:40:49 GMT 43.684807 15.780160 38,000 310 436 0
2021-10-17 11:40:46 GMT 43.681919 15.785457 38,000 309 437 64
2021-10-17 11:40:40 GMT 43.672806 15.801023 38,000 310 436 0
2021-10-17 11:40:36 GMT 43.668980 15.807495 38,000 310 436 0
2021-10-17 11:40:26 GMT 43.656418 15.828488 38,000 310 436 0
2021-10-17 11:40:20 GMT 43.649101 15.840781 38,000 310 436 0
2021-10-17 11:40:16 GMT 43.643509 15.850206 38,000 310 437 0
2021-10-17 11:40:07 GMT 43.628014 15.876225 38,000 310 437 0
2021-10-17 11:40:04 GMT 43.628014 15.876225 38,000 310 437 0
2021-10-17 11:39:58 GMT 43.620209 15.889296 38,000 310 437 0
2021-10-17 11:39:55 GMT 43.615860 15.896642 38,000 310 437 0
2021-10-17 11:39:49 GMT 43.607574 15.910566 38,000 310 437 0
2021-10-17 11:39:44 GMT 43.602448 15.919189 38,000 310 436 0
2021-10-17 11:39:37 GMT 43.592697 15.935477 38,000 310 436 0
2021-10-17 11:39:28 GMT 43.581985 15.953234 38,000 310 436 0
2021-10-17 11:39:26 GMT 43.578781 15.958600 38,000 310 436 64
2021-10-17 11:39:24 GMT 43.576199 15.962873 38,000 310 436 64
2021-10-17 11:39:17 GMT 43.567215 15.977914 38,000 310 437 0
2021-10-17 11:39:14 GMT 43.563354 15.984341 38,000 310 437 0
2021-10-17 11:39:07 GMT 43.553482 16.000868 38,000 310 437 0
2021-10-17 11:39:04 GMT 43.551155 16.004726 38,000 310 437 0
2021-10-17 11:38:56 GMT 43.539982 16.023430 38,000 310 438 0
2021-10-17 11:38:52 GMT 43.536209 16.029640 38,000 310 439 0
2021-10-17 11:38:46 GMT 43.527225 16.044746 38,000 310 439 0
2021-10-17 11:38:43 GMT 43.523502 16.050961 38,000 310 439 -64
2021-10-17 11:38:34 GMT 43.512005 16.070122 38,000 310 439 64
2021-10-17 11:38:27 GMT 43.503571 16.084112 38,000 310 439 0
2021-10-17 11:38:23 GMT 43.497253 16.094715 38,000 310 439 0
2021-10-17 11:38:14 GMT 43.485992 16.113430 38,000 310 440 0
2021-10-17 11:38:11 GMT 43.483421 16.117727 38,000 310 440 0
2021-10-17 11:38:06 GMT 43.472435 16.136040 38,000 310 439 0
2021-10-17 11:38:03 GMT 43.472435 16.136040 38,000 310 439 0
2021-10-17 11:37:54 GMT 43.458481 16.159292 38,000 310 439 0
2021-10-17 11:37:52 GMT 43.458481 16.159292 38,000 310 439 0
2021-10-17 11:37:48 GMT 43.452370 16.169455 38,000 310 440 0
2021-10-17 11:37:42 GMT 43.444641 16.182339 38,000 310 440 0
2021-10-17 11:37:35 GMT 43.431427 16.204323 38,000 310 439 0
2021-10-17 11:37:32 GMT 43.431427 16.204323 38,000 310 439 0
2021-10-17 11:37:24 GMT 43.421738 16.220398 38,000 310 438 0
2021-10-17 11:37:21 GMT 43.417328 16.227701 38,000 310 438 0
2021-10-17 11:37:16 GMT 43.409546 16.240602 38,000 310 438 0
2021-10-17 11:37:12 GMT 43.406193 16.246164 38,000 310 438 0
2021-10-17 11:37:05 GMT 43.397278 16.260979 38,000 310 438 -64
2021-10-17 11:37:01 GMT 43.391922 16.269730 38,000 310 438 -64
2021-10-17 11:36:58 GMT 43.388828 16.274872 38,000 310 438 -64
2021-10-17 11:36:54 GMT 43.382126 16.285990 38,000 310 438 -64
2021-10-17 11:36:47 GMT 43.373558 16.300114 38,000 310 438 0
2021-10-17 11:36:44 GMT 43.369041 16.307570 38,000 310 438 0
2021-10-17 11:36:41 GMT 43.365646 16.313101 38,000 310 438 0
2021-10-17 11:36:36 GMT 43.359314 16.323591 38,000 310 438 0
2021-10-17 11:36:32 GMT 43.354008 16.332354 38,000 310 437 0
2021-10-17 11:36:23 GMT 43.342758 16.350849 38,000 310 436 0
2021-10-17 11:36:20 GMT 43.334244 16.364902 38,000 310 436 0
2021-10-17 11:36:16 GMT 43.334244 16.364902 38,000 310 436 0
2021-10-17 11:36:13 GMT 43.329426 16.372768 38,000 310 436 64
2021-10-17 11:36:10 GMT 43.326462 16.377613 38,000 310 436 64
2021-10-17 11:36:01 GMT 43.314808 16.396702 38,000 310 436 64
2021-10-17 11:35:53 GMT 43.300705 16.419851 38,000 310 436 0
2021-10-17 11:35:50 GMT 43.300705 16.419851 38,000 310 435 -64
2021-10-17 11:35:41 GMT 43.288559 16.439762 38,000 310 435 0
2021-10-17 11:35:32 GMT 43.276730 16.459221 38,000 310 435 -64
2021-10-17 11:35:29 GMT 43.273518 16.464518 38,000 310 435 -64
2021-10-17 11:35:23 GMT 43.265900 16.477064 38,000 310 435 0
2021-10-17 11:35:20 GMT 43.261555 16.484266 38,000 310 435 0
2021-10-17 11:35:10 GMT 43.248093 16.506512 38,000 310 434 0
2021-10-17 11:35:00 GMT 43.235905 16.526575 38,000 310 434 0
2021-10-17 11:34:52 GMT 43.225159 16.544388 38,000 310 433 0
2021-10-17 11:34:49 GMT 43.221333 16.550707 38,000 310 433 0
2021-10-17 11:34:43 GMT 43.212627 16.565029 38,000 310 433 0
2021-10-17 11:34:40 GMT 43.209881 16.569410 38,000 310 433 0
2021-10-17 11:34:29 GMT 43.195129 16.593571 38,000 310 433 0
2021-10-17 11:34:19 GMT 43.183182 16.613052 38,000 311 432 0
2021-10-17 11:34:11 GMT 43.172405 16.630619 38,000 311 432 0
2021-10-17 11:34:08 GMT 43.169952 16.634579 38,000 311 432 0
2021-10-17 11:34:00 GMT 43.158783 16.652782 38,000 311 431 0
2021-10-17 11:33:56 GMT 43.153645 16.661095 38,000 311 431 0
2021-10-17 11:33:52 GMT 43.147221 16.671492 38,000 311 431 0
2021-10-17 11:33:41 GMT 43.132416 16.695450 38,000 311 431 0
2021-10-17 11:33:30 GMT 43.119846 16.715830 38,000 311 430 0
2021-10-17 11:33:27 GMT 43.115845 16.722239 38,000 311 430 0
2021-10-17 11:33:18 GMT 43.104813 16.740099 38,000 311 429 0
2021-10-17 11:33:05 GMT 43.088242 16.766861 38,000 311 430 -64
2021-10-17 11:33:01 GMT 43.081909 16.777300 38,000 310 430 0
2021-10-17 11:32:49 GMT 43.067104 16.801432 38,000 310 429 64
2021-10-17 11:32:44 GMT 43.061508 16.810616 38,000 310 429 64
2021-10-17 11:32:40 GMT 43.054413 16.822241 38,000 310 430 0
2021-10-17 11:32:35 GMT 43.049553 16.830139 38,000 310 430 0
2021-10-17 11:32:30 GMT 43.043015 16.840700 38,000 310 430 0
2021-10-17 11:32:19 GMT 43.029877 16.862097 38,000 310 430 0
2021-10-17 11:32:14 GMT 43.023148 16.873083 38,000 310 430 0
2021-10-17 11:32:09 GMT 43.014862 16.886625 38,000 310 429 0
2021-10-17 11:32:05 GMT 43.011662 16.891806 38,000 310 429 0
2021-10-17 11:31:59 GMT 43.003372 16.905275 38,000 310 429 0
2021-10-17 11:31:55 GMT 42.999664 16.911280 38,000 311 430 0
2021-10-17 11:31:48 GMT 42.989689 16.927446 38,000 311 429 0
2021-10-17 11:31:38 GMT 42.975208 16.950792 38,000 311 429 0
2021-10-17 11:31:27 GMT 42.963547 16.969597 38,000 311 429 0
2021-10-17 11:31:18 GMT 42.951004 16.989834 38,000 311 430 0
2021-10-17 11:31:06 GMT 42.936943 17.012590 38,000 311 430 0
2021-10-17 11:30:56 GMT 42.923355 17.034557 38,000 311 430 0
2021-10-17 11:30:48 GMT 42.912872 17.051483 38,000 311 430 0
2021-10-17 11:30:45 GMT 42.909668 17.056658 38,000 311 430 0
2021-10-17 11:30:38 GMT 42.899422 17.073212 38,000 311 430 0
2021-10-17 11:30:32 GMT 42.893509 17.082718 38,000 311 430 0
2021-10-17 11:30:25 GMT 42.884014 17.097996 38,000 311 430 0
2021-10-17 11:30:16 GMT 42.871719 17.117849 38,000 311 430 0
2021-10-17 11:30:07 GMT 42.845398 17.160196 38,000 311 430 0
2021-10-17 11:29:45 GMT 42.832249 17.181244 38,000 311 429 64
2021-10-17 11:29:35 GMT 42.819626 17.201460 38,000 311 430 0
2021-10-17 11:29:25 GMT 42.806900 17.221819 38,000 311 430 0
2021-10-17 11:29:15 GMT 42.793797 17.242914 38,000 311 430 0
2021-10-17 11:29:08 GMT 42.784763 17.257286 38,000 311 430 0
2021-10-17 11:29:04 GMT 42.779366 17.265972 38,000 311 430 0
2021-10-17 11:29:01 GMT 42.775223 17.272568 38,000 311 430 64
2021-10-17 11:28:52 GMT 42.764786 17.289171 38,000 311 431 0
2021-10-17 11:28:44 GMT 42.754040 17.306276 38,000 311 431 0
2021-10-17 11:28:40 GMT 42.748627 17.314890 38,000 311 431 0
2021-10-17 11:28:32 GMT 42.737236 17.332977 38,000 311 431 0
2021-10-17 11:28:25 GMT 42.729229 17.345688 38,000 311 430 0
2021-10-17 11:28:21 GMT 42.724045 17.353966 38,000 311 431 0
2021-10-17 11:28:14 GMT 42.714752 17.368746 38,000 311 431 64
2021-10-17 11:28:07 GMT 42.705673 17.383118 38,000 311 431 0
2021-10-17 11:28:01 GMT 42.697815 17.395664 38,000 311 431 0
2021-10-17 11:27:54 GMT 42.687744 17.411707 38,000 311 431 0
2021-10-17 11:27:49 GMT 42.682571 17.419947 38,000 311 432 0
2021-10-17 11:27:43 GMT 42.674667 17.432491 38,000 311 432 0
2021-10-17 11:27:40 GMT 42.671082 17.438299 38,000 311 432 0
2021-10-17 11:27:32 GMT 42.660599 17.454966 38,000 311 432 0
2021-10-17 11:27:25 GMT 42.652313 17.468138 38,000 311 432 0
2021-10-17 11:27:22 GMT 42.647388 17.475927 38,000 311 432 0
2021-10-17 11:27:11 GMT 42.633041 17.498787 38,000 311 431 0
2021-10-17 11:27:10 GMT 42.631889 17.500647 38,000 311 431 0
2021-10-17 11:27:02 GMT 42.621368 17.517254 38,000 311 431 0
2021-10-17 11:26:55 GMT 42.613453 17.529837 38,000 311 432 0
2021-10-17 11:26:52 GMT 42.608006 17.538460 38,000 311 432 0
2021-10-17 11:26:45 GMT 42.600311 17.550596 38,000 311 432 0
2021-10-17 11:26:41 GMT 42.593994 17.560646 38,000 311 432 0
2021-10-17 11:26:38 GMT 42.591106 17.565159 38,000 311 432 0
2021-10-17 11:26:29 GMT 42.578911 17.584576 38,000 311 432 0
2021-10-17 11:26:17 GMT 42.563599 17.608837 38,000 311 432 -64
2021-10-17 11:26:09 GMT 42.553074 17.625521 38,000 311 432 0
2021-10-17 11:26:01 GMT 42.542633 17.641920 38,000 311 432 64
2021-10-17 11:25:52 GMT 42.528946 17.663456 38,000 311 433 0
2021-10-17 11:25:43 GMT 42.519047 17.679110 38,000 311 433 0

Making use of Plane Finder data

You are free to use the raw flight data, aircraft information and images provided in this report for your own purposes provided the data is correctly attributed to Plane Finder. We ask that you please credit Plane Finder and link to planefinder.net in close proximity to the content.

Optionally one of the following logos (no smaller then 150x24px) can be used and must link to planefinder.net

Embedding the Plane Finder map

You are welcome to embed the Plane Finder playback map on your website to offer visitors a more interactive experience. We suggest using the following HTML code:

<iframe src="//planefinder.net/data/report/LS978-G-JZHM-7700-squawk-2021-10-17/map" width="800" height="600" seamless="seamless"></iframe>

Where our data comes from

Plane Finder has a global network of data feeds and antenna radars that receive data broadcast directly from aircraft. The primary technologies used are ADS-B and MLAT. We also show feeds from the FAA and a FLARM glider feed.

Click here to find out more about the Plane Finder network.

How we collect our data